Darstellungsparameter: Aktuell verwendete Einstellungen:
Skalierung der Graphiken ... ?
xyx+y,   Skalierungsfaktor:      Skalierung: Modus: x, Faktor: 1
Darstellungszeitraum ... ?
Vom - - bis: - -   Zeitraum: 13.11.2009 - 12.05.2010
Min/Max/Avg-Anzeige ... ?
Zeige MMA aktuell
Zeige MMA Monat
Zeige MMA alles
Zeige --A aktuell
Zeige --A Monat
Zeige --A alles
Keine MMA-Anzeige
MMA:
Minimum Maximum Average (ber die Originaldaten)
MMA-Basis: 11.04.2010 - 13.05.2010
Quicknavigation für Darstellung... ?
Tage:      1T, 2T, 3T, 5T -1T -2T -3T -5T +1T +2T +3T +5T
Wochen: 1W, 2W, 3W -1W -2W -3W +1W +2W +3W
Monate: 1M, 3M, 6M -1M -3M -6M +1M +3M +6M
Jahre:    1J, 3J, 5J, 10J -1J -3J -5J -10J +1J +3J +5J +10J
Nutze für die Darstellung ... ?
Originaldaten oder Mittelwerte auf ...
Stundenbasis Tagesbasis Wochenbasis
Monatsbasis Jahresbasis      Datenbasis: Original-Daten
Darstellen als:
Statistik (Auto) Statistik J:M      Darstellung:
Zur Graphik,    zurück zur Übersicht aller Sensoren.
 
Tabellarische Datenbersicht: ?
 
<
Sensor: Nr:Datum:Temp:Abs-Feuchte:Windchill:Wind:
Aussen-T/F 1 13-11-2009 00:07:02 8.5 C 7.26 g/m*3 8.5 C 0 km/h
2 13-11-2009 00:19:02 8.3 C 7.16 g/m*3 8.3 C 0 km/h
3 13-11-2009 00:31:02 8.1 C 7.16 g/m*3 8.1 C 0 km/h
4 13-11-2009 00:43:02 7.5 C 6.96 g/m*3 7.5 C 0 km/h
5 13-11-2009 00:55:02 7.5 C 7.12 g/m*3 7.5 C 0 km/h
6 13-11-2009 01:07:02 7.3 C 7.03 g/m*3 7.3 C 0 km/h
7 13-11-2009 01:19:02 7.1 C 7.02 g/m*3 7.1 C 0 km/h
8 13-11-2009 01:31:02 7.3 C 7.19 g/m*3 7.3 C 0 km/h
9 13-11-2009 01:43:02 7.5 C 7.36 g/m*3 7.5 C 0 km/h
10 13-11-2009 01:55:02 7.5 C 7.36 g/m*3 7.5 C 0 km/h
11 13-11-2009 02:07:02 7.5 C 7.36 g/m*3 7.5 C 0 km/h
12 13-11-2009 02:19:02 7.7 C 7.54 g/m*3 7.7 C 0 km/h
13 13-11-2009 02:31:02 7.6 C 7.41 g/m*3 7.6 C 0 km/h
14 13-11-2009 02:43:02 7.5 C 7.36 g/m*3 7.5 C 0 km/h
15 13-11-2009 02:55:02 7.9 C 7.64 g/m*3 7.9 C 0 km/h
16 13-11-2009 03:07:02 8.1 C 7.66 g/m*3 8.1 C 0 km/h
17 13-11-2009 03:19:03 8.2 C 7.79 g/m*3 8.2 C 0 km/h
18 13-11-2009 03:31:03 8.5 C 7.94 g/m*3 8.5 C 0 km/h
19 13-11-2009 03:43:03 8.7 C 8.04 g/m*3 8.7 C 0 km/h
20 13-11-2009 03:55:03 8.7 C 8.04 g/m*3 8.7 C 0 km/h
21 13-11-2009 04:07:03 8.6 C 7.99 g/m*3 8.6 C 0 km/h
22 13-11-2009 04:19:03 8.6 C 7.99 g/m*3 8.6 C 0 km/h
23 13-11-2009 04:31:03 8.5 C 7.94 g/m*3 8.5 C 0 km/h
24 13-11-2009 04:43:03 8.7 C 8.13 g/m*3 8.7 C 0 km/h
25 13-11-2009 04:55:03 8.7 C 8.13 g/m*3 8.7 C 0 km/h
Sensor: Nr:Datum:Temp:Abs-Feuchte:Windchill:Wind:
Aussen-T/F 26 13-11-2009 05:07:03 8.6 C 8.08 g/m*3 8.6 C 0 km/h
27 13-11-2009 05:19:03 8.7 C 8.13 g/m*3 8.7 C 0 km/h
28 13-11-2009 05:31:03 9 C 8.29 g/m*3 9 C 0 km/h
29 13-11-2009 05:43:03 9.7 C 8.76 g/m*3 9.7 C 0 km/h
30 13-11-2009 05:55:03 9.9 C 8.87 g/m*3 9.9 C 0 km/h
31 13-11-2009 06:07:03 10.2 C 8.95 g/m*3 10.2 C 0 km/h
32 13-11-2009 06:19:03 10.4 C 9.06 g/m*3 10.4 C 0 km/h
33 13-11-2009 06:31:03 10 C 8.74 g/m*3 10 C 0 km/h
34 13-11-2009 06:43:03 10 C 8.74 g/m*3 10 C 0 km/h
35 13-11-2009 06:55:03 10 C 8.74 g/m*3 10 C 0 km/h
36 13-11-2009 07:07:01 9.8 C 8.72 g/m*3 9.8 C 0 km/h
37 13-11-2009 07:19:02 9.7 C 8.67 g/m*3 9.7 C 0 km/h
38 13-11-2009 07:31:02 10.1 C 8.89 g/m*3 10.1 C 0 km/h
39 13-11-2009 07:43:02 10.3 C 9 g/m*3 10.3 C 0 km/h
40 13-11-2009 07:55:02 10.6 C 9.17 g/m*3 10.6 C 0 km/h
41 13-11-2009 08:07:03 10.6 C 9.08 g/m*3 10.6 C 0 km/h
42 13-11-2009 08:19:02 10.7 C 9.13 g/m*3 10.7 C 0 km/h
43 13-11-2009 08:31:03 11 C 9.11 g/m*3 11 C 0 km/h
44 13-11-2009 08:43:03 11.2 C 9.02 g/m*3 11.2 C 0 km/h
45 13-11-2009 08:55:02 11.4 C 8.93 g/m*3 11.4 C 0 km/h
46 13-11-2009 09:07:03 11.5 C 8.78 g/m*3 11.5 C 0 km/h
47 13-11-2009 09:19:02 11.7 C 8.79 g/m*3 11.7 C 0 km/h
48 13-11-2009 09:31:03 11.8 C 8.74 g/m*3 11.8 C 0 km/h
49 13-11-2009 09:43:04 12 C 8.74 g/m*3 12 C 0 km/h
50 13-11-2009 09:55:02 11.9 C 8.79 g/m*3 11.9 C 0 km/h
Sensor: Nr:Datum:Temp:Abs-Feuchte:Windchill:Wind:
Aussen-T/F 51 13-11-2009 10:07:02 12.2 C 8.85 g/m*3 12.2 C 0 km/h
52 13-11-2009 10:19:02 12.9 C 8.9 g/m*3 12.9 C 0 km/h
53 13-11-2009 10:31:02 13.3 C 8.55 g/m*3 13.3 C 0 km/h
54 13-11-2009 10:43:02 13.5 C 8.54 g/m*3 13.5 C 0 km/h
55 13-11-2009 10:55:02 13.6 C 8.59 g/m*3 13.6 C 0 km/h
56 13-11-2009 11:07:02 13.6 C 8.47 g/m*3 13.6 C 0 km/h
57 13-11-2009 11:19:02 13.7 C 8.53 g/m*3 13.7 C 0 km/h
58 13-11-2009 11:31:02 13.8 C 8.46 g/m*3 13.8 C 0 km/h
59 13-11-2009 11:43:02 13.8 C 8.58 g/m*3 13.8 C 0 km/h
60 13-11-2009 11:55:02 13.8 C 8.58 g/m*3 13.8 C 0 km/h
61 13-11-2009 12:07:02 13.9 C 8.51 g/m*3 13.9 C 0 km/h
62 13-11-2009 12:19:02 14.1 C 8.25 g/m*3 14.1 C 0 km/h
63 13-11-2009 12:31:01 14.2 C 8.18 g/m*3 14.2 C 0 km/h
64 13-11-2009 12:43:01 14.2 C 8.06 g/m*3 14.2 C 0 km/h
65 13-11-2009 12:55:02 14.2 C 8.06 g/m*3 14.2 C 0 km/h
66 13-11-2009 13:07:01 14.3 C 7.99 g/m*3 14.3 C 0 km/h
67 13-11-2009 13:19:02 14.6 C 8.01 g/m*3 14.6 C 0 km/h
68 13-11-2009 13:31:02 14.9 C 8.03 g/m*3 14.9 C 0 km/h
69 13-11-2009 13:43:02 15.3 C 7.84 g/m*3 15.3 C 0 km/h
70 13-11-2009 13:55:02 16.3 C 7.91 g/m*3 16.3 C 0 km/h
71 13-11-2009 14:07:02 17.1 C 7.57 g/m*3 17.1 C 0 km/h
72 13-11-2009 14:19:02 17.4 C 7.26 g/m*3 17.4 C 0 km/h
73 13-11-2009 14:31:02 17.4 C 7.11 g/m*3 17.4 C 0 km/h
74 13-11-2009 14:43:02 17.5 C 6.86 g/m*3 17.5 C 0 km/h
75 13-11-2009 14:55:02 17.3 C 6.92 g/m*3 17.3 C 0 km/h
Sensor: Nr:Datum:Temp:Abs-Feuchte:Windchill:Wind:
Aussen-T/F 76 13-11-2009 15:07:02 17.3 C 7.22 g/m*3 17.3 C 0 km/h
77 13-11-2009 15:19:01 17.1 C 7.42 g/m*3 17.1 C 0 km/h
78 13-11-2009 15:31:02 16.6 C 7.35 g/m*3 16.6 C 0 km/h
79 13-11-2009 15:43:03 16.1 C 7.54 g/m*3 16.1 C 0 km/h
80 13-11-2009 15:55:02 15.6 C 7.58 g/m*3 15.6 C 0 km/h
81 13-11-2009 16:07:02 15.1 C 7.61 g/m*3 15.1 C 0 km/h
82 13-11-2009 16:19:02 14.7 C 7.55 g/m*3 14.7 C 0 km/h
83 13-11-2009 16:31:02 14.2 C 7.82 g/m*3 14.2 C 0 km/h
84 13-11-2009 16:43:02 13.6 C 8 g/m*3 13.6 C 0 km/h
85 13-11-2009 16:55:02 12.8 C 8.06 g/m*3 12.8 C 0 km/h
86 13-11-2009 17:07:02 12.5 C 8.14 g/m*3 12.5 C 0 km/h
87 13-11-2009 17:19:02 12.3 C 8.04 g/m*3 12.3 C 0 km/h
88 13-11-2009 17:31:02 12.1 C 8.04 g/m*3 12.1 C 0 km/h
89 13-11-2009 17:43:02 11.9 C 8.15 g/m*3 11.9 C 0 km/h
90 13-11-2009 17:55:02 11.6 C 8 g/m*3 11.6 C 0 km/h
91 13-11-2009 18:07:02 11.5 C 8.06 g/m*3 11.5 C 0 km/h
92 13-11-2009 18:19:03 11.2 C 8.01 g/m*3 11.2 C 0 km/h
93 13-11-2009 18:31:02 11.3 C 8.16 g/m*3 11.3 C 0 km/h
94 13-11-2009 18:43:02 11 C 8.01 g/m*3 11 C 0 km/h
95 13-11-2009 18:55:03 11 C 8.11 g/m*3 11 C 0 km/h
96 13-11-2009 19:07:02 11 C 8.21 g/m*3 11 C 0 km/h
97 13-11-2009 19:19:02 11.1 C 8.36 g/m*3 11.1 C 0 km/h
98 13-11-2009 19:31:02 10.8 C 8.2 g/m*3 10.8 C 0 km/h
99 13-11-2009 19:43:02 10.8 C 8.3 g/m*3 10.8 C 0 km/h
100 13-11-2009 19:55:02 10.5 C 8.15 g/m*3 10.5 C 0 km/h
Sensor: Nr:Datum:Temp:Abs-Feuchte:Windchill:Wind:
Aussen-T/F 101 13-11-2009 20:07:02 10.7 C 8.35 g/m*3 10.7 C 0 km/h
102 13-11-2009 20:19:02 10.5 C 8.24 g/m*3 10.5 C 0 km/h
103 13-11-2009 20:31:02 10.4 C 8.29 g/m*3 10.4 C 0 km/h
104 13-11-2009 20:43:02 10.3 C 8.24 g/m*3 10.3 C 0 km/h
105 13-11-2009 20:55:02 10.2 C 8.28 g/m*3 10.2 C 0 km/h
106 13-11-2009 21:07:02 10.4 C 8.48 g/m*3 10.4 C 0 km/h
107 13-11-2009 21:19:02 10.3 C 8.43 g/m*3 10.3 C 0 km/h
108 13-11-2009 21:31:02 10.3 C 8.43 g/m*3 10.3 C 0 km/h
109 13-11-2009 21:43:02 10.1 C 8.32 g/m*3 10.1 C 0 km/h
110 13-11-2009 21:55:01 10.2 C 8.47 g/m*3 10.2 C 0 km/h
111 13-11-2009 22:08:04 10.2 C 8.47 g/m*3 10.2 C 0 km/h
112 13-11-2009 22:20:04 10.1 C 8.42 g/m*3 10.1 C 0 km/h
113 13-11-2009 22:32:04 9.9 C 8.4 g/m*3 9.9 C 0 km/h
114 13-11-2009 22:44:04 9.7 C 8.3 g/m*3 9.7 C 0 km/h
115 13-11-2009 22:56:04 9.8 C 8.44 g/m*3 9.8 C 0 km/h
116 13-11-2009 23:08:04 9.7 C 8.39 g/m*3 9.7 C 0 km/h
117 13-11-2009 23:20:04 9.7 C 8.39 g/m*3 9.7 C 0 km/h
118 13-11-2009 23:32:04 9.7 C 8.48 g/m*3 9.7 C 0 km/h
119 13-11-2009 23:44:04 9.7 C 8.48 g/m*3 9.7 C 0 km/h
120 13-11-2009 23:56:04 9.7 C 8.48 g/m*3 9.7 C 0 km/h
121 14-11-2009 00:08:04 9.6 C 8.43 g/m*3 9.6 C 0 km/h
122 14-11-2009 00:20:04 9.5 C 8.37 g/m*3 9.5 C 0 km/h
123 14-11-2009 00:32:04 9.5 C 8.37 g/m*3 9.5 C 0 km/h
124 14-11-2009 00:44:05 9.4 C 8.32 g/m*3 9.4 C 0 km/h
125 14-11-2009 00:56:05 9.5 C 8.47 g/m*3 9.5 C 0 km/h
Sensor: Nr:Datum:Temp:Abs-Feuchte:Windchill:Wind:
Aussen-T/F 126 14-11-2009 01:08:05 9.5 C 8.47 g/m*3 9.5 C 0 km/h
127 14-11-2009 01:20:05 9.5 C 8.47 g/m*3 9.5 C 0 km/h
128 14-11-2009 01:32:05 9.4 C 8.41 g/m*3 9.4 C 0 km/h
129 14-11-2009 01:44:05 9.4 C 8.41 g/m*3 9.4 C 0 km/h
130 14-11-2009 01:56:05 9.3 C 8.36 g/m*3 9.3 C 0 km/h
131 14-11-2009 02:08:05 9.1 C 8.25 g/m*3 9.1 C 0 km/h
132 14-11-2009 02:20:05 9.1 C 8.25 g/m*3 9.1 C 0 km/h
133 14-11-2009 02:32:05 9.1 C 8.34 g/m*3 9.1 C 0 km/h
134 14-11-2009 02:44:05 9.5 C 8.56 g/m*3 9.5 C 0 km/h
135 14-11-2009 02:56:05 9.6 C 8.61 g/m*3 9.6 C 0 km/h
136 14-11-2009 03:08:05 9.6 C 8.61 g/m*3 9.6 C 0 km/h
137 14-11-2009 03:20:05 9.8 C 8.72 g/m*3 9.8 C 0 km/h
138 14-11-2009 03:32:05 9.9 C 8.78 g/m*3 9.9 C 0 km/h
139 14-11-2009 03:44:05 10 C 8.74 g/m*3 10 C 0 km/h
140 14-11-2009 03:56:05 10.1 C 8.79 g/m*3 10.1 C 0 km/h
141 14-11-2009 04:08:05 10.2 C 8.85 g/m*3 10.2 C 0 km/h
142 14-11-2009 04:20:05 10.4 C 8.87 g/m*3 10.4 C 0 km/h
143 14-11-2009 04:32:05 10.5 C 8.83 g/m*3 10.5 C 0 km/h
144 14-11-2009 04:44:06 10.6 C 8.88 g/m*3 10.6 C 0 km/h
145 14-11-2009 04:56:06 10.5 C 8.73 g/m*3 10.5 C 0 km/h
146 14-11-2009 05:08:06 10.6 C 8.69 g/m*3 10.6 C 0 km/h
147 14-11-2009 05:20:06 10.7 C 8.64 g/m*3 10.7 C 0 km/h
148 14-11-2009 05:32:06 10.9 C 8.55 g/m*3 10.9 C 0 km/h
149 14-11-2009 05:44:06 10.8 C 8.3 g/m*3 10.8 C 0 km/h
150 14-11-2009 05:56:06 10.7 C 8.25 g/m*3 10.7 C 0 km/h
Sensor: Nr:Datum:Temp:Abs-Feuchte:Windchill:Wind:
Aussen-T/F 151 14-11-2009 06:08:06 10.7 C 8.25 g/m*3 10.7 C 0 km/h
152 14-11-2009 06:20:06 11 C 8.21 g/m*3 11 C 0 km/h
153 14-11-2009 06:32:06 11 C 8.11 g/m*3 11 C 0 km/h
154 14-11-2009 06:44:06 10.8 C 8.11 g/m*3 10.8 C 0 km/h
155 14-11-2009 06:56:06 10.7 C 8.05 g/m*3 10.7 C 0 km/h
156 14-11-2009 07:08:06 10.7 C 8.05 g/m*3 10.7 C 0 km/h
157 14-11-2009 07:20:06 10.7 C 7.96 g/m*3 10.7 C 0 km/h
158 14-11-2009 07:32:06 10.7 C 7.96 g/m*3 10.7 C 0 km/h
159 14-11-2009 07:44:06 10.7 C 8.05 g/m*3 10.7 C 0 km/h
160 14-11-2009 07:56:06 10.7 C 7.96 g/m*3 10.7 C 0 km/h
161 14-11-2009 08:08:06 10.8 C 8.01 g/m*3 10.8 C 0 km/h
162 14-11-2009 08:20:03 10.7 C 7.86 g/m*3 10.7 C 0 km/h
163 14-11-2009 08:32:03 10.8 C 7.91 g/m*3 10.8 C 0 km/h
164 14-11-2009 08:44:03 11 C 7.91 g/m*3 11 C 0 km/h
165 14-11-2009 08:56:01 11.2 C 7.91 g/m*3 11.2 C 0 km/h
166 14-11-2009 09:08:02 11.3 C 7.85 g/m*3 11.3 C 0 km/h
167 14-11-2009 09:20:02 11.6 C 7.9 g/m*3 11.6 C 0 km/h
168 14-11-2009 09:32:01 11.8 C 7.89 g/m*3 11.8 C 0 km/h
169 14-11-2009 09:44:01 12 C 7.78 g/m*3 12 C 0 km/h
170 14-11-2009 09:56:01 12.9 C 7.78 g/m*3 12.9 C 0 km/h
171 14-11-2009 10:08:02 13.2 C 7.46 g/m*3 13.2 C 0 km/h
172 14-11-2009 10:20:02 14 C 7.36 g/m*3 14 C 0 km/h
173 14-11-2009 10:32:01 14.6 C 7.13 g/m*3 14.6 C 0 km/h
174 14-11-2009 10:44:01 14.7 C 7.05 g/m*3 14.7 C 0 km/h
175 14-11-2009 10:56:01 14.7 C 7.05 g/m*3 14.7 C 0 km/h
Sensor: Nr:Datum:Temp:Abs-Feuchte:Windchill:Wind:
Aussen-T/F 176 14-11-2009 11:08:01 14.6 C 7.01 g/m*3 14.6 C 0 km/h
177 14-11-2009 11:20:02 14.6 C 7.01 g/m*3 14.6 C 0 km/h
178 14-11-2009 11:32:01 14.6 C 7.26 g/m*3 14.6 C 0 km/h
179 14-11-2009 11:44:01 14.8 C 6.97 g/m*3 14.8 C 0 km/h
180 14-11-2009 11:56:03 14.9 C 7.14 g/m*3 14.9 C 0 km/h
181 14-11-2009 12:08:02 15.2 C 7.01 g/m*3 15.2 C 0 km/h
182 14-11-2009 12:20:02 15.4 C 6.96 g/m*3 15.4 C 0 km/h
183 14-11-2009 12:32:02 14.9 C 7.39 g/m*3 14.9 C 0 km/h
184 14-11-2009 12:44:02 14 C 7.48 g/m*3 14 C 0 km/h
185 14-11-2009 12:56:02 13.5 C 8.07 g/m*3 13.5 C 0 km/h
186 14-11-2009 13:08:02 13.1 C 8.44 g/m*3 13.1 C 0 km/h
187 14-11-2009 13:20:02 13.1 C 8.67 g/m*3 13.1 C 0 km/h
188 14-11-2009 13:32:02 13.1 C 9.01 g/m*3 13.1 C 0 km/h
189 14-11-2009 13:44:02 12.9 C 9.13 g/m*3 12.9 C 0 km/h
190 14-11-2009 13:56:02 13.1 C 8.9 g/m*3 13.1 C 0 km/h
191 14-11-2009 14:08:01 13.6 C 8.47 g/m*3 13.6 C 0 km/h
192 14-11-2009 14:20:01 13.6 C 8.24 g/m*3 13.6 C 0 km/h
193 14-11-2009 14:32:02 13.4 C 8.14 g/m*3 13.4 C 0 km/h
194 14-11-2009 14:44:02 13.2 C 8.04 g/m*3 13.2 C 0 km/h
195 14-11-2009 14:56:02 13.2 C 7.92 g/m*3 13.2 C 0 km/h
196 14-11-2009 15:08:02 13.1 C 7.76 g/m*3 13.1 C 0 km/h
197 14-11-2009 15:20:01 13.2 C 7.81 g/m*3 13.2 C 0 km/h
198 14-11-2009 15:32:02 13.2 C 7.81 g/m*3 13.2 C 0 km/h
199 14-11-2009 15:44:02 13.3 C 7.74 g/m*3 13.3 C 0 km/h
200 14-11-2009 15:56:02 13 C 7.6 g/m*3 13 C 0 km/h
Sensor: Nr:Datum:Temp:Abs-Feuchte:Windchill:Wind:
Aussen-T/F 201 14-11-2009 16:08:02 12.8 C 7.62 g/m*3 12.8 C 0 km/h
202 14-11-2009 16:20:02 12.8 C 7.5 g/m*3 12.8 C 0 km/h
203 14-11-2009 16:32:02 12.6 C 7.3 g/m*3 12.6 C 0 km/h
204 14-11-2009 16:44:02 12.5 C 7.26 g/m*3 12.5 C 0 km/h
205 14-11-2009 16:56:02 12.5 C 7.15 g/m*3 12.5 C 0 km/h
206 14-11-2009 17:08:02 12.3 C 7.17 g/m*3 12.3 C 0 km/h
207 14-11-2009 17:20:02 12.3 C 7.17 g/m*3 12.3 C 0 km/h
208 14-11-2009 17:32:02 11.8 C 7.26 g/m*3 11.8 C 0 km/h
209 14-11-2009 17:44:02 11.5 C 7.23 g/m*3 11.5 C 0 km/h
210 14-11-2009 17:56:02 11.4 C 7.39 g/m*3 11.4 C 0 km/h
211 14-11-2009 18:08:02 11.2 C 7.4 g/m*3 11.2 C 0 km/h
212 14-11-2009 18:20:03 11.2 C 7.4 g/m*3 11.2 C 0 km/h
213 14-11-2009 18:32:02 11.3 C 7.45 g/m*3 11.3 C 0 km/h
214 14-11-2009 18:44:02 11.1 C 7.35 g/m*3 11.1 C 0 km/h
215 14-11-2009 18:56:02 10.8 C 7.31 g/m*3 10.8 C 0 km/h
216 14-11-2009 19:08:02 10.4 C 7.23 g/m*3 10.4 C 0 km/h
217 14-11-2009 19:20:02 10.2 C 7.33 g/m*3 10.2 C 0 km/h
218 14-11-2009 19:32:02 10.3 C 7.47 g/m*3 10.3 C 0 km/h
219 14-11-2009 19:44:02 10.7 C 7.46 g/m*3 10.7 C 0 km/h
220 14-11-2009 19:56:02 10.7 C 7.56 g/m*3 10.7 C 0 km/h
221 14-11-2009 20:08:02 10.8 C 7.61 g/m*3 10.8 C 0 km/h
222 14-11-2009 20:20:02 10.8 C 7.51 g/m*3 10.8 C 0 km/h
223 14-11-2009 20:32:02 10.7 C 7.37 g/m*3 10.7 C 0 km/h
224 14-11-2009 20:44:02 11 C 7.41 g/m*3 11 C 0 km/h
225 14-11-2009 20:56:02 11.1 C 7.35 g/m*3 11.1 C 0 km/h
Sensor: Nr:Datum:Temp:Abs-Feuchte:Windchill:Wind:
Aussen-T/F 226 14-11-2009 21:08:02 11.5 C 7.33 g/m*3 11.5 C 0 km/h
227 14-11-2009 21:20:02 11.7 C 7.22 g/m*3 11.7 C 0 km/h
228 14-11-2009 21:32:02 11.6 C 7.07 g/m*3 11.6 C 0 km/h
229 14-11-2009 21:44:02 11.4 C 7.19 g/m*3 11.4 C 0 km/h
230 14-11-2009 21:56:02 11.9 C 7.1 g/m*3 11.9 C 0 km/h
231 14-11-2009 22:08:03 12.2 C 7.01 g/m*3 12.2 C 0 km/h
232 14-11-2009 22:20:02 12.6 C 6.97 g/m*3 12.6 C 0 km/h
233 14-11-2009 22:32:02 12.9 C 6.88 g/m*3 12.9 C 0 km/h
234 14-11-2009 22:44:02 13 C 6.69 g/m*3 13 C 0 km/h
235 14-11-2009 22:57:03 13.1 C 6.62 g/m*3 13.1 C 0 km/h
236 14-11-2009 23:09:03 13.2 C 6.54 g/m*3 13.2 C 0 km/h
237 14-11-2009 23:21:03 13.2 C 6.54 g/m*3 13.2 C 0 km/h
238 14-11-2009 23:33:03 13 C 6.58 g/m*3 13 C 0 km/h
239 14-11-2009 23:45:03 12.8 C 6.72 g/m*3 12.8 C 0 km/h
240 14-11-2009 23:57:03 12.7 C 6.68 g/m*3 12.7 C 0 km/h
241 15-11-2009 00:09:04 12.6 C 6.75 g/m*3 12.6 C 0 km/h
242 15-11-2009 00:21:04 12.6 C 6.75 g/m*3 12.6 C 0 km/h
243 15-11-2009 00:33:04 12.5 C 6.82 g/m*3 12.5 C 0 km/h
244 15-11-2009 00:45:04 12.3 C 6.95 g/m*3 12.3 C 0 km/h
245 15-11-2009 00:57:04 12.3 C 7.06 g/m*3 12.3 C 0 km/h
246 15-11-2009 01:09:04 12.2 C 7.01 g/m*3 12.2 C 0 km/h
247 15-11-2009 01:21:04 12.2 C 6.91 g/m*3 12.2 C 0 km/h
248 15-11-2009 01:33:04 12.1 C 6.86 g/m*3 12.1 C 0 km/h
249 15-11-2009 01:45:04 12.2 C 6.8 g/m*3 12.2 C 0 km/h
250 15-11-2009 01:57:04 12 C 6.82 g/m*3 12 C 0 km/h
Sensor: Nr:Datum:Temp:Abs-Feuchte:Windchill:Wind:
Aussen-T/F 251 15-11-2009 02:09:04 11.8 C 6.84 g/m*3 11.8 C 0 km/h
252 15-11-2009 02:21:04 11.7 C 6.9 g/m*3 11.7 C 0 km/h
253 15-11-2009 02:33:04 11.5 C 6.82 g/m*3 11.5 C 0 km/h
254 15-11-2009 02:45:04 11.5 C 6.82 g/m*3 11.5 C 0 km/h
255 15-11-2009 02:57:04 11.4 C 6.77 g/m*3 11.4 C 0 km/h
256 15-11-2009 03:09:04 11.5 C 6.82 g/m*3 11.5 C 0 km/h
257 15-11-2009 03:21:04 11.4 C 6.77 g/m*3 11.4 C 0 km/h
258 15-11-2009 03:33:04 11.2 C 6.79 g/m*3 11.2 C 0 km/h
259 15-11-2009 03:45:04 11.4 C 6.77 g/m*3 11.4 C 0 km/h
260 15-11-2009 03:57:04 11.4 C 6.77 g/m*3 11.4 C 0 km/h
261 15-11-2009 04:09:05 11.5 C 6.82 g/m*3 11.5 C 0 km/h
262 15-11-2009 04:21:05 11.3 C 6.83 g/m*3 11.3 C 0 km/h
263 15-11-2009 04:33:05 11.2 C 6.79 g/m*3 11.2 C 0 km/h
264 15-11-2009 04:45:05 11.2 C 6.79 g/m*3 11.2 C 0 km/h
265 15-11-2009 04:57:05 10.8 C 6.72 g/m*3 10.8 C 0 km/h
266 15-11-2009 05:09:05 10.3 C 6.7 g/m*3 10.3 C 0 km/h
267 15-11-2009 05:21:05 10.2 C 6.85 g/m*3 10.2 C 0 km/h
268 15-11-2009 05:33:05 10 C 6.77 g/m*3 10 C 0 km/h
269 15-11-2009 05:45:05 9.8 C 6.87 g/m*3 9.8 C 0 km/h
270 15-11-2009 05:57:05 9.7 C 6.82 g/m*3 9.7 C 0 km/h
271 15-11-2009 06:09:05 9.5 C 6.83 g/m*3 9.5 C 0 km/h
272 15-11-2009 06:21:05 9.3 C 6.83 g/m*3 9.3 C 0 km/h
273 15-11-2009 06:33:05 9.1 C 6.83 g/m*3 9.1 C 0 km/h
274 15-11-2009 06:45:05 9.5 C 7.01 g/m*3 9.5 C 0 km/h
275 15-11-2009 06:57:05 9.2 C 6.88 g/m*3 9.2 C 0 km/h
Sensor: Nr:Datum:Temp:Abs-Feuchte:Windchill:Wind:
Aussen-T/F 276 15-11-2009 07:09:05 9.2 C 6.97 g/m*3 9.2 C 0 km/h
277 15-11-2009 07:21:05 9.3 C 7.01 g/m*3 9.3 C 0 km/h
278 15-11-2009 07:33:03 9.6 C 7.15 g/m*3 9.6 C 0 km/h
279 15-11-2009 07:45:02 9.8 C 7.14 g/m*3 9.8 C 0 km/h
280 15-11-2009 07:57:02 10 C 6.95 g/m*3 10 C 0 km/h
281 15-11-2009 08:09:01 10.2 C 7.04 g/m*3 10.2 C 0 km/h
282 15-11-2009 08:21:01 10.4 C 7.04 g/m*3 10.4 C 0 km/h
283 15-11-2009 08:33:02 10.6 C 7.03 g/m*3 10.6 C 0 km/h
284 15-11-2009 08:45:02 10.8 C 7.02 g/m*3 10.8 C 0 km/h
285 15-11-2009 08:57:02 11 C 7.01 g/m*3 11 C 0 km/h
286 15-11-2009 09:09:02 11.1 C 7.15 g/m*3 11.1 C 0 km/h
287 15-11-2009 09:21:02 11.3 C 7.24 g/m*3 11.3 C 0 km/h
288 15-11-2009 09:33:02 11.3 C 7.24 g/m*3 11.3 C 0 km/h
289 15-11-2009 09:45:02 11.5 C 7.23 g/m*3 11.5 C 0 km/h
290 15-11-2009 09:57:02 11.7 C 7.32 g/m*3 11.7 C 0 km/h
291 15-11-2009 10:09:02 11.8 C 7.26 g/m*3 11.8 C 0 km/h
292 15-11-2009 10:21:02 11.9 C 7.31 g/m*3 11.9 C 0 km/h
293 15-11-2009 10:33:02 12 C 7.25 g/m*3 12 C 0 km/h
294 15-11-2009 10:45:02 11.9 C 7.2 g/m*3 11.9 C 0 km/h
295 15-11-2009 10:57:02 12 C 7.25 g/m*3 12 C 0 km/h
296 15-11-2009 11:09:02 12.1 C 7.29 g/m*3 12.1 C 0 km/h
297 15-11-2009 11:21:03 12.2 C 7.23 g/m*3 12.2 C 0 km/h
298 15-11-2009 11:33:02 12.3 C 7.28 g/m*3 12.3 C 0 km/h
299 15-11-2009 11:45:03 12.4 C 7.21 g/m*3 12.4 C 0 km/h
300 15-11-2009 11:57:03 12.8 C 7.5 g/m*3 12.8 C 0 km/h
Sensor: Nr:Datum:Temp:Abs-Feuchte:Windchill:Wind:
Aussen-T/F 301 15-11-2009 12:09:02 13.1 C 7.42 g/m*3 13.1 C 0 km/h
302 15-11-2009 12:21:02 13.2 C 7.35 g/m*3 13.2 C 0 km/h
303 15-11-2009 12:33:02 13 C 7.26 g/m*3 13 C 0 km/h
304 15-11-2009 12:45:02 12.9 C 7.33 g/m*3 12.9 C 0 km/h
305 15-11-2009 12:57:02 13.2 C 7.23 g/m*3 13.2 C 0 km/h
306 15-11-2009 13:09:02 13.1 C 7.19 g/m*3 13.1 C 0 km/h
307 15-11-2009 13:21:02 13.2 C 7.23 g/m*3 13.2 C 0 km/h
308 15-11-2009 13:33:02 13.5 C 7.37 g/m*3 13.5 C 0 km/h
309 15-11-2009 13:45:02 13.6 C 7.3 g/m*3 13.6 C 0 km/h
310 15-11-2009 13:57:02 13.4 C 7.09 g/m*3 13.4 C 0 km/h
311 15-11-2009 14:09:01 12.9 C 7.1 g/m*3 12.9 C 0 km/h
312 15-11-2009 14:21:02 13.2 C 7 g/m*3 13.2 C 0 km/h
313 15-11-2009 14:33:02 13.2 C 6.66 g/m*3 13.2 C 0 km/h
314 15-11-2009 14:45:02 13.6 C 6.59 g/m*3 13.6 C 0 km/h
315 15-11-2009 14:57:02 14 C 6.63 g/m*3 14 C 0 km/h
316 15-11-2009 15:09:02 14.3 C 6.39 g/m*3 14.3 C 0 km/h
317 15-11-2009 15:21:02 14.1 C 6.31 g/m*3 14.1 C 0 km/h
318 15-11-2009 15:33:03 13.8 C 6.2 g/m*3 13.8 C 0 km/h
319 15-11-2009 15:45:02 13.8 C 6.2 g/m*3 13.8 C 0 km/h
320 15-11-2009 15:57:02 13.5 C 6.2 g/m*3 13.5 C 0 km/h
321 15-11-2009 16:09:02 13.1 C 6.28 g/m*3 13.1 C 0 km/h
322 15-11-2009 16:21:01 13 C 6.35 g/m*3 13 C 0 km/h
323 15-11-2009 16:33:02 12.8 C 6.5 g/m*3 12.8 C 0 km/h
324 15-11-2009 16:45:02 12.7 C 6.35 g/m*3 12.7 C 0 km/h
325 15-11-2009 16:57:02 12.3 C 6.41 g/m*3 12.3 C 0 km/h
Sensor: Nr:Datum:Temp:Abs-Feuchte:Windchill:Wind:
Aussen-T/F 326 15-11-2009 17:09:02 12.3 C 6.41 g/m*3 12.3 C 0 km/h
327 15-11-2009 17:21:02 12.1 C 6.33 g/m*3 12.1 C 0 km/h
328 15-11-2009 17:33:02 11.8 C 6.53 g/m*3 11.8 C 0 km/h
329 15-11-2009 17:45:02 11.5 C 6.51 g/m*3 11.5 C 0 km/h
330 15-11-2009 17:57:02 11.5 C 6.51 g/m*3 11.5 C 0 km/h
331 15-11-2009 18:09:02 11.2 C 6.49 g/m*3 11.2 C 0 km/h
332 15-11-2009 18:21:02 10.9 C 6.56 g/m*3 10.9 C 0 km/h
333 15-11-2009 18:33:02 10.8 C 6.62 g/m*3 10.8 C 0 km/h
334 15-11-2009 18:45:02 11.1 C 6.55 g/m*3 11.1 C 0 km/h
335 15-11-2009 18:57:02 11.4 C 6.47 g/m*3 11.4 C 0 km/h
336 15-11-2009 19:09:02 11.2 C 6.49 g/m*3 11.2 C 0 km/h
337 15-11-2009 19:21:02 10.8 C 6.52 g/m*3 10.8 C 0 km/h
338 15-11-2009 19:33:02 10.6 C 6.64 g/m*3 10.6 C 0 km/h
339 15-11-2009 19:45:01 10.4 C 6.65 g/m*3 10.4 C 0 km/h
340 15-11-2009 19:57:01 10.1 C 6.62 g/m*3 10.1 C 0 km/h
341 15-11-2009 20:09:01 9.9 C 6.82 g/m*3 9.9 C 0 km/h
342 15-11-2009 20:21:02 9.8 C 6.77 g/m*3 9.8 C 0 km/h
343 15-11-2009 20:33:01 9.6 C 6.78 g/m*3 9.6 C 0 km/h
344 15-11-2009 20:45:03 9.6 C 6.78 g/m*3 9.6 C 0 km/h
345 15-11-2009 20:57:03 9.4 C 6.69 g/m*3 9.4 C 0 km/h
346 15-11-2009 21:09:03 9.3 C 6.74 g/m*3 9.3 C 0 km/h
347 15-11-2009 21:21:02 9.2 C 6.79 g/m*3 9.2 C 0 km/h
348 15-11-2009 21:33:02 9.1 C 6.74 g/m*3 9.1 C 0 km/h
349 15-11-2009 21:46:03 9.1 C 6.83 g/m*3 9.1 C 0 km/h
350 15-11-2009 21:58:03 8.7 C 6.83 g/m*3 8.7 C 0 km/h
Sensor: Nr:Datum:Temp:Abs-Feuchte:Windchill:Wind:
Aussen-T/F 351 15-11-2009 22:10:03 8.6 C 6.79 g/m*3 8.6 C 0 km/h
352 15-11-2009 22:22:03 8.5 C 6.83 g/m*3 8.5 C 0 km/h
353 15-11-2009 22:34:03 8.5 C 6.83 g/m*3 8.5 C 0 km/h
354 15-11-2009 22:46:03 8.5 C 6.92 g/m*3 8.5 C 0 km/h
355 15-11-2009 22:58:03 8.3 C 6.83 g/m*3 8.3 C 0 km/h
356 15-11-2009 23:10:03 8.1 C 6.74 g/m*3 8.1 C 0 km/h
357 15-11-2009 23:22:03 8 C 6.7 g/m*3 8 C 0 km/h
358 15-11-2009 23:34:04 7.9 C 6.82 g/m*3 7.9 C 0 km/h
359 15-11-2009 23:46:04 7.8 C 6.77 g/m*3 7.8 C 0 km/h
360 15-11-2009 23:58:04 7.8 C 6.77 g/m*3 7.8 C 0 km/h
361 16-11-2009 00:10:04 7.7 C 6.73 g/m*3 7.7 C 0 km/h
362 16-11-2009 00:22:04 7.7 C 6.73 g/m*3 7.7 C 0 km/h
363 16-11-2009 00:34:04 7.5 C 6.72 g/m*3 7.5 C 0 km/h
364 16-11-2009 00:46:04 7.5 C 6.72 g/m*3 7.5 C 0 km/h
365 16-11-2009 00:58:04 7.4 C 6.68 g/m*3 7.4 C 0 km/h
366 16-11-2009 01:10:04 7.3 C 6.64 g/m*3 7.3 C 0 km/h
367 16-11-2009 01:22:04 7.3 C 6.64 g/m*3 7.3 C 0 km/h
368 16-11-2009 01:34:04 7.3 C 6.72 g/m*3 7.3 C 0 km/h
369 16-11-2009 01:46:04 7.1 C 6.63 g/m*3 7.1 C 0 km/h
370 16-11-2009 01:58:04 7 C 6.59 g/m*3 7 C 0 km/h
371 16-11-2009 02:10:04 7.1 C 6.71 g/m*3 7.1 C 0 km/h
372 16-11-2009 02:22:04 7.1 C 6.71 g/m*3 7.1 C 0 km/h
373 16-11-2009 02:34:04 7.1 C 6.71 g/m*3 7.1 C 0 km/h
374 16-11-2009 02:46:04 7.1 C 6.71 g/m*3 7.1 C 0 km/h
375 16-11-2009 02:58:04 7.1 C 6.79 g/m*3 7.1 C 0 km/h
Sensor: Nr:Datum:Temp:Abs-Feuchte:Windchill:Wind:
Aussen-T/F 376 16-11-2009 03:10:04 7 C 6.74 g/m*3 7 C 0 km/h
377 16-11-2009 03:22:04 7 C 6.74 g/m*3 7 C 0 km/h
378 16-11-2009 03:34:05 7 C 6.82 g/m*3 7 C 0 km/h
379 16-11-2009 03:46:05 7.1 C 6.86 g/m*3 7.1 C 0 km/h
380 16-11-2009 03:58:05 7.1 C 6.86 g/m*3 7.1 C 0 km/h
381 16-11-2009 04:10:05 7.3 C 6.95 g/m*3 7.3 C 0 km/h
382 16-11-2009 04:22:05 7.4 C 7 g/m*3 7.4 C 0 km/h
383 16-11-2009 04:34:05 7.5 C 7.04 g/m*3 7.5 C 0 km/h
384 16-11-2009 04:46:05 7.5 C 7.04 g/m*3 7.5 C 0 km/h
385 16-11-2009 04:58:05 7.5 C 6.96 g/m*3 7.5 C 0 km/h
386 16-11-2009 05:10:05 7.5 C 6.96 g/m*3 7.5 C 0 km/h
387 16-11-2009 05:22:05 7.5 C 6.96 g/m*3 7.5 C 0 km/h
388 16-11-2009 05:34:05 7.6 C 7.01 g/m*3 7.6 C 0 km/h
389 16-11-2009 05:46:05 7.6 C 7.01 g/m*3 7.6 C 0 km/h
390 16-11-2009 05:58:05 7.6 C 7.01 g/m*3 7.6 C 0 km/h
391 16-11-2009 06:10:05 7.8 C 7.18 g/m*3 7.8 C 0 km/h
392 16-11-2009 06:22:05 7.9 C 7.23 g/m*3 7.9 C 0 km/h
393 16-11-2009 06:34:05 8 C 7.19 g/m*3 8 C 0 km/h
394 16-11-2009 06:46:05 7.9 C 7.23 g/m*3 7.9 C 0 km/h
395 16-11-2009 06:58:05 7.9 C 7.23 g/m*3 7.9 C 0 km/h
396 16-11-2009 07:10:04 7.9 C 7.23 g/m*3 7.9 C 0 km/h
397 16-11-2009 07:22:03 7.9 C 7.31 g/m*3 7.9 C 0 km/h
398 16-11-2009 07:34:04 8 C 7.28 g/m*3 8 C 0 km/h
399 16-11-2009 07:46:02 8.1 C 7.41 g/m*3 8.1 C 0 km/h
400 16-11-2009 07:58:02 8.1 C 7.41 g/m*3 8.1 C 0 km/h
Sensor: Nr:Datum:Temp:Abs-Feuchte:Windchill:Wind:
Aussen-T/F 401 16-11-2009 08:10:02 8.2 C 7.45 g/m*3 8.2 C 0 km/h
402 16-11-2009 08:22:02 8.2 C 7.45 g/m*3 8.2 C 0 km/h
403 16-11-2009 08:34:02 8.3 C 7.59 g/m*3 8.3 C 0 km/h
404 16-11-2009 08:46:02 8.4 C 7.72 g/m*3 8.4 C 0 km/h
405 16-11-2009 08:58:02 8.6 C 7.82 g/m*3 8.6 C 0 km/h
406 16-11-2009 09:10:03 8.9 C 7.97 g/m*3 8.9 C 0 km/h
407 16-11-2009 09:22:02 8.9 C 8.06 g/m*3 8.9 C 0 km/h
408 16-11-2009 09:34:02 8.9 C 8.06 g/m*3 8.9 C 0 km/h
409 16-11-2009 09:46:01 9.1 C 8.16 g/m*3 9.1 C 0 km/h
410 16-11-2009 09:58:01 9.2 C 8.3 g/m*3 9.2 C 0 km/h
411 16-11-2009 10:10:01 9.6 C 8.61 g/m*3 9.6 C 0 km/h
412 16-11-2009 10:22:02 9.9 C 8.78 g/m*3 9.9 C 0 km/h
413 16-11-2009 10:34:02 9.8 C 8.72 g/m*3 9.8 C 0 km/h
414 16-11-2009 10:46:02 10 C 8.74 g/m*3 10 C 0 km/h
415 16-11-2009 10:58:03 10 C 8.74 g/m*3 10 C 0 km/h
416 16-11-2009 11:10:02 10.1 C 8.79 g/m*3 10.1 C 0 km/h
417 16-11-2009 11:22:02 10.2 C 8.95 g/m*3 10.2 C 0 km/h
418 16-11-2009 11:34:02 10.2 C 8.95 g/m*3 10.2 C 0 km/h
419 16-11-2009 11:46:02 10.3 C 9 g/m*3 10.3 C 0 km/h
420 16-11-2009 11:58:02 10.5 C 9.12 g/m*3 10.5 C 0 km/h
421 16-11-2009 12:10:02 10.6 C 9.17 g/m*3 10.6 C 0 km/h
422 16-11-2009 12:22:01 10.9 C 9.35 g/m*3 10.9 C 0 km/h
423 16-11-2009 12:34:02 11.4 C 9.65 g/m*3 11.4 C 0 km/h
424 16-11-2009 12:46:02 11.6 C 9.87 g/m*3 11.6 C 0 km/h
425 16-11-2009 12:58:02 11.8 C 10 g/m*3 11.8 C 0 km/h
Sensor: Nr:Datum:Temp:Abs-Feuchte:Windchill:Wind:
Aussen-T/F 426 16-11-2009 13:10:02 12 C 10.02 g/m*3 12 C 0 km/h
427 16-11-2009 13:22:02 12.4 C 10.38 g/m*3 12.4 C 0 km/h
428 16-11-2009 13:34:02 12.5 C 10.33 g/m*3 12.5 C 0 km/h
429 16-11-2009 13:46:02 12.6 C 10.4 g/m*3 12.6 C 0 km/h
430 16-11-2009 13:58:02 12.7 C 10.46 g/m*3 12.7 C 0 km/h
431 16-11-2009 14:10:02 12.8 C 10.53 g/m*3 12.8 C 0 km/h
432 16-11-2009 14:22:02 13 C 10.55 g/m*3 13 C 0 km/h
433 16-11-2009 14:34:02 13.4 C 10.69 g/m*3 13.4 C 0 km/h
434 16-11-2009 14:46:02 13.7 C 10.66 g/m*3 13.7 C 0 km/h
435 16-11-2009 14:58:02 13.9 C 10.67 g/m*3 13.9 C 0 km/h
436 16-11-2009 15:10:02 14 C 10.49 g/m*3 14 C 0 km/h
437 16-11-2009 15:22:02 14 C 10.25 g/m*3 14 C 0 km/h
438 16-11-2009 15:34:02 14 C 10.37 g/m*3 14 C 0 km/h
439 16-11-2009 15:46:02 13.9 C 10.43 g/m*3 13.9 C 0 km/h
440 16-11-2009 15:58:02 14.1 C 10.44 g/m*3 14.1 C 0 km/h
441 16-11-2009 16:10:02 14.1 C 10.44 g/m*3 14.1 C 0 km/h
442 16-11-2009 16:22:03 14.2 C 10.26 g/m*3 14.2 C 0 km/h
443 16-11-2009 16:34:02 14.2 C 10.26 g/m*3 14.2 C 0 km/h
444 16-11-2009 16:46:02 14.4 C 10.14 g/m*3 14.4 C 0 km/h
445 16-11-2009 16:58:02 14.3 C 9.95 g/m*3 14.3 C 0 km/h
446 16-11-2009 17:10:02 14.4 C 10.01 g/m*3 14.4 C 0 km/h
447 16-11-2009 17:22:02 14.5 C 9.83 g/m*3 14.5 C 0 km/h
448 16-11-2009 17:34:02 14.4 C 9.77 g/m*3 14.4 C 0 km/h
449 16-11-2009 17:46:02 14.4 C 9.77 g/m*3 14.4 C 0 km/h
450 16-11-2009 17:58:02 14.3 C 9.71 g/m*3 14.3 C 0 km/h
Sensor: Nr:Datum:Temp:Abs-Feuchte:Windchill:Wind:
Aussen-T/F 451 16-11-2009 18:10:02 14.1 C 9.71 g/m*3 14.1 C 0 km/h
452 16-11-2009 18:22:02 14.2 C 9.65 g/m*3 14.2 C 0 km/h
453 16-11-2009 18:34:01 14.3 C 9.58 g/m*3 14.3 C 0 km/h
454 16-11-2009 18:46:02 14.5 C 9.58 g/m*3 14.5 C 0 km/h
455 16-11-2009 18:58:02 14.8 C 9.37 g/m*3 14.8 C 0 km/h
456 16-11-2009 19:10:01 14.8 C 9.25 g/m*3 14.8 C 0 km/h
457 16-11-2009 19:22:02 14.8 C 9.25 g/m*3 14.8 C 0 km/h
458 16-11-2009 19:34:01 14.8 C 9.25 g/m*3 14.8 C 0 km/h
459 16-11-2009 19:46:02 14.7 C 9.32 g/m*3 14.7 C 0 km/h
460 16-11-2009 19:58:02 14.6 C 9.26 g/m*3 14.6 C 0 km/h
461 16-11-2009 20:10:02 14.5 C 9.2 g/m*3 14.5 C 0 km/h
462 16-11-2009 20:22:02 14.5 C 9.33 g/m*3 14.5 C 0 km/h
463 16-11-2009 20:34:03 14.4 C 9.27 g/m*3 14.4 C 0 km/h
464 16-11-2009 20:46:02 14.5 C 9.2 g/m*3 14.5 C 0 km/h
465 16-11-2009 20:58:03 14.6 C 9.01 g/m*3 14.6 C 0 km/h
466 16-11-2009 21:10:01 14.5 C 9.08 g/m*3 14.5 C 0 km/h
467 16-11-2009 21:22:02 14.6 C 9.13 g/m*3 14.6 C 0 km/h
468 16-11-2009 21:34:02 14 C 9.41 g/m*3 14 C 0 km/h
469 16-11-2009 21:46:02 13.6 C 9.53 g/m*3 13.6 C 0 km/h
470 16-11-2009 21:58:02 13.7 C 9.71 g/m*3 13.7 C 0 km/h
471 16-11-2009 22:10:03 13.6 C 9.77 g/m*3 13.6 C 0 km/h
472 16-11-2009 22:22:02 13.7 C 9.71 g/m*3 13.7 C 0 km/h
473 16-11-2009 22:35:02 13.6 C 9.65 g/m*3 13.6 C 0 km/h
474 16-11-2009 22:47:02 13.8 C 9.65 g/m*3 13.8 C 0 km/h
475 16-11-2009 22:59:02 14 C 9.53 g/m*3 14 C 0 km/h
Sensor: Nr:Datum:Temp:Abs-Feuchte:Windchill:Wind:
Aussen-T/F 476 16-11-2009 23:11:02 14 C 9.41 g/m*3 14 C 0 km/h
477 16-11-2009 23:23:02 13.9 C 9.47 g/m*3 13.9 C 0 km/h
478 16-11-2009 23:35:02 13.8 C 9.53 g/m*3 13.8 C 0 km/h
479 16-11-2009 23:47:02 13.7 C 9.47 g/m*3 13.7 C 0 km/h
480 16-11-2009 23:59:02 13.8 C 9.53 g/m*3 13.8 C 0 km/h
481 17-11-2009 00:11:02 14 C 9.29 g/m*3 14 C 0 km/h
482 17-11-2009 00:23:02 14 C 9.17 g/m*3 14 C 0 km/h
483 17-11-2009 00:35:02 13.8 C 9.17 g/m*3 13.8 C 0 km/h
484 17-11-2009 00:47:02 13.8 C 9.17 g/m*3 13.8 C 0 km/h
485 17-11-2009 00:59:02 13.8 C 9.06 g/m*3 13.8 C 0 km/h
486 17-11-2009 01:11:02 13.9 C 8.87 g/m*3 13.9 C 0 km/h
487 17-11-2009 01:23:02 14 C 8.81 g/m*3 14 C 0 km/h
488 17-11-2009 01:35:02 13.8 C 8.82 g/m*3 13.8 C 0 km/h
489 17-11-2009 01:47:02 13.7 C 8.88 g/m*3 13.7 C 0 km/h
490 17-11-2009 01:59:02 13.6 C 8.83 g/m*3 13.6 C 0 km/h
491 17-11-2009 02:11:02 13.8 C 8.94 g/m*3 13.8 C 0 km/h
492 17-11-2009 02:23:02 13.7 C 8.76 g/m*3 13.7 C 0 km/h
493 17-11-2009 02:35:03 13.4 C 8.72 g/m*3 13.4 C 0 km/h
494 17-11-2009 02:47:03 13.2 C 8.73 g/m*3 13.2 C 0 km/h
495 17-11-2009 02:59:03 13 C 8.85 g/m*3 13 C 0 km/h
496 17-11-2009 03:11:03 12.8 C 9.07 g/m*3 12.8 C 0 km/h
497 17-11-2009 03:23:03 12.8 C 9.18 g/m*3 12.8 C 0 km/h
498 17-11-2009 03:35:03 12.8 C 9.18 g/m*3 12.8 C 0 km/h
499 17-11-2009 03:47:03 12.7 C 9.13 g/m*3 12.7 C 0 km/h
500 17-11-2009 03:59:03 12.8 C 9.3 g/m*3 12.8 C 0 km/h
Sensor: Nr:Datum:Temp:Abs-Feuchte:Windchill:Wind:
Aussen-T/F 501 17-11-2009 04:11:03 12.9 C 9.24 g/m*3 12.9 C 0 km/h
502 17-11-2009 04:23:03 12.8 C 9.18 g/m*3 12.8 C 0 km/h
503 17-11-2009 04:35:03 12.6 C 9.18 g/m*3 12.6 C 0 km/h
504 17-11-2009 04:47:03 12.5 C 9.13 g/m*3 12.5 C 0 km/h
505 17-11-2009 04:59:03 12.5 C 9.24 g/m*3 12.5 C 0 km/h
506 17-11-2009 05:11:03 12.4 C 9.29 g/m*3 12.4 C 0 km/h
507 17-11-2009 05:23:03 12.3 C 9.23 g/m*3 12.3 C 0 km/h
508 17-11-2009 05:35:03 12.2 C 9.28 g/m*3 12.2 C 0 km/h
509 17-11-2009 05:47:03 12.3 C 9.34 g/m*3 12.3 C 0 km/h
510 17-11-2009 05:59:03 12.4 C 9.29 g/m*3 12.4 C 0 km/h
511 17-11-2009 06:11:03 12.4 C 9.29 g/m*3 12.4 C 0 km/h
512 17-11-2009 06:23:03 12.2 C 9.17 g/m*3 12.2 C 0 km/h
513 17-11-2009 06:35:03 12.1 C 9.12 g/m*3 12.1 C 0 km/h
514 17-11-2009 06:47:04 12 C 9.17 g/m*3 12 C 0 km/h
515 17-11-2009 06:59:04 12 C 9.27 g/m*3 12 C 0 km/h
516 17-11-2009 07:11:02 11.9 C 9.43 g/m*3 11.9 C 0 km/h
517 17-11-2009 07:23:02 11.8 C 9.47 g/m*3 11.8 C 0 km/h
518 17-11-2009 07:35:02 11.6 C 9.35 g/m*3 11.6 C 0 km/h
519 17-11-2009 07:47:02 11.2 C 9.02 g/m*3 11.2 C 0 km/h
520 17-11-2009 07:59:03 11 C 8.81 g/m*3 11 C 0 km/h
521 17-11-2009 08:11:01 10.8 C 8.8 g/m*3 10.8 C 0 km/h
522 17-11-2009 08:23:01 10.8 C 8.8 g/m*3 10.8 C 0 km/h
523 17-11-2009 08:35:02 10.8 C 8.8 g/m*3 10.8 C 0 km/h
524 17-11-2009 08:47:02 10.8 C 8.9 g/m*3 10.8 C 0 km/h
525 17-11-2009 08:59:02 10.8 C 8.9 g/m*3 10.8 C 0 km/h
Sensor: Nr:Datum:Temp:Abs-Feuchte:Windchill:Wind:
Aussen-T/F 526 17-11-2009 09:11:02 10.9 C 8.95 g/m*3 10.9 C 0 km/h
527 17-11-2009 09:23:02 10 C 8.27 g/m*3 10 C 0 km/h
528 17-11-2009 09:35:02 9.8 C 8.26 g/m*3 9.8 C 0 km/h
529 17-11-2009 09:47:02 9.5 C 8.19 g/m*3 9.5 C 0 km/h
530 17-11-2009 09:59:02 9.4 C 8.23 g/m*3 9.4 C 0 km/h
531 17-11-2009 10:11:02 9.6 C 8.43 g/m*3 9.6 C 0 km/h
532 17-11-2009 10:23:03 9.7 C 8.48 g/m*3 9.7 C 0 km/h
533 17-11-2009 10:35:02 9.5 C 8.37 g/m*3 9.5 C 0 km/h
534 17-11-2009 10:47:02 9.7 C 8.57 g/m*3 9.7 C 0 km/h
535 17-11-2009 10:59:02 9.7 C 8.57 g/m*3 9.7 C 0 km/h
536 17-11-2009 11:11:02 9.8 C 8.72 g/m*3 9.8 C 0 km/h
537 17-11-2009 11:23:02 10.1 C 8.79 g/m*3 10.1 C 0 km/h
538 17-11-2009 11:35:02 10.1 C 8.79 g/m*3 10.1 C 0 km/h
539 17-11-2009 11:47:02 10.2 C 8.85 g/m*3 10.2 C 0 km/h
540 17-11-2009 11:59:02 10.1 C 8.79 g/m*3 10.1 C 0 km/h
541 17-11-2009 12:11:02 10.1 C 8.79 g/m*3 10.1 C 0 km/h
542 17-11-2009 12:23:02 10.2 C 8.85 g/m*3 10.2 C 0 km/h
543 17-11-2009 12:35:02 10.2 C 8.85 g/m*3 10.2 C 0 km/h
544 17-11-2009 12:47:02 10.3 C 8.91 g/m*3 10.3 C 0 km/h
545 17-11-2009 12:59:02 10.3 C 8.91 g/m*3 10.3 C 0 km/h
546 17-11-2009 13:11:01 10.2 C 8.76 g/m*3 10.2 C 0 km/h
547 17-11-2009 13:23:02 10.4 C 8.87 g/m*3 10.4 C 0 km/h
548 17-11-2009 13:35:01 10.1 C 8.7 g/m*3 10.1 C 0 km/h
549 17-11-2009 13:47:02 10.3 C 8.81 g/m*3 10.3 C 0 km/h
550 17-11-2009 13:59:02 10.1 C 8.61 g/m*3 10.1 C 0 km/h
Sensor: Nr:Datum:Temp:Abs-Feuchte:Windchill:Wind:
Aussen-T/F 551 17-11-2009 14:11:01 10.2 C 8.66 g/m*3 10.2 C 0 km/h
552 17-11-2009 14:23:02 10.3 C 8.62 g/m*3 10.3 C 0 km/h
553 17-11-2009 14:35:01 10.4 C 8.67 g/m*3 10.4 C 0 km/h
554 17-11-2009 14:47:03 10.6 C 8.88 g/m*3 10.6 C 0 km/h
555 17-11-2009 14:59:03 10.6 C 8.88 g/m*3 10.6 C 0 km/h
556 17-11-2009 15:11:02 10.4 C 8.67 g/m*3 10.4 C 0 km/h
557 17-11-2009 15:23:02 10.4 C 8.67 g/m*3 10.4 C 0 km/h
558 17-11-2009 15:35:02 10.2 C 8.47 g/m*3 10.2 C 0 km/h
559 17-11-2009 15:47:02 10.1 C 8.42 g/m*3 10.1 C 0 km/h
560 17-11-2009 15:59:02 10 C 8.27 g/m*3 10 C 0 km/h
561 17-11-2009 16:11:02 9.8 C 8.26 g/m*3 9.8 C 0 km/h
562 17-11-2009 16:23:02 9.7 C 8.11 g/m*3 9.7 C 0 km/h
563 17-11-2009 16:35:01 9.6 C 8.06 g/m*3 9.6 C 0 km/h
564 17-11-2009 16:47:02 9.6 C 8.06 g/m*3 9.6 C 0 km/h
565 17-11-2009 16:59:02 9.6 C 8.06 g/m*3 9.6 C 0 km/h
566 17-11-2009 17:11:01 9.5 C 8.1 g/m*3 9.5 C 0 km/h
567 17-11-2009 17:23:02 9.5 C 8.1 g/m*3 9.5 C 0 km/h
568 17-11-2009 17:35:01 9.5 C 8.1 g/m*3 9.5 C 0 km/h
569 17-11-2009 17:47:02 9.5 C 8.1 g/m*3 9.5 C 0 km/h
570 17-11-2009 17:59:02 9.5 C 8.1 g/m*3 9.5 C 0 km/h
571 17-11-2009 18:11:02 9.4 C 7.96 g/m*3 9.4 C 0 km/h
572 17-11-2009 18:23:02 9.5 C 8.01 g/m*3 9.5 C 0 km/h
573 17-11-2009 18:35:03 9.5 C 7.92 g/m*3 9.5 C 0 km/h
574 17-11-2009 18:47:02 9.6 C 7.97 g/m*3 9.6 C 0 km/h
575 17-11-2009 18:59:02 9.6 C 7.88 g/m*3 9.6 C 0 km/h
Sensor: Nr:Datum:Temp:Abs-Feuchte:Windchill:Wind:
Aussen-T/F 576 17-11-2009 19:11:01 9.8 C 7.7 g/m*3 9.8 C 0 km/h
577 17-11-2009 19:23:02 9.9 C 7.66 g/m*3 9.9 C 0 km/h
578 17-11-2009 19:35:02 9.8 C 7.7 g/m*3 9.8 C 0 km/h
579 17-11-2009 19:47:02 9.7 C 7.65 g/m*3 9.7 C 0 km/h
580 17-11-2009 19:59:02 9.7 C 7.65 g/m*3 9.7 C 0 km/h
581 17-11-2009 20:11:02 9.8 C 7.61 g/m*3 9.8 C 0 km/h
582 17-11-2009 20:23:02 9.8 C 7.61 g/m*3 9.8 C 0 km/h
583 17-11-2009 20:35:02 9.8 C 7.52 g/m*3 9.8 C 0 km/h
584 17-11-2009 20:47:01 9.8 C 7.52 g/m*3 9.8 C 0 km/h
585 17-11-2009 20:59:01 9.9 C 7.56 g/m*3 9.9 C 0 km/h
586 17-11-2009 21:11:02 9.7 C 7.47 g/m*3 9.7 C 0 km/h
587 17-11-2009 21:23:01 9.8 C 7.52 g/m*3 9.8 C 0 km/h
588 17-11-2009 21:35:01 9.6 C 7.42 g/m*3 9.6 C 0 km/h
589 17-11-2009 21:48:02 9.5 C 7.28 g/m*3 9.5 C 0 km/h
590 17-11-2009 22:00:02 9.5 C 7.37 g/m*3 9.5 C 0 km/h
591 17-11-2009 22:12:02 9.6 C 7.33 g/m*3 9.6 C 0 km/h
592 17-11-2009 22:24:02 9.5 C 7.19 g/m*3 9.5 C 0 km/h
593 17-11-2009 22:36:02 9.4 C 7.15 g/m*3 9.4 C 0 km/h
594 17-11-2009 22:48:02 9.2 C 7.05 g/m*3 9.2 C 0 km/h
595 17-11-2009 23:00:02 9.5 C 7.28 g/m*3 9.5 C 0 km/h
596 17-11-2009 23:12:02 9.7 C 7.19 g/m*3 9.7 C 0 km/h
597 17-11-2009 23:24:03 9.6 C 7.15 g/m*3 9.6 C 0 km/h
598 17-11-2009 23:36:03 9.6 C 7.15 g/m*3 9.6 C 0 km/h
599 17-11-2009 23:48:03 9.4 C 7.05 g/m*3 9.4 C 0 km/h
600 18-11-2009 00:00:03 9.4 C 7.05 g/m*3 9.4 C 0 km/h
Sensor: Nr:Datum:Temp:Abs-Feuchte:Windchill:Wind:
Aussen-T/F 601 18-11-2009 00:12:03 9.5 C 7.1 g/m*3 9.5 C 0 km/h
602 18-11-2009 00:24:03 9.6 C 7.05 g/m*3 9.6 C 0 km/h
603 18-11-2009 00:36:03 9.5 C 7.01 g/m*3 9.5 C 0 km/h
604 18-11-2009 00:48:03 9.5 C 7.1 g/m*3 9.5 C 0 km/h
605 18-11-2009 01:00:03 9.4 C 7.05 g/m*3 9.4 C 0 km/h
606 18-11-2009 01:12:03 9.3 C 7.01 g/m*3 9.3 C 0 km/h
607 18-11-2009 01:24:03 9.4 C 7.05 g/m*3 9.4 C 0 km/h
608 18-11-2009 01:36:03 9.3 C 6.92 g/m*3 9.3 C 0 km/h
609 18-11-2009 01:48:03 9.2 C 6.97 g/m*3 9.2 C 0 km/h
610 18-11-2009 02:00:03 9 C 6.88 g/m*3 9 C 0 km/h
611 18-11-2009 02:12:03 9.2 C 7.05 g/m*3 9.2 C 0 km/h
612 18-11-2009 02:24:03 9.3 C 6.92 g/m*3 9.3 C 0 km/h
613 18-11-2009 02:36:03 9.2 C 6.88 g/m*3 9.2 C 0 km/h
614 18-11-2009 02:48:03 9.1 C 6.83 g/m*3 9.1 C 0 km/h
615 18-11-2009 03:00:03 9.1 C 6.83 g/m*3 9.1 C 0 km/h
616 18-11-2009 03:12:04 8.9 C 6.92 g/m*3 8.9 C 0 km/h
617 18-11-2009 03:24:04 9 C 6.88 g/m*3 9 C 0 km/h
618 18-11-2009 03:36:04 8.8 C 6.88 g/m*3 8.8 C 0 km/h
619 18-11-2009 03:48:04 8.6 C 6.96 g/m*3 8.6 C 0 km/h
620 18-11-2009 04:00:04 8.7 C 7.01 g/m*3 8.7 C 0 km/h
621 18-11-2009 04:12:04 8.8 C 7.05 g/m*3 8.8 C 0 km/h
622 18-11-2009 04:24:04 8.7 C 7.01 g/m*3 8.7 C 0 km/h
623 18-11-2009 04:36:04 8.6 C 7.05 g/m*3 8.6 C 0 km/h
624 18-11-2009 04:48:04 8.5 C 7 g/m*3 8.5 C 0 km/h
625 18-11-2009 05:00:04 8.5 C 7.09 g/m*3 8.5 C 0 km/h
Sensor: Nr:Datum:Temp:Abs-Feuchte:Windchill:Wind:
Aussen-T/F 626 18-11-2009 05:12:04 8.8 C 7.14 g/m*3 8.8 C 0 km/h
627 18-11-2009 05:24:04 9 C 7.05 g/m*3 9 C 0 km/h
628 18-11-2009 05:36:04 8.9 C 6.92 g/m*3 8.9 C 0 km/h
629 18-11-2009 05:48:04 8.9 C 6.92 g/m*3 8.9 C 0 km/h
630 18-11-2009 06:00:04 9 C 6.79 g/m*3 9 C 0 km/h
631 18-11-2009 06:12:03 9 C 6.79 g/m*3 9 C 0 km/h
632 18-11-2009 06:24:03 8.8 C 6.79 g/m*3 8.8 C 0 km/h
633 18-11-2009 06:36:03 8.7 C 6.83 g/m*3 8.7 C 0 km/h
634 18-11-2009 06:48:02 8.7 C 6.75 g/m*3 8.7 C 0 km/h
635 18-11-2009 07:00:02 8.4 C 6.62 g/m*3 8.4 C 0 km/h
636 18-11-2009 07:12:03 8.3 C 6.66 g/m*3 8.3 C 0 km/h
637 18-11-2009 07:24:02 8 C 6.7 g/m*3 8 C 0 km/h
638 18-11-2009 07:36:02 8.4 C 6.96 g/m*3 8.4 C 0 km/h
639 18-11-2009 07:48:01 8.3 C 6.74 g/m*3 8.3 C 0 km/h
640 18-11-2009 08:00:01 8.5 C 6.66 g/m*3 8.5 C 0 km/h
641 18-11-2009 08:12:02 8.8 C 6.61 g/m*3 8.8 C 0 km/h
642 18-11-2009 08:24:01 9 C 6.52 g/m*3 9 C 0 km/h
643 18-11-2009 08:36:02 9.1 C 6.39 g/m*3 9.1 C 0 km/h
644 18-11-2009 08:48:02 9.4 C 6.51 g/m*3 9.4 C 0 km/h
645 18-11-2009 09:00:02 9.7 C 6.36 g/m*3 9.7 C 0 km/h
646 18-11-2009 09:12:02 9.7 C 6.18 g/m*3 9.7 C 0 km/h
647 18-11-2009 09:24:01 9.7 C 5.9 g/m*3 9.7 C 0 km/h
648 18-11-2009 09:36:02 9.6 C 5.86 g/m*3 9.6 C 0 km/h
649 18-11-2009 09:48:01 9.6 C 5.86 g/m*3 9.6 C 0 km/h
650 18-11-2009 10:00:01 9.9 C 6.07 g/m*3 9.9 C 0 km/h
Sensor: Nr:Datum:Temp:Abs-Feuchte:Windchill:Wind:
Aussen-T/F 651 18-11-2009 10:12:02 10.4 C 5.98 g/m*3 10.4 C 0 km/h
652 18-11-2009 10:24:02 10.6 C 5.95 g/m*3 10.6 C 0 km/h
653 18-11-2009 10:36:02 10.7 C 5.8 g/m*3 10.7 C 0 km/h
654 18-11-2009 10:48:02 10.9 C 5.67 g/m*3 10.9 C 0 km/h
655 18-11-2009 11:00:02 11 C 5.71 g/m*3 11 C 0 km/h
656 18-11-2009 11:12:02 11.1 C 5.74 g/m*3 11.1 C 0 km/h
657 18-11-2009 11:24:02 11.2 C 5.68 g/m*3 11.2 C 0 km/h
658 18-11-2009 11:36:02 11.2 C 5.57 g/m*3 11.2 C 0 km/h
659 18-11-2009 11:48:01 11.4 C 5.44 g/m*3 11.4 C 0 km/h
660 18-11-2009 12:00:01 11.7 C 5.44 g/m*3 11.7 C 0 km/h
661 18-11-2009 12:12:02 11.9 C 5.51 g/m*3 11.9 C 0 km/h
662 18-11-2009 12:24:01 11.8 C 5.16 g/m*3 11.8 C 0 km/h
663 18-11-2009 12:36:01 11.8 C 5.37 g/m*3 11.8 C 0 km/h
664 18-11-2009 12:48:01 11.7 C 5.23 g/m*3 11.7 C 0 km/h
665 18-11-2009 13:00:01 11.9 C 5.19 g/m*3 11.9 C 0 km/h
666 18-11-2009 13:12:02 12.3 C 5.21 g/m*3 12.3 C 0 km/h
667 18-11-2009 13:24:01 12.2 C 5.29 g/m*3 12.2 C 0 km/h
668 18-11-2009 13:36:02 12 C 5.12 g/m*3 12 C 0 km/h
669 18-11-2009 13:48:01 11.9 C 5.3 g/m*3 11.9 C 0 km/h
670 18-11-2009 14:00:01 11.9 C 5.4 g/m*3 11.9 C 0 km/h
671 18-11-2009 14:12:02 11.9 C 5.3 g/m*3 11.9 C 0 km/h
672 18-11-2009 14:24:01 11.9 C 5.3 g/m*3 11.9 C 0 km/h
673 18-11-2009 14:36:02 11.8 C 5.37 g/m*3 11.8 C 0 km/h
674 18-11-2009 14:48:01 11.8 C 5.26 g/m*3 11.8 C 0 km/h
675 18-11-2009 15:00:01 11.8 C 5.37 g/m*3 11.8 C 0 km/h
Sensor: Nr:Datum:Temp:Abs-Feuchte:Windchill:Wind:
Aussen-T/F 676 18-11-2009 15:12:02 11.7 C 5.33 g/m*3 11.7 C 0 km/h
677 18-11-2009 15:24:01 11.6 C 5.3 g/m*3 11.6 C 0 km/h
678 18-11-2009 15:36:02 11.5 C 5.27 g/m*3 11.5 C 0 km/h
679 18-11-2009 15:48:01 11.4 C 5.23 g/m*3 11.4 C 0 km/h
680 18-11-2009 16:00:01 11.3 C 5.41 g/m*3 11.3 C 0 km/h
681 18-11-2009 16:12:02 10.9 C 5.47 g/m*3 10.9 C 0 km/h
682 18-11-2009 16:24:02 10.9 C 5.47 g/m*3 10.9 C 0 km/h
683 18-11-2009 16:36:02 11.1 C 5.44 g/m*3 11.1 C 0 km/h
684 18-11-2009 16:48:01 11.1 C 5.44 g/m*3 11.1 C 0 km/h
685 18-11-2009 17:00:01 11.1 C 5.44 g/m*3 11.1 C 0 km/h
686 18-11-2009 17:12:02 11.1 C 5.44 g/m*3 11.1 C 0 km/h
687 18-11-2009 17:24:02 11.2 C 5.47 g/m*3 11.2 C 0 km/h
688 18-11-2009 17:36:01 11.2 C 5.57 g/m*3 11.2 C 0 km/h
689 18-11-2009 17:48:01 11.4 C 5.65 g/m*3 11.4 C 0 km/h
690 18-11-2009 18:00:01 11 C 5.61 g/m*3 11 C 0 km/h
691 18-11-2009 18:12:02 11 C 5.71 g/m*3 11 C 0 km/h
692 18-11-2009 18:24:02 10.9 C 5.87 g/m*3 10.9 C 0 km/h
693 18-11-2009 18:36:01 11 C 5.81 g/m*3 11 C 0 km/h
694 18-11-2009 18:48:02 11.1 C 5.84 g/m*3 11.1 C 0 km/h
695 18-11-2009 19:00:02 11.4 C 5.95 g/m*3 11.4 C 0 km/h
696 18-11-2009 19:12:01 11.4 C 5.95 g/m*3 11.4 C 0 km/h
697 18-11-2009 19:24:02 11.3 C 5.92 g/m*3 11.3 C 0 km/h
698 18-11-2009 19:36:01 11.3 C 5.92 g/m*3 11.3 C 0 km/h
699 18-11-2009 19:48:03 11.3 C 5.92 g/m*3 11.3 C 0 km/h
700 18-11-2009 20:00:03 11.3 C 5.92 g/m*3 11.3 C 0 km/h
Sensor: Nr:Datum:Temp:Abs-Feuchte:Windchill:Wind:
Aussen-T/F 701 18-11-2009 20:12:02 11.3 C 6.02 g/m*3 11.3 C 0 km/h
702 18-11-2009 20:24:02 11.3 C 6.02 g/m*3 11.3 C 0 km/h
703 18-11-2009 20:36:02 11.1 C 6.04 g/m*3 11.1 C 0 km/h
704 18-11-2009 20:48:02 10.9 C 6.07 g/m*3 10.9 C 0 km/h
705 18-11-2009 21:00:02 11 C 6.11 g/m*3 11 C 0 km/h
706 18-11-2009 21:12:02 11 C 6.11 g/m*3 11 C 0 km/h
707 18-11-2009 21:24:02 10.8 C 6.13 g/m*3 10.8 C 0 km/h
708 18-11-2009 21:36:02 10.6 C 6.15 g/m*3 10.6 C 0 km/h
709 18-11-2009 21:48:02 10.3 C 6.13 g/m*3 10.3 C 0 km/h
710 18-11-2009 22:00:02 10.3 C 6.22 g/m*3 10.3 C 0 km/h
711 18-11-2009 22:13:02 10.1 C 6.24 g/m*3 10.1 C 0 km/h
712 18-11-2009 22:25:02 10.2 C 6.28 g/m*3 10.2 C 0 km/h
713 18-11-2009 22:37:02 10.1 C 6.24 g/m*3 10.1 C 0 km/h
714 18-11-2009 22:49:02 10 C 6.3 g/m*3 10 C 0 km/h
715 18-11-2009 23:01:02 9.9 C 6.44 g/m*3 9.9 C 0 km/h
716 18-11-2009 23:13:02 10.1 C 6.43 g/m*3 10.1 C 0 km/h
717 18-11-2009 23:25:02 10.2 C 6.47 g/m*3 10.2 C 0 km/h
718 18-11-2009 23:37:02 10.3 C 6.42 g/m*3 10.3 C 0 km/h
719 18-11-2009 23:49:02 10.3 C 6.42 g/m*3 10.3 C 0 km/h
720 19-11-2009 00:01:02 10.1 C 6.43 g/m*3 10.1 C 0 km/h
721 19-11-2009 00:13:03 10 C 6.48 g/m*3 10 C 0 km/h
722 19-11-2009 00:25:03 9.9 C 6.63 g/m*3 9.9 C 0 km/h
723 19-11-2009 00:37:03 9.7 C 6.64 g/m*3 9.7 C 0 km/h
724 19-11-2009 00:49:03 9.5 C 6.64 g/m*3 9.5 C 0 km/h
725 19-11-2009 01:01:03 9.9 C 6.82 g/m*3 9.9 C 0 km/h
Sensor: Nr:Datum:Temp:Abs-Feuchte:Windchill:Wind:
Aussen-T/F 726 19-11-2009 01:13:03 10 C 6.77 g/m*3 10 C 0 km/h
727 19-11-2009 01:25:03 9.9 C 6.82 g/m*3 9.9 C 0 km/h
728 19-11-2009 01:37:03 9.9 C 6.82 g/m*3 9.9 C 0 km/h
729 19-11-2009 01:49:03 9.6 C 6.78 g/m*3 9.6 C 0 km/h
730 19-11-2009 02:01:03 9.7 C 6.91 g/m*3 9.7 C 0 km/h
731 19-11-2009 02:13:03 10.2 C 6.95 g/m*3 10.2 C 0 km/h
732 19-11-2009 02:25:03 10.4 C 6.84 g/m*3 10.4 C 0 km/h
733 19-11-2009 02:37:03 10.6 C 6.93 g/m*3 10.6 C 0 km/h
734 19-11-2009 02:49:03 10.6 C 6.83 g/m*3 10.6 C 0 km/h
735 19-11-2009 03:01:03 10.4 C 6.84 g/m*3 10.4 C 0 km/h
736 19-11-2009 03:13:03 10.5 C 6.89 g/m*3 10.5 C 0 km/h
737 19-11-2009 03:25:03 10.6 C 6.93 g/m*3 10.6 C 0 km/h
738 19-11-2009 03:37:03 10.6 C 6.83 g/m*3 10.6 C 0 km/h
739 19-11-2009 03:49:03 10.6 C 6.83 g/m*3 10.6 C 0 km/h
740 19-11-2009 04:01:04 10.4 C 6.75 g/m*3 10.4 C 0 km/h
741 19-11-2009 04:13:04 10 C 6.67 g/m*3 10 C 0 km/h
742 19-11-2009 04:25:04 9.8 C 6.87 g/m*3 9.8 C 0 km/h
743 19-11-2009 04:37:04 9.7 C 6.82 g/m*3 9.7 C 0 km/h
744 19-11-2009 04:49:04 9.3 C 6.74 g/m*3 9.3 C 0 km/h
745 19-11-2009 05:01:04 9.3 C 6.92 g/m*3 9.3 C 0 km/h
746 19-11-2009 05:13:04 9.2 C 6.88 g/m*3 9.2 C 0 km/h
747 19-11-2009 05:25:04 9.1 C 6.83 g/m*3 9.1 C 0 km/h
748 19-11-2009 05:37:04 9.2 C 6.88 g/m*3 9.2 C 0 km/h
749 19-11-2009 05:49:04 9.3 C 6.92 g/m*3 9.3 C 0 km/h
750 19-11-2009 06:01:04 9.4 C 6.96 g/m*3 9.4 C 0 km/h
Sensor: Nr:Datum:Temp:Abs-Feuchte:Windchill:Wind:
Aussen-T/F 751 19-11-2009 06:13:04 9.4 C 6.96 g/m*3 9.4 C 0 km/h
752 19-11-2009 06:25:04 9.6 C 7.05 g/m*3 9.6 C 0 km/h
753 19-11-2009 06:37:04 9.7 C 7.01 g/m*3 9.7 C 0 km/h
754 19-11-2009 06:49:04 9.7 C 7.01 g/m*3 9.7 C 0 km/h
755 19-11-2009 07:01:03 9.8 C 6.96 g/m*3 9.8 C 0 km/h
756 19-11-2009 07:13:03 9.7 C 6.91 g/m*3 9.7 C 0 km/h
757 19-11-2009 07:25:02 9.8 C 6.87 g/m*3 9.8 C 0 km/h
758 19-11-2009 07:37:02 9.7 C 6.82 g/m*3 9.7 C 0 km/h
759 19-11-2009 07:49:02 9.8 C 6.87 g/m*3 9.8 C 0 km/h
760 19-11-2009 08:01:02 9.7 C 6.82 g/m*3 9.7 C 0 km/h
761 19-11-2009 08:13:02 9.8 C 6.87 g/m*3 9.8 C 0 km/h
762 19-11-2009 08:25:01 9.9 C 6.82 g/m*3 9.9 C 0 km/h
763 19-11-2009 08:37:02 9.9 C 6.72 g/m*3 9.9 C 0 km/h
764 19-11-2009 08:49:02 9.9 C 6.72 g/m*3 9.9 C 0 km/h
765 19-11-2009 09:01:02 10 C 6.67 g/m*3 10 C 0 km/h
766 19-11-2009 09:13:02 10.1 C 6.62 g/m*3 10.1 C 0 km/h
767 19-11-2009 09:25:02 10 C 6.58 g/m*3 10 C 0 km/h
768 19-11-2009 09:37:02 9.8 C 6.68 g/m*3 9.8 C 0 km/h
769 19-11-2009 09:49:02 9.7 C 6.64 g/m*3 9.7 C 0 km/h
770 19-11-2009 10:01:02 9.6 C 6.6 g/m*3 9.6 C 0 km/h
771 19-11-2009 10:13:02 9.8 C 6.59 g/m*3 9.8 C 0 km/h
772 19-11-2009 10:25:03 9.8 C 6.49 g/m*3 9.8 C 0 km/h
773 19-11-2009 10:37:02 9.9 C 6.35 g/m*3 9.9 C 0 km/h
774 19-11-2009 10:49:02 10 C 6.3 g/m*3 10 C 0 km/h
775 19-11-2009 11:01:02 10.1 C 6.24 g/m*3 10.1 C 0 km/h
Sensor: Nr:Datum:Temp:Abs-Feuchte:Windchill:Wind:
Aussen-T/F 776 19-11-2009 11:13:02 10.2 C 6.19 g/m*3 10.2 C 0 km/h
777 19-11-2009 11:25:03 10.5 C 6.21 g/m*3 10.5 C 0 km/h
778 19-11-2009 11:37:02 10.8 C 6.23 g/m*3 10.8 C 0 km/h
779 19-11-2009 11:49:03 10.9 C 6.27 g/m*3 10.9 C 0 km/h
780 19-11-2009 12:01:02 11 C 6.31 g/m*3 11 C 0 km/h
781 19-11-2009 12:13:02 11.5 C 6.4 g/m*3 11.5 C 0 km/h
782 19-11-2009 12:25:02 12.2 C 5.94 g/m*3 12.2 C 0 km/h
783 19-11-2009 12:37:02 12.6 C 5.97 g/m*3 12.6 C 0 km/h
784 19-11-2009 12:49:02 12.8 C 5.94 g/m*3 12.8 C 0 km/h
785 19-11-2009 13:01:02 13.2 C 5.74 g/m*3 13.2 C 0 km/h
786 19-11-2009 13:13:02 13.5 C 5.85 g/m*3 13.5 C 0 km/h
787 19-11-2009 13:25:02 14 C 5.67 g/m*3 14 C 0 km/h
788 19-11-2009 13:37:02 14.2 C 5.62 g/m*3 14.2 C 0 km/h
789 19-11-2009 13:49:02 14.7 C 5.79 g/m*3 14.7 C 0 km/h
790 19-11-2009 14:01:01 14.9 C 5.86 g/m*3 14.9 C 0 km/h
791 19-11-2009 14:13:01 15.2 C 5.97 g/m*3 15.2 C 0 km/h
792 19-11-2009 14:25:02 15.4 C 6.04 g/m*3 15.4 C 0 km/h
793 19-11-2009 14:37:01 14.8 C 5.83 g/m*3 14.8 C 0 km/h
794 19-11-2009 14:49:02 13.9 C 5.99 g/m*3 13.9 C 0 km/h
795 19-11-2009 15:01:01 13.3 C 6.12 g/m*3 13.3 C 0 km/h
796 19-11-2009 15:13:01 12.7 C 6.23 g/m*3 12.7 C 0 km/h
797 19-11-2009 15:25:02 12.3 C 6.3 g/m*3 12.3 C 0 km/h
798 19-11-2009 15:37:01 12.1 C 6.33 g/m*3 12.1 C 0 km/h
799 19-11-2009 15:49:02 11.9 C 6.35 g/m*3 11.9 C 0 km/h
800 19-11-2009 16:01:02 11.5 C 6.51 g/m*3 11.5 C 0 km/h
Sensor: Nr:Datum:Temp:Abs-Feuchte:Windchill:Wind:
Aussen-T/F 801 19-11-2009 16:13:02 11.1 C 6.45 g/m*3 11.1 C 0 km/h
802 19-11-2009 16:25:02 11 C 6.41 g/m*3 11 C 0 km/h
803 19-11-2009 16:37:03 10.6 C 6.44 g/m*3 10.6 C 0 km/h
804 19-11-2009 16:49:02 10.2 C 6.47 g/m*3 10.2 C 0 km/h
805 19-11-2009 17:01:01 10 C 6.39 g/m*3 10 C 0 km/h
806 19-11-2009 17:13:01 9.7 C 6.45 g/m*3 9.7 C 0 km/h
807 19-11-2009 17:25:02 9.6 C 6.41 g/m*3 9.6 C 0 km/h
808 19-11-2009 17:37:02 9.2 C 6.43 g/m*3 9.2 C 0 km/h
809 19-11-2009 17:49:02 9 C 6.44 g/m*3 9 C 0 km/h
810 19-11-2009 18:01:03 9 C 6.52 g/m*3 9 C 0 km/h
811 19-11-2009 18:13:03 8.7 C 6.49 g/m*3 8.7 C 0 km/h
812 19-11-2009 18:25:02 8.6 C 6.44 g/m*3 8.6 C 0 km/h
813 19-11-2009 18:37:02 8.2 C 6.36 g/m*3 8.2 C 0 km/h
814 19-11-2009 18:49:02 8.2 C 6.45 g/m*3 8.2 C 0 km/h
815 19-11-2009 19:01:02 8.1 C 6.49 g/m*3 8.1 C 0 km/h
816 19-11-2009 19:13:02 7.9 C 6.49 g/m*3 7.9 C 0 km/h
817 19-11-2009 19:25:01 7.8 C 6.53 g/m*3 7.8 C 0 km/h
818 19-11-2009 19:37:02 7.6 C 6.44 g/m*3 7.6 C 0 km/h
819 19-11-2009 19:49:02 7.9 C 6.65 g/m*3 7.9 C 0 km/h
820 19-11-2009 20:01:02 8.2 C 6.53 g/m*3 8.2 C 0 km/h
821 19-11-2009 20:13:02 8.1 C 6.49 g/m*3 8.1 C 0 km/h
822 19-11-2009 20:25:02 7.8 C 6.45 g/m*3 7.8 C 0 km/h
823 19-11-2009 20:37:02 7.4 C 6.36 g/m*3 7.4 C 0 km/h
824 19-11-2009 20:49:02 7.2 C 6.36 g/m*3 7.2 C 0 km/h
825 19-11-2009 21:01:03 6.8 C 6.27 g/m*3 6.8 C 0 km/h
Sensor: Nr:Datum:Temp:Abs-Feuchte:Windchill:Wind:
Aussen-T/F 826 19-11-2009 21:13:03 6.6 C 6.27 g/m*3 6.6 C 0 km/h
827 19-11-2009 21:25:02 6.4 C 6.26 g/m*3 6.4 C 0 km/h
828 19-11-2009 21:37:02 6.4 C 6.41 g/m*3 6.4 C 0 km/h
829 19-11-2009 21:49:02 6.3 C 6.37 g/m*3 6.3 C 0 km/h
830 19-11-2009 22:01:02 6.3 C 6.37 g/m*3 6.3 C 0 km/h
831 19-11-2009 22:13:03 6 C 6.24 g/m*3 6 C 0 km/h
832 19-11-2009 22:25:01 6 C 6.24 g/m*3 6 C 0 km/h
833 19-11-2009 22:37:02 5.7 C 6.19 g/m*3 5.7 C 0 km/h
834 19-11-2009 22:50:01 5.8 C 6.3 g/m*3 5.8 C 0 km/h
835 19-11-2009 23:02:01 5.6 C 6.22 g/m*3 5.6 C 0 km/h
836 19-11-2009 23:14:01 5.6 C 6.22 g/m*3 5.6 C 0 km/h
837 19-11-2009 23:26:01 5.5 C 6.25 g/m*3 5.5 C 0 km/h
838 19-11-2009 23:38:01 5.2 C 6.13 g/m*3 5.2 C 0 km/h
839 19-11-2009 23:50:01 5.2 C 6.13 g/m*3 5.2 C 0 km/h
840 20-11-2009 00:02:01 5.1 C 6.09 g/m*3 5.1 C 0 km/h
841 20-11-2009 00:14:01 5 C 6.05 g/m*3 5 C 0 km/h
842 20-11-2009 00:26:02 4.9 C 6.08 g/m*3 4.9 C 0 km/h
843 20-11-2009 00:38:02 4.8 C 6.04 g/m*3 4.8 C 0 km/h
844 20-11-2009 00:50:02 4.8 C 6.1 g/m*3 4.8 C 0 km/h
845 20-11-2009 01:02:02 4.7 C 6.06 g/m*3 4.7 C 0 km/h
846 20-11-2009 01:14:02 4.7 C 6.06 g/m*3 4.7 C 0 km/h
847 20-11-2009 01:26:02 4.6 C 6.02 g/m*3 4.6 C 0 km/h
848 20-11-2009 01:38:02 4.5 C 5.98 g/m*3 4.5 C 0 km/h
849 20-11-2009 01:50:02 4.4 C 5.94 g/m*3 4.4 C 0 km/h
850 20-11-2009 02:02:02 4.3 C 5.9 g/m*3 4.3 C 0 km/h
Sensor: Nr:Datum:Temp:Abs-Feuchte:Windchill:Wind:
Aussen-T/F 851 20-11-2009 02:14:02 4.2 C 5.86 g/m*3 4.2 C 0 km/h
852 20-11-2009 02:26:02 4.2 C 5.86 g/m*3 4.2 C 0 km/h
853 20-11-2009 02:38:02 4.2 C 5.93 g/m*3 4.2 C 0 km/h
854 20-11-2009 02:50:02 4.2 C 5.93 g/m*3 4.2 C 0 km/h
855 20-11-2009 03:02:02 4 C 5.85 g/m*3 4 C 0 km/h
856 20-11-2009 03:14:02 4 C 5.85 g/m*3 4 C 0 km/h
857 20-11-2009 03:26:02 3.9 C 5.87 g/m*3 3.9 C 0 km/h
858 20-11-2009 03:38:02 3.8 C 5.83 g/m*3 3.8 C 0 km/h
859 20-11-2009 03:50:02 3.7 C 5.8 g/m*3 3.7 C 0 km/h
860 20-11-2009 04:02:02 3.8 C 5.83 g/m*3 3.8 C 0 km/h
861 20-11-2009 04:14:02 3.6 C 5.76 g/m*3 3.6 C 0 km/h
862 20-11-2009 04:26:03 3.4 C 5.68 g/m*3 3.4 C 0 km/h
863 20-11-2009 04:38:03 3.5 C 5.72 g/m*3 3.5 C 0 km/h
864 20-11-2009 04:50:03 3.6 C 5.76 g/m*3 3.6 C 0 km/h
865 20-11-2009 05:02:03 3.5 C 5.72 g/m*3 3.5 C 0 km/h
866 20-11-2009 05:14:03 3.5 C 5.78 g/m*3 3.5 C 0 km/h
867 20-11-2009 05:26:03 3.4 C 5.74 g/m*3 3.4 C 0 km/h
868 20-11-2009 05:38:03 3.3 C 5.7 g/m*3 3.3 C 0 km/h
869 20-11-2009 05:50:03 3.4 C 5.74 g/m*3 3.4 C 0 km/h
870 20-11-2009 06:02:03 3.2 C 5.66 g/m*3 3.2 C 0 km/h
871 20-11-2009 06:14:03 3.1 C 5.63 g/m*3 3.1 C 0 km/h
872 20-11-2009 06:26:03 3.1 C 5.63 g/m*3 3.1 C 0 km/h
873 20-11-2009 06:38:03 3 C 5.59 g/m*3 3 C 0 km/h
874 20-11-2009 06:50:03 3 C 5.59 g/m*3 3 C 0 km/h
875 20-11-2009 07:02:02 3.1 C 5.69 g/m*3 3.1 C 0 km/h
Sensor: Nr:Datum:Temp:Abs-Feuchte:Windchill:Wind:
Aussen-T/F 876 20-11-2009 07:14:02 3.1 C 5.69 g/m*3 3.1 C 0 km/h
877 20-11-2009 07:26:01 3.1 C 5.69 g/m*3 3.1 C 0 km/h
878 20-11-2009 07:38:02 3 C 5.65 g/m*3 3 C 0 km/h
879 20-11-2009 07:50:02 2.8 C 5.57 g/m*3 2.8 C 0 km/h
880 20-11-2009 08:02:02 2.8 C 5.57 g/m*3 2.8 C 0 km/h
881 20-11-2009 08:14:02 2.8 C 5.57 g/m*3 2.8 C 0 km/h
882 20-11-2009 08:26:02 2.8 C 5.57 g/m*3 2.8 C 0 km/h
883 20-11-2009 08:38:02 2.9 C 5.61 g/m*3 2.9 C 0 km/h
884 20-11-2009 08:50:02 3 C 5.65 g/m*3 3 C 0 km/h
885 20-11-2009 09:02:02 3.1 C 5.69 g/m*3 3.1 C 0 km/h
886 20-11-2009 09:14:03 3.2 C 5.72 g/m*3 3.2 C 0 km/h
887 20-11-2009 09:26:02 3.4 C 5.8 g/m*3 3.4 C 0 km/h
888 20-11-2009 09:38:02 3.6 C 5.88 g/m*3 3.6 C 0 km/h
889 20-11-2009 09:50:01 3.9 C 6 g/m*3 3.9 C 0 km/h
890 20-11-2009 10:02:01 4.3 C 6.16 g/m*3 4.3 C 0 km/h
891 20-11-2009 10:14:01 4.3 C 6.16 g/m*3 4.3 C 0 km/h
892 20-11-2009 10:26:02 4.6 C 6.29 g/m*3 4.6 C 0 km/h
893 20-11-2009 10:38:01 5.4 C 6.63 g/m*3 5.4 C 0 km/h
894 20-11-2009 10:50:02 5.7 C 6.76 g/m*3 5.7 C 0 km/h
895 20-11-2009 11:02:02 5.6 C 6.72 g/m*3 5.6 C 0 km/h
896 20-11-2009 11:14:02 5.7 C 6.76 g/m*3 5.7 C 0 km/h
897 20-11-2009 11:26:02 5.9 C 6.85 g/m*3 5.9 C 0 km/h
898 20-11-2009 11:38:02 6.5 C 7.12 g/m*3 6.5 C 0 km/h
899 20-11-2009 11:50:02 7.1 C 7.33 g/m*3 7.1 C 0 km/h
900 20-11-2009 12:02:02 7.7 C 7.7 g/m*3 7.7 C 0 km/h
Sensor: Nr:Datum:Temp:Abs-Feuchte:Windchill:Wind:
Aussen-T/F 901 20-11-2009 12:14:02 8.5 C 8.03 g/m*3 8.5 C 0 km/h
902 20-11-2009 12:26:02 9.2 C 8.39 g/m*3 9.2 C 0 km/h
903 20-11-2009 12:38:01 10.1 C 8.79 g/m*3 10.1 C 0 km/h
904 20-11-2009 12:50:02 10.8 C 9.09 g/m*3 10.8 C 0 km/h
905 20-11-2009 13:02:01 11.4 C 9.24 g/m*3 11.4 C 0 km/h
906 20-11-2009 13:14:01 12.1 C 8.9 g/m*3 12.1 C 0 km/h
907 20-11-2009 13:26:02 13.9 C 7.55 g/m*3 13.9 C 0 km/h
908 20-11-2009 13:38:02 15 C 6.67 g/m*3 15 C 0 km/h
909 20-11-2009 13:50:02 15.3 C 6.53 g/m*3 15.3 C 0 km/h
910 20-11-2009 14:02:03 15.5 C 6.34 g/m*3 15.5 C 0 km/h
911 20-11-2009 14:14:03 15.4 C 6.44 g/m*3 15.4 C 0 km/h
912 20-11-2009 14:26:02 15.2 C 6.49 g/m*3 15.2 C 0 km/h
913 20-11-2009 14:38:02 15.2 C 6.62 g/m*3 15.2 C 0 km/h
914 20-11-2009 14:50:01 14.8 C 6.71 g/m*3 14.8 C 0 km/h
915 20-11-2009 15:02:02 14.6 C 6.76 g/m*3 14.6 C 0 km/h
916 20-11-2009 15:14:02 14.6 C 6.76 g/m*3 14.6 C 0 km/h
917 20-11-2009 15:26:01 14.8 C 6.71 g/m*3 14.8 C 0 km/h
918 20-11-2009 15:38:02 14.5 C 6.84 g/m*3 14.5 C 0 km/h
919 20-11-2009 15:50:02 13.9 C 7.07 g/m*3 13.9 C 0 km/h
920 20-11-2009 16:02:02 13.5 C 7.25 g/m*3 13.5 C 0 km/h
921 20-11-2009 16:14:02 13 C 7.26 g/m*3 13 C 0 km/h
922 20-11-2009 16:26:02 12.6 C 7.41 g/m*3 12.6 C 0 km/h
923 20-11-2009 16:38:02 12.3 C 7.38 g/m*3 12.3 C 0 km/h
924 20-11-2009 16:50:02 12.1 C 7.4 g/m*3 12.1 C 0 km/h
925 20-11-2009 17:02:02 12 C 7.46 g/m*3 12 C 0 km/h
Sensor: Nr:Datum:Temp:Abs-Feuchte:Windchill:Wind:
Aussen-T/F 926 20-11-2009 17:14:02 11.7 C 7.43 g/m*3 11.7 C 0 km/h
927 20-11-2009 17:26:02 11.7 C 7.64 g/m*3 11.7 C 0 km/h
928 20-11-2009 17:38:02 11.7 C 7.64 g/m*3 11.7 C 0 km/h
929 20-11-2009 17:50:02 11.7 C 7.64 g/m*3 11.7 C 0 km/h
930 20-11-2009 18:02:02 11.6 C 7.69 g/m*3 11.6 C 0 km/h
931 20-11-2009 18:14:02 11.6 C 7.8 g/m*3 11.6 C 0 km/h
932 20-11-2009 18:26:02 11.5 C 7.75 g/m*3 11.5 C 0 km/h
933 20-11-2009 18:38:02 11.6 C 7.8 g/m*3 11.6 C 0 km/h
934 20-11-2009 18:50:01 11.1 C 7.66 g/m*3 11.1 C 0 km/h
935 20-11-2009 19:02:01 11.2 C 7.8 g/m*3 11.2 C 0 km/h
936 20-11-2009 19:14:01 11.1 C 7.76 g/m*3 11.1 C 0 km/h
937 20-11-2009 19:26:02 11.1 C 7.76 g/m*3 11.1 C 0 km/h
938 20-11-2009 19:38:01 10.9 C 7.66 g/m*3 10.9 C 0 km/h
939 20-11-2009 19:50:01 10.9 C 7.76 g/m*3 10.9 C 0 km/h
940 20-11-2009 20:02:01 10.8 C 7.71 g/m*3 10.8 C 0 km/h
941 20-11-2009 20:14:01 10.5 C 7.57 g/m*3 10.5 C 0 km/h
942 20-11-2009 20:26:02 10.5 C 7.66 g/m*3 10.5 C 0 km/h
943 20-11-2009 20:38:01 10.5 C 7.66 g/m*3 10.5 C 0 km/h
944 20-11-2009 20:50:03 10.5 C 7.76 g/m*3 10.5 C 0 km/h
945 20-11-2009 21:02:02 10.6 C 7.71 g/m*3 10.6 C 0 km/h
946 20-11-2009 21:14:02 10.6 C 7.81 g/m*3 10.6 C 0 km/h
947 20-11-2009 21:26:02 10.6 C 7.81 g/m*3 10.6 C 0 km/h
948 20-11-2009 21:38:02 10.6 C 7.71 g/m*3 10.6 C 0 km/h
949 20-11-2009 21:50:01 10.4 C 7.61 g/m*3 10.4 C 0 km/h
950 20-11-2009 22:02:02 10.4 C 7.71 g/m*3 10.4 C 0 km/h
Sensor: Nr:Datum:Temp:Abs-Feuchte:Windchill:Wind:
Aussen-T/F 951 20-11-2009 22:14:02 10.5 C 7.86 g/m*3 10.5 C 0 km/h
952 20-11-2009 22:26:01 10.4 C 7.81 g/m*3 10.4 C 0 km/h
953 20-11-2009 22:38:01 10.4 C 7.81 g/m*3 10.4 C 0 km/h
954 20-11-2009 22:50:01 10.2 C 7.71 g/m*3 10.2 C 0 km/h
955 20-11-2009 23:02:02 10.2 C 7.71 g/m*3 10.2 C 0 km/h
956 20-11-2009 23:14:02 10.1 C 7.75 g/m*3 10.1 C 0 km/h
957 20-11-2009 23:26:01 10.1 C 7.75 g/m*3 10.1 C 0 km/h
958 20-11-2009 23:38:02 10 C 7.71 g/m*3 10 C 0 km/h
959 20-11-2009 23:51:03 10.1 C 7.75 g/m*3 10.1 C 0 km/h
960 21-11-2009 00:03:03 10 C 7.71 g/m*3 10 C 0 km/h
961 21-11-2009 00:15:03 9.8 C 7.79 g/m*3 9.8 C 0 km/h
962 21-11-2009 00:27:03 10.1 C 7.85 g/m*3 10.1 C 0 km/h
963 21-11-2009 00:39:03 10.2 C 7.8 g/m*3 10.2 C 0 km/h
964 21-11-2009 00:51:03 10.1 C 7.75 g/m*3 10.1 C 0 km/h
965 21-11-2009 01:03:03 10.2 C 7.8 g/m*3 10.2 C 0 km/h
966 21-11-2009 01:15:03 10.4 C 7.9 g/m*3 10.4 C 0 km/h
967 21-11-2009 01:27:03 10.2 C 7.71 g/m*3 10.2 C 0 km/h
968 21-11-2009 01:39:03 10.1 C 7.75 g/m*3 10.1 C 0 km/h
969 21-11-2009 01:51:03 10.2 C 7.8 g/m*3 10.2 C 0 km/h
970 21-11-2009 02:03:03 10 C 7.8 g/m*3 10 C 0 km/h
971 21-11-2009 02:15:04 10 C 7.8 g/m*3 10 C 0 km/h
972 21-11-2009 02:27:04 10.1 C 7.85 g/m*3 10.1 C 0 km/h
973 21-11-2009 02:39:04 10 C 7.8 g/m*3 10 C 0 km/h
974 21-11-2009 02:51:04 10.1 C 7.85 g/m*3 10.1 C 0 km/h
975 21-11-2009 03:03:04 10.2 C 7.9 g/m*3 10.2 C 0 km/h
Sensor: Nr:Datum:Temp:Abs-Feuchte:Windchill:Wind:
Aussen-T/F 976 21-11-2009 03:15:04 10.2 C 7.9 g/m*3 10.2 C 0 km/h
977 21-11-2009 03:27:04 10.1 C 7.75 g/m*3 10.1 C 0 km/h
978 21-11-2009 03:39:04 10 C 7.71 g/m*3 10 C 0 km/h
979 21-11-2009 03:51:04 10 C 7.8 g/m*3 10 C 0 km/h
980 21-11-2009 04:03:04 10.1 C 7.85 g/m*3 10.1 C 0 km/h
981 21-11-2009 04:15:04 10.1 C 7.85 g/m*3 10.1 C 0 km/h
982 21-11-2009 04:27:04 10.1 C 7.85 g/m*3 10.1 C 0 km/h
983 21-11-2009 04:39:04 9.9 C 7.84 g/m*3 9.9 C 0 km/h
984 21-11-2009 04:51:04 9.8 C 7.79 g/m*3 9.8 C 0 km/h
985 21-11-2009 05:03:04 9.7 C 7.74 g/m*3 9.7 C 0 km/h
986 21-11-2009 05:15:04 9.6 C 7.69 g/m*3 9.6 C 0 km/h
987 21-11-2009 05:27:04 9.5 C 7.74 g/m*3 9.5 C 0 km/h
988 21-11-2009 05:39:04 9.3 C 7.64 g/m*3 9.3 C 0 km/h
989 21-11-2009 05:51:04 9.3 C 7.64 g/m*3 9.3 C 0 km/h
990 21-11-2009 06:03:05 9.4 C 7.78 g/m*3 9.4 C 0 km/h
991 21-11-2009 06:15:05 9.4 C 7.78 g/m*3 9.4 C 0 km/h
992 21-11-2009 06:27:05 9.3 C 7.73 g/m*3 9.3 C 0 km/h
993 21-11-2009 06:39:05 9.3 C 7.73 g/m*3 9.3 C 0 km/h
994 21-11-2009 06:51:05 9.3 C 7.73 g/m*3 9.3 C 0 km/h
995 21-11-2009 07:03:05 9.3 C 7.82 g/m*3 9.3 C 0 km/h
996 21-11-2009 07:15:05 9.5 C 7.92 g/m*3 9.5 C 0 km/h
997 21-11-2009 07:27:05 9.5 C 8.01 g/m*3 9.5 C 0 km/h
998 21-11-2009 07:39:03 9.3 C 7.91 g/m*3 9.3 C 0 km/h
999 21-11-2009 07:51:02 9.3 C 8 g/m*3 9.3 C 0 km/h
1000 21-11-2009 08:03:02 9.4 C 8.05 g/m*3 9.4 C 0 km/h
Sensor: Nr:Datum:Temp:Abs-Feuchte:Windchill:Wind:
Aussen-T/F 1001 21-11-2009 08:15:02 9.3 C 8 g/m*3 9.3 C 0 km/h
1002 21-11-2009 08:27:02 9.4 C 8.14 g/m*3 9.4 C 0 km/h
1003 21-11-2009 08:39:02 9.5 C 8.19 g/m*3 9.5 C 0 km/h
1004 21-11-2009 08:51:02 9.5 C 8.19 g/m*3 9.5 C 0 km/h
1005 21-11-2009 09:03:02 9.6 C 8.24 g/m*3 9.6 C 0 km/h
1006 21-11-2009 09:15:02 9.7 C 8.3 g/m*3 9.7 C 0 km/h
1007 21-11-2009 09:27:02 9.8 C 8.35 g/m*3 9.8 C 0 km/h
1008 21-11-2009 09:39:02 10 C 8.36 g/m*3 10 C 0 km/h
1009 21-11-2009 09:51:02 10 C 8.27 g/m*3 10 C 0 km/h
1010 21-11-2009 10:03:02 10.1 C 8.32 g/m*3 10.1 C 0 km/h
1011 21-11-2009 10:15:02 10.3 C 8.43 g/m*3 10.3 C 0 km/h
1012 21-11-2009 10:27:02 10.4 C 8.48 g/m*3 10.4 C 0 km/h
1013 21-11-2009 10:39:02 10.5 C 8.53 g/m*3 10.5 C 0 km/h
1014 21-11-2009 10:51:01 10.7 C 8.64 g/m*3 10.7 C 0 km/h
1015 21-11-2009 11:03:01 11.2 C 8.92 g/m*3 11.2 C 0 km/h
1016 21-11-2009 11:15:01 11.7 C 8.99 g/m*3 11.7 C 0 km/h
1017 21-11-2009 11:27:01 12.2 C 9.17 g/m*3 12.2 C 0 km/h
1018 21-11-2009 11:39:01 12.7 C 9.02 g/m*3 12.7 C 0 km/h
1019 21-11-2009 11:51:01 13 C 8.85 g/m*3 13 C 0 km/h
1020 21-11-2009 12:03:01 13.2 C 8.5 g/m*3 13.2 C 0 km/h
1021 21-11-2009 12:15:02 13.8 C 8.46 g/m*3 13.8 C 0 km/h
1022 21-11-2009 12:27:02 14 C 8.32 g/m*3 14 C 0 km/h
1023 21-11-2009 12:39:01 14.2 C 8.43 g/m*3 14.2 C 0 km/h
1024 21-11-2009 12:51:01 14.2 C 8.3 g/m*3 14.2 C 0 km/h
1025 21-11-2009 13:03:01 14.3 C 8.48 g/m*3 14.3 C 0 km/h
Sensor: Nr:Datum:Temp:Abs-Feuchte:Windchill:Wind:
Aussen-T/F 1026 21-11-2009 13:15:02 14.3 C 8.35 g/m*3 14.3 C 0 km/h
1027 21-11-2009 13:27:02 14.4 C 8.53 g/m*3 14.4 C 0 km/h
1028 21-11-2009 13:39:01 14.6 C 8.76 g/m*3 14.6 C 0 km/h
1029 21-11-2009 13:51:03 14.5 C 8.71 g/m*3 14.5 C 0 km/h
1030 21-11-2009 14:03:02 14.5 C 8.46 g/m*3 14.5 C 0 km/h
1031 21-11-2009 14:15:02 14.9 C 7.9 g/m*3 14.9 C 0 km/h
1032 21-11-2009 14:27:02 15.6 C 7.58 g/m*3 15.6 C 0 km/h
1033 21-11-2009 14:39:02 15.6 C 7.05 g/m*3 15.6 C 0 km/h
1034 21-11-2009 14:51:02 15.4 C 7.49 g/m*3 15.4 C 0 km/h
1035 21-11-2009 15:03:02 15.3 C 7.84 g/m*3 15.3 C 0 km/h
1036 21-11-2009 15:15:02 15.1 C 7.74 g/m*3 15.1 C 0 km/h
1037 21-11-2009 15:27:03 15.1 C 7.61 g/m*3 15.1 C 0 km/h
1038 21-11-2009 15:39:02 14.9 C 7.77 g/m*3 14.9 C 0 km/h
1039 21-11-2009 15:51:02 14.6 C 7.76 g/m*3 14.6 C 0 km/h
1040 21-11-2009 16:03:01 14.4 C 7.66 g/m*3 14.4 C 0 km/h
1041 21-11-2009 16:15:02 14.3 C 7.49 g/m*3 14.3 C 0 km/h
1042 21-11-2009 16:27:02 14.3 C 7.25 g/m*3 14.3 C 0 km/h
1043 21-11-2009 16:39:02 14.1 C 7.16 g/m*3 14.1 C 0 km/h
1044 21-11-2009 16:51:02 14 C 7.24 g/m*3 14 C 0 km/h
1045 21-11-2009 17:03:02 14 C 7.12 g/m*3 14 C 0 km/h
1046 21-11-2009 17:15:02 13.7 C 7.22 g/m*3 13.7 C 0 km/h
1047 21-11-2009 17:27:02 13.3 C 7.16 g/m*3 13.3 C 0 km/h
1048 21-11-2009 17:39:03 13.1 C 7.19 g/m*3 13.1 C 0 km/h
1049 21-11-2009 17:51:02 13 C 7.14 g/m*3 13 C 0 km/h
1050 21-11-2009 18:03:02 12.9 C 7.21 g/m*3 12.9 C 0 km/h
Sensor: Nr:Datum:Temp:Abs-Feuchte:Windchill:Wind:
Aussen-T/F 1051 21-11-2009 18:15:02 12.6 C 7.19 g/m*3 12.6 C 0 km/h
1052 21-11-2009 18:27:02 12.5 C 7.15 g/m*3 12.5 C 0 km/h
1053 21-11-2009 18:39:02 12.4 C 7.21 g/m*3 12.4 C 0 km/h
1054 21-11-2009 18:51:02 12.4 C 7.21 g/m*3 12.4 C 0 km/h
1055 21-11-2009 19:03:02 12.6 C 7.3 g/m*3 12.6 C 0 km/h
1056 21-11-2009 19:15:02 12.5 C 7.26 g/m*3 12.5 C 0 km/h
1057 21-11-2009 19:27:02 12.4 C 7.21 g/m*3 12.4 C 0 km/h
1058 21-11-2009 19:39:02 12.3 C 7.28 g/m*3 12.3 C 0 km/h
1059 21-11-2009 19:51:01 12.1 C 7.29 g/m*3 12.1 C 0 km/h
1060 21-11-2009 20:03:02 12.1 C 7.18 g/m*3 12.1 C 0 km/h
1061 21-11-2009 20:15:01 12.2 C 7.12 g/m*3 12.2 C 0 km/h
1062 21-11-2009 20:27:01 12.2 C 7.12 g/m*3 12.2 C 0 km/h
1063 21-11-2009 20:39:02 12.2 C 7.01 g/m*3 12.2 C 0 km/h
1064 21-11-2009 20:51:02 12.2 C 7.01 g/m*3 12.2 C 0 km/h
1065 21-11-2009 21:03:02 12.1 C 6.97 g/m*3 12.1 C 0 km/h
1066 21-11-2009 21:15:02 12.2 C 6.91 g/m*3 12.2 C 0 km/h
1067 21-11-2009 21:27:02 12.2 C 6.91 g/m*3 12.2 C 0 km/h
1068 21-11-2009 21:39:01 12.1 C 6.86 g/m*3 12.1 C 0 km/h
1069 21-11-2009 21:51:01 12.1 C 6.97 g/m*3 12.1 C 0 km/h
1070 21-11-2009 22:03:02 12.5 C 6.82 g/m*3 12.5 C 0 km/h
1071 21-11-2009 22:16:03 12.7 C 6.68 g/m*3 12.7 C 0 km/h
1072 21-11-2009 22:28:03 12.4 C 6.77 g/m*3 12.4 C 0 km/h
1073 21-11-2009 22:40:03 12.2 C 6.91 g/m*3 12.2 C 0 km/h
1074 21-11-2009 22:52:03 12 C 6.93 g/m*3 12 C 0 km/h
1075 21-11-2009 23:04:03 11.9 C 7.1 g/m*3 11.9 C 0 km/h
Sensor: Nr:Datum:Temp:Abs-Feuchte:Windchill:Wind:
Aussen-T/F 1076 21-11-2009 23:16:03 11.9 C 7.1 g/m*3 11.9 C 0 km/h
1077 21-11-2009 23:28:03 12 C 6.93 g/m*3 12 C 0 km/h
1078 21-11-2009 23:40:03 12.1 C 6.86 g/m*3 12.1 C 0 km/h
1079 21-11-2009 23:52:03 12.1 C 7.08 g/m*3 12.1 C 0 km/h
1080 22-11-2009 00:04:03 11.8 C 7.16 g/m*3 11.8 C 0 km/h
1081 22-11-2009 00:16:03 11.7 C 7.22 g/m*3 11.7 C 0 km/h
1082 22-11-2009 00:28:03 11.7 C 7.32 g/m*3 11.7 C 0 km/h
1083 22-11-2009 00:40:03 11.6 C 7.28 g/m*3 11.6 C 0 km/h
1084 22-11-2009 00:52:03 11.3 C 7.24 g/m*3 11.3 C 0 km/h
1085 22-11-2009 01:04:03 11.3 C 7.45 g/m*3 11.3 C 0 km/h
1086 22-11-2009 01:16:03 11.1 C 7.45 g/m*3 11.1 C 0 km/h
1087 22-11-2009 01:28:03 11 C 7.51 g/m*3 11 C 0 km/h
1088 22-11-2009 01:40:03 10.9 C 7.66 g/m*3 10.9 C 0 km/h
1089 22-11-2009 01:52:03 10.8 C 7.61 g/m*3 10.8 C 0 km/h
1090 22-11-2009 02:04:03 10.7 C 7.66 g/m*3 10.7 C 0 km/h
1091 22-11-2009 02:16:04 10.6 C 7.61 g/m*3 10.6 C 0 km/h
1092 22-11-2009 02:28:04 10.6 C 7.52 g/m*3 10.6 C 0 km/h
1093 22-11-2009 02:40:04 10.7 C 7.46 g/m*3 10.7 C 0 km/h
1094 22-11-2009 02:52:04 11.4 C 6.98 g/m*3 11.4 C 0 km/h
1095 22-11-2009 03:04:04 11.8 C 6.74 g/m*3 11.8 C 0 km/h
1096 22-11-2009 03:16:04 11.8 C 6.63 g/m*3 11.8 C 0 km/h
1097 22-11-2009 03:28:04 11.3 C 6.83 g/m*3 11.3 C 0 km/h
1098 22-11-2009 03:40:04 11 C 6.91 g/m*3 11 C 0 km/h
1099 22-11-2009 03:52:04 10.9 C 6.96 g/m*3 10.9 C 0 km/h
1100 22-11-2009 04:04:04 10.8 C 7.02 g/m*3 10.8 C 0 km/h
Sensor: Nr:Datum:Temp:Abs-Feuchte:Windchill:Wind:
Aussen-T/F 1101 22-11-2009 04:16:04 10.6 C 7.03 g/m*3 10.6 C 0 km/h
1102 22-11-2009 04:28:04 10.4 C 7.04 g/m*3 10.4 C 0 km/h
1103 22-11-2009 04:40:04 10.4 C 7.13 g/m*3 10.4 C 0 km/h
1104 22-11-2009 04:52:04 10.3 C 7.09 g/m*3 10.3 C 0 km/h
1105 22-11-2009 05:04:04 10.3 C 7.09 g/m*3 10.3 C 0 km/h
1106 22-11-2009 05:16:04 10.2 C 7.04 g/m*3 10.2 C 0 km/h
1107 22-11-2009 05:28:04 10.2 C 7.04 g/m*3 10.2 C 0 km/h
1108 22-11-2009 05:40:04 10.1 C 7.09 g/m*3 10.1 C 0 km/h
1109 22-11-2009 05:52:04 10.1 C 7.09 g/m*3 10.1 C 0 km/h
1110 22-11-2009 06:04:04 10.1 C 7.19 g/m*3 10.1 C 0 km/h
1111 22-11-2009 06:16:05 10 C 7.24 g/m*3 10 C 0 km/h
1112 22-11-2009 06:28:05 10 C 7.24 g/m*3 10 C 0 km/h
1113 22-11-2009 06:40:05 9.9 C 7.38 g/m*3 9.9 C 0 km/h
1114 22-11-2009 06:52:05 9.9 C 7.38 g/m*3 9.9 C 0 km/h
1115 22-11-2009 07:04:05 9.9 C 7.28 g/m*3 9.9 C 0 km/h
1116 22-11-2009 07:16:05 9.9 C 7.28 g/m*3 9.9 C 0 km/h
1117 22-11-2009 07:28:05 9.7 C 7.28 g/m*3 9.7 C 0 km/h
1118 22-11-2009 07:40:05 9.8 C 7.33 g/m*3 9.8 C 0 km/h
1119 22-11-2009 07:52:05 9.8 C 7.33 g/m*3 9.8 C 0 km/h
1120 22-11-2009 08:04:02 10.2 C 7.52 g/m*3 10.2 C 0 km/h
1121 22-11-2009 08:16:03 11 C 7.41 g/m*3 11 C 0 km/h
1122 22-11-2009 08:28:03 11.5 C 7.44 g/m*3 11.5 C 0 km/h
1123 22-11-2009 08:40:02 12.3 C 7.38 g/m*3 12.3 C 0 km/h
1124 22-11-2009 08:52:02 13.5 C 7.37 g/m*3 13.5 C 0 km/h
1125 22-11-2009 09:04:02 14.1 C 7.16 g/m*3 14.1 C 0 km/h
Sensor: Nr:Datum:Temp:Abs-Feuchte:Windchill:Wind:
Aussen-T/F 1126 22-11-2009 09:16:03 14 C 7.24 g/m*3 14 C 0 km/h
1127 22-11-2009 09:28:03 13.9 C 7.31 g/m*3 13.9 C 0 km/h
1128 22-11-2009 09:40:02 13.9 C 7.43 g/m*3 13.9 C 0 km/h
1129 22-11-2009 09:52:03 13.7 C 7.22 g/m*3 13.7 C 0 km/h
1130 22-11-2009 10:04:02 13.6 C 7.18 g/m*3 13.6 C 0 km/h
1131 22-11-2009 10:16:02 13.7 C 6.87 g/m*3 13.7 C 0 km/h
1132 22-11-2009 10:28:02 14 C 6.51 g/m*3 14 C 0 km/h
1133 22-11-2009 10:40:02 14.1 C 6.19 g/m*3 14.1 C 0 km/h
1134 22-11-2009 10:52:01 14.1 C 6.07 g/m*3 14.1 C 0 km/h
1135 22-11-2009 11:04:02 14 C 6.03 g/m*3 14 C 0 km/h
1136 22-11-2009 11:16:01 13.9 C 6.11 g/m*3 13.9 C 0 km/h
1137 22-11-2009 11:28:01 13.9 C 5.99 g/m*3 13.9 C 0 km/h
1138 22-11-2009 11:40:01 14 C 5.91 g/m*3 14 C 0 km/h
1139 22-11-2009 11:52:01 13.6 C 6 g/m*3 13.6 C 0 km/h
1140 22-11-2009 12:04:02 13.6 C 6 g/m*3 13.6 C 0 km/h
1141 22-11-2009 12:16:01 13.7 C 6.04 g/m*3 13.7 C 0 km/h
1142 22-11-2009 12:28:01 13.8 C 6.08 g/m*3 13.8 C 0 km/h
1143 22-11-2009 12:40:02 13.7 C 6.04 g/m*3 13.7 C 0 km/h
1144 22-11-2009 12:52:01 13.8 C 6.2 g/m*3 13.8 C 0 km/h
1145 22-11-2009 13:04:02 13.7 C 6.04 g/m*3 13.7 C 0 km/h
1146 22-11-2009 13:16:02 13.8 C 6.08 g/m*3 13.8 C 0 km/h
1147 22-11-2009 13:28:02 13.8 C 5.96 g/m*3 13.8 C 0 km/h
1148 22-11-2009 13:40:01 13.8 C 5.96 g/m*3 13.8 C 0 km/h
1149 22-11-2009 13:52:01 14 C 5.79 g/m*3 14 C 0 km/h
1150 22-11-2009 14:04:02 13.9 C 5.75 g/m*3 13.9 C 0 km/h
Sensor: Nr:Datum:Temp:Abs-Feuchte:Windchill:Wind:
Aussen-T/F 1151 22-11-2009 14:16:02 14 C 5.67 g/m*3 14 C 0 km/h
1152 22-11-2009 14:28:02 14 C 5.67 g/m*3 14 C 0 km/h
1153 22-11-2009 14:40:01 14.1 C 5.58 g/m*3 14.1 C 0 km/h
1154 22-11-2009 14:52:01 14 C 5.55 g/m*3 14 C 0 km/h
1155 22-11-2009 15:04:01 13.6 C 5.41 g/m*3 13.6 C 0 km/h
1156 22-11-2009 15:16:02 13.3 C 5.55 g/m*3 13.3 C 0 km/h
1157 22-11-2009 15:28:02 13.3 C 5.55 g/m*3 13.3 C 0 km/h
1158 22-11-2009 15:40:01 13.2 C 5.4 g/m*3 13.2 C 0 km/h
1159 22-11-2009 15:52:02 13 C 5.44 g/m*3 13 C 0 km/h
1160 22-11-2009 16:04:01 12.9 C 5.52 g/m*3 12.9 C 0 km/h
1161 22-11-2009 16:16:02 13 C 5.56 g/m*3 13 C 0 km/h
1162 22-11-2009 16:28:02 12.9 C 5.64 g/m*3 12.9 C 0 km/h
1163 22-11-2009 16:40:01 12.5 C 5.61 g/m*3 12.5 C 0 km/h
1164 22-11-2009 16:52:02 12 C 5.54 g/m*3 12 C 0 km/h
1165 22-11-2009 17:04:02 11.7 C 5.65 g/m*3 11.7 C 0 km/h
1166 22-11-2009 17:16:02 11.6 C 5.72 g/m*3 11.6 C 0 km/h
1167 22-11-2009 17:28:02 11.5 C 5.68 g/m*3 11.5 C 0 km/h
1168 22-11-2009 17:40:02 11.5 C 5.68 g/m*3 11.5 C 0 km/h
1169 22-11-2009 17:52:02 11.6 C 5.72 g/m*3 11.6 C 0 km/h
1170 22-11-2009 18:04:02 11.5 C 5.68 g/m*3 11.5 C 0 km/h
1171 22-11-2009 18:16:02 11.5 C 5.58 g/m*3 11.5 C 0 km/h
1172 22-11-2009 18:28:02 11.8 C 5.58 g/m*3 11.8 C 0 km/h
1173 22-11-2009 18:40:02 11.8 C 5.58 g/m*3 11.8 C 0 km/h
1174 22-11-2009 18:52:01 11.8 C 5.47 g/m*3 11.8 C 0 km/h
1175 22-11-2009 19:04:02 11.8 C 5.37 g/m*3 11.8 C 0 km/h
Sensor: Nr:Datum:Temp:Abs-Feuchte:Windchill:Wind:
Aussen-T/F 1176 22-11-2009 19:16:02 12 C 5.44 g/m*3 12 C 0 km/h
1177 22-11-2009 19:28:02 11.8 C 5.47 g/m*3 11.8 C 0 km/h
1178 22-11-2009 19:40:02 12.2 C 5.5 g/m*3 12.2 C 0 km/h
1179 22-11-2009 19:52:02 12.7 C 5.57 g/m*3 12.7 C 0 km/h
1180 22-11-2009 20:04:02 12.4 C 6.12 g/m*3 12.4 C 0 km/h
1181 22-11-2009 20:16:02 10.8 C 6.92 g/m*3 10.8 C 0 km/h
1182 22-11-2009 20:28:02 10.5 C 6.89 g/m*3 10.5 C 0 km/h
1183 22-11-2009 20:40:01 10.7 C 6.68 g/m*3 10.7 C 0 km/h
1184 22-11-2009 20:52:02 10.7 C 6.58 g/m*3 10.7 C 0 km/h
1185 22-11-2009 21:04:02 10.7 C 6.38 g/m*3 10.7 C 0 km/h
1186 22-11-2009 21:16:02 10.8 C 6.13 g/m*3 10.8 C 0 km/h
1187 22-11-2009 21:28:02 11 C 5.71 g/m*3 11 C 0 km/h
1188 22-11-2009 21:40:01 10.7 C 5.7 g/m*3 10.7 C 0 km/h
1189 22-11-2009 21:52:02 10.9 C 5.77 g/m*3 10.9 C 0 km/h
1190 22-11-2009 22:04:01 10.8 C 5.54 g/m*3 10.8 C 0 km/h
1191 22-11-2009 22:17:02 10.8 C 5.44 g/m*3 10.8 C 0 km/h
1192 22-11-2009 22:29:02 10.6 C 5.27 g/m*3 10.6 C 0 km/h
1193 22-11-2009 22:41:02 10.7 C 5.3 g/m*3 10.7 C 0 km/h
1194 22-11-2009 22:53:02 9.9 C 5.98 g/m*3 9.9 C 0 km/h
1195 22-11-2009 23:05:02 9.8 C 6.03 g/m*3 9.8 C 0 km/h
1196 22-11-2009 23:17:02 10.3 C 5.75 g/m*3 10.3 C 0 km/h
1197 22-11-2009 23:29:02 10.7 C 5.5 g/m*3 10.7 C 0 km/h
1198 22-11-2009 23:41:02 10.4 C 5.49 g/m*3 10.4 C 0 km/h
1199 22-11-2009 23:53:02 10.2 C 5.52 g/m*3 10.2 C 0 km/h
1200 23-11-2009 00:05:02 10.1 C 5.39 g/m*3 10.1 C 0 km/h
Sensor: Nr:Datum:Temp:Abs-Feuchte:Windchill:Wind:
Aussen-T/F 1201 23-11-2009 00:17:02 10.3 C 5.36 g/m*3 10.3 C 0 km/h
1202 23-11-2009 00:29:02 10.4 C 5.4 g/m*3 10.4 C 0 km/h
1203 23-11-2009 00:41:02 10.3 C 5.36 g/m*3 10.3 C 0 km/h
1204 23-11-2009 00:53:02 10.5 C 5.53 g/m*3 10.5 C 0 km/h
1205 23-11-2009 01:05:03 8.9 C 6.48 g/m*3 8.9 C 0 km/h
1206 23-11-2009 01:17:03 8.3 C 6.66 g/m*3 8.3 C 0 km/h
1207 23-11-2009 01:29:03 8.4 C 6.62 g/m*3 8.4 C 0 km/h
1208 23-11-2009 01:41:03 9.1 C 6.39 g/m*3 9.1 C 0 km/h
1209 23-11-2009 01:53:03 9.1 C 6.21 g/m*3 9.1 C 0 km/h
1210 23-11-2009 02:05:03 9 C 6.17 g/m*3 9 C 0 km/h
1211 23-11-2009 02:17:03 9.1 C 6.21 g/m*3 9.1 C 0 km/h
1212 23-11-2009 02:29:03 8.5 C 6.4 g/m*3 8.5 C 0 km/h
1213 23-11-2009 02:41:03 8.2 C 6.28 g/m*3 8.2 C 0 km/h
1214 23-11-2009 02:53:03 8.3 C 6.15 g/m*3 8.3 C 0 km/h
1215 23-11-2009 03:05:03 8.5 C 6.06 g/m*3 8.5 C 0 km/h
1216 23-11-2009 03:17:03 8.6 C 6.1 g/m*3 8.6 C 0 km/h
1217 23-11-2009 03:29:03 8.5 C 6.06 g/m*3 8.5 C 0 km/h
1218 23-11-2009 03:41:03 8.5 C 6.15 g/m*3 8.5 C 0 km/h
1219 23-11-2009 03:53:03 8.5 C 5.98 g/m*3 8.5 C 0 km/h
1220 23-11-2009 04:05:03 8.6 C 5.76 g/m*3 8.6 C 0 km/h
1221 23-11-2009 04:17:03 8.7 C 5.79 g/m*3 8.7 C 0 km/h
1222 23-11-2009 04:29:03 8.7 C 5.88 g/m*3 8.7 C 0 km/h
1223 23-11-2009 04:41:03 8.6 C 5.93 g/m*3 8.6 C 0 km/h
1224 23-11-2009 04:53:03 8.9 C 5.87 g/m*3 8.9 C 0 km/h
1225 23-11-2009 05:05:04 8.9 C 5.87 g/m*3 8.9 C 0 km/h
Sensor: Nr:Datum:Temp:Abs-Feuchte:Windchill:Wind:
Aussen-T/F 1226 23-11-2009 05:17:04 8.6 C 5.93 g/m*3 8.6 C 0 km/h
1227 23-11-2009 05:29:04 8.8 C 5.92 g/m*3 8.8 C 0 km/h
1228 23-11-2009 05:41:04 8.8 C 5.92 g/m*3 8.8 C 0 km/h
1229 23-11-2009 05:53:04 8.7 C 6.05 g/m*3 8.7 C 0 km/h
1230 23-11-2009 06:05:04 8.9 C 6.04 g/m*3 8.9 C 0 km/h
1231 23-11-2009 06:17:04 8.9 C 5.96 g/m*3 8.9 C 0 km/h
1232 23-11-2009 06:29:04 9.1 C 5.86 g/m*3 9.1 C 0 km/h
1233 23-11-2009 06:41:04 9.1 C 5.86 g/m*3 9.1 C 0 km/h
1234 23-11-2009 06:53:04 9.2 C 5.8 g/m*3 9.2 C 0 km/h
1235 23-11-2009 07:05:02 9 C 5.99 g/m*3 9 C 0 km/h
1236 23-11-2009 07:17:01 8.8 C 6.18 g/m*3 8.8 C 0 km/h
1237 23-11-2009 07:29:01 8.8 C 6.18 g/m*3 8.8 C 0 km/h
1238 23-11-2009 07:41:01 8.9 C 6.22 g/m*3 8.9 C 0 km/h
1239 23-11-2009 07:53:01 9.2 C 6.16 g/m*3 9.2 C 0 km/h
1240 23-11-2009 08:05:02 9.1 C 6.21 g/m*3 9.1 C 0 km/h
1241 23-11-2009 08:17:01 9.3 C 6.11 g/m*3 9.3 C 0 km/h
1242 23-11-2009 08:29:01 9.5 C 6.01 g/m*3 9.5 C 0 km/h
1243 23-11-2009 08:41:01 9.6 C 5.95 g/m*3 9.6 C 0 km/h
1244 23-11-2009 08:53:01 9.9 C 5.98 g/m*3 9.9 C 0 km/h
1245 23-11-2009 09:05:02 9.7 C 6.08 g/m*3 9.7 C 0 km/h
1246 23-11-2009 09:17:02 9.8 C 6.22 g/m*3 9.8 C 0 km/h
1247 23-11-2009 09:29:02 9.8 C 6.31 g/m*3 9.8 C 0 km/h
1248 23-11-2009 09:41:01 10.1 C 6.15 g/m*3 10.1 C 0 km/h
1249 23-11-2009 09:53:01 10.3 C 6.13 g/m*3 10.3 C 0 km/h
1250 23-11-2009 10:05:02 10.5 C 6.11 g/m*3 10.5 C 0 km/h
Sensor: Nr:Datum:Temp:Abs-Feuchte:Windchill:Wind:
Aussen-T/F 1251 23-11-2009 10:17:01 10.5 C 6.11 g/m*3 10.5 C 0 km/h
1252 23-11-2009 10:29:01 10.5 C 6.01 g/m*3 10.5 C 0 km/h
1253 23-11-2009 10:41:02 10.4 C 6.26 g/m*3 10.4 C 0 km/h
1254 23-11-2009 10:53:02 10.1 C 6.43 g/m*3 10.1 C 0 km/h
1255 23-11-2009 11:05:02 10.5 C 6.5 g/m*3 10.5 C 0 km/h
1256 23-11-2009 11:17:01 10.7 C 6.48 g/m*3 10.7 C 0 km/h
1257 23-11-2009 11:29:01 10.9 C 6.47 g/m*3 10.9 C 0 km/h
1258 23-11-2009 11:41:02 11 C 6.51 g/m*3 11 C 0 km/h
1259 23-11-2009 11:53:02 11 C 6.51 g/m*3 11 C 0 km/h
1260 23-11-2009 12:05:02 11.1 C 6.65 g/m*3 11.1 C 0 km/h
1261 23-11-2009 12:17:01 11.3 C 6.73 g/m*3 11.3 C 0 km/h
1262 23-11-2009 12:29:01 11.2 C 6.69 g/m*3 11.2 C 0 km/h
1263 23-11-2009 12:41:02 11.3 C 6.73 g/m*3 11.3 C 0 km/h
1264 23-11-2009 12:53:02 11.2 C 6.89 g/m*3 11.2 C 0 km/h
1265 23-11-2009 13:05:02 10.8 C 7.12 g/m*3 10.8 C 0 km/h
1266 23-11-2009 13:17:02 10.4 C 7.42 g/m*3 10.4 C 0 km/h
1267 23-11-2009 13:29:02 10.4 C 7.61 g/m*3 10.4 C 0 km/h
1268 23-11-2009 13:41:02 10.6 C 7.52 g/m*3 10.6 C 0 km/h
1269 23-11-2009 13:53:01 10.7 C 7.56 g/m*3 10.7 C 0 km/h
1270 23-11-2009 14:05:02 10.7 C 7.76 g/m*3 10.7 C 0 km/h
1271 23-11-2009 14:17:02 11 C 7.71 g/m*3 11 C 0 km/h
1272 23-11-2009 14:29:02 11.1 C 7.76 g/m*3 11.1 C 0 km/h
1273 23-11-2009 14:41:02 11.3 C 7.75 g/m*3 11.3 C 0 km/h
1274 23-11-2009 14:53:02 11.5 C 7.85 g/m*3 11.5 C 0 km/h
1275 23-11-2009 15:05:02 11.5 C 7.85 g/m*3 11.5 C 0 km/h
Sensor: Nr:Datum:Temp:Abs-Feuchte:Windchill:Wind:
Aussen-T/F 1276 23-11-2009 15:17:02 11.4 C 8.01 g/m*3 11.4 C 0 km/h
1277 23-11-2009 15:29:03 11.5 C 8.06 g/m*3 11.5 C 0 km/h
1278 23-11-2009 15:41:01 11.1 C 7.96 g/m*3 11.1 C 0 km/h
1279 23-11-2009 15:53:02 11.1 C 8.16 g/m*3 11.1 C 0 km/h
1280 23-11-2009 16:05:01 11.2 C 8.11 g/m*3 11.2 C 0 km/h
1281 23-11-2009 16:17:02 11.3 C 8.06 g/m*3 11.3 C 0 km/h
1282 23-11-2009 16:29:02 11.1 C 8.06 g/m*3 11.1 C 0 km/h
1283 23-11-2009 16:41:02 11.2 C 8.11 g/m*3 11.2 C 0 km/h
1284 23-11-2009 16:53:02 11.2 C 8.11 g/m*3 11.2 C 0 km/h
1285 23-11-2009 17:05:02 11.1 C 8.16 g/m*3 11.1 C 0 km/h
1286 23-11-2009 17:17:02 11 C 8.21 g/m*3 11 C 0 km/h
1287 23-11-2009 17:29:02 10.8 C 8.2 g/m*3 10.8 C 0 km/h
1288 23-11-2009 17:41:03 10.9 C 8.26 g/m*3 10.9 C 0 km/h
1289 23-11-2009 17:53:02 11.1 C 8.16 g/m*3 11.1 C 0 km/h
1290 23-11-2009 18:05:02 11.5 C 8.16 g/m*3 11.5 C 0 km/h
1291 23-11-2009 18:17:01 11.6 C 8 g/m*3 11.6 C 0 km/h
1292 23-11-2009 18:29:01 11.7 C 7.84 g/m*3 11.7 C 0 km/h
1293 23-11-2009 18:41:02 11.8 C 7.79 g/m*3 11.8 C 0 km/h
1294 23-11-2009 18:53:02 11.9 C 7.73 g/m*3 11.9 C 0 km/h
1295 23-11-2009 19:05:02 11.7 C 7.84 g/m*3 11.7 C 0 km/h
1296 23-11-2009 19:17:02 11.7 C 7.84 g/m*3 11.7 C 0 km/h
1297 23-11-2009 19:29:02 11.8 C 7.89 g/m*3 11.8 C 0 km/h
1298 23-11-2009 19:41:02 11.7 C 7.74 g/m*3 11.7 C 0 km/h
1299 23-11-2009 19:53:02 11.7 C 7.84 g/m*3 11.7 C 0 km/h
1300 23-11-2009 20:05:02 11.9 C 7.84 g/m*3 11.9 C 0 km/h
Sensor: Nr:Datum:Temp:Abs-Feuchte:Windchill:Wind:
Aussen-T/F 1301 23-11-2009 20:17:02 11.8 C 7.89 g/m*3 11.8 C 0 km/h
1302 23-11-2009 20:29:02 11.9 C 7.94 g/m*3 11.9 C 0 km/h
1303 23-11-2009 20:41:02 11.6 C 8 g/m*3 11.6 C 0 km/h
1304 23-11-2009 20:53:01 11.5 C 8.06 g/m*3 11.5 C 0 km/h
1305 23-11-2009 21:05:02 11.4 C 8.21 g/m*3 11.4 C 0 km/h
1306 23-11-2009 21:17:01 11.4 C 8.31 g/m*3 11.4 C 0 km/h
1307 23-11-2009 21:29:01 11.4 C 8.42 g/m*3 11.4 C 0 km/h
1308 23-11-2009 21:41:02 11.5 C 8.37 g/m*3 11.5 C 0 km/h
1309 23-11-2009 21:53:02 11.5 C 8.26 g/m*3 11.5 C 0 km/h
1310 23-11-2009 22:06:04 11.8 C 8.1 g/m*3 11.8 C 0 km/h
1311 23-11-2009 22:18:04 12 C 7.99 g/m*3 12 C 0 km/h
1312 23-11-2009 22:30:04 12.2 C 7.99 g/m*3 12.2 C 0 km/h
1313 23-11-2009 22:42:04 12.1 C 8.04 g/m*3 12.1 C 0 km/h
1314 23-11-2009 22:54:04 11.8 C 8.1 g/m*3 11.8 C 0 km/h
1315 23-11-2009 23:06:04 11.2 C 8.31 g/m*3 11.2 C 0 km/h
1316 23-11-2009 23:18:04 10.6 C 8.1 g/m*3 10.6 C 0 km/h
1317 23-11-2009 23:30:04 10.3 C 7.95 g/m*3 10.3 C 0 km/h
1318 23-11-2009 23:42:04 10.5 C 7.66 g/m*3 10.5 C 0 km/h
1319 23-11-2009 23:54:04 11 C 7.01 g/m*3 11 C 0 km/h
1320 24-11-2009 00:06:04 11.1 C 6.45 g/m*3 11.1 C 0 km/h
1321 24-11-2009 00:18:04 10.8 C 6.52 g/m*3 10.8 C 0 km/h
1322 24-11-2009 00:30:04 11 C 6.31 g/m*3 11 C 0 km/h
1323 24-11-2009 00:42:04 11.3 C 6.12 g/m*3 11.3 C 0 km/h
1324 24-11-2009 00:54:04 11.5 C 6.2 g/m*3 11.5 C 0 km/h
1325 24-11-2009 01:06:04 11.2 C 6.28 g/m*3 11.2 C 0 km/h
Sensor: Nr:Datum:Temp:Abs-Feuchte:Windchill:Wind:
Aussen-T/F 1326 24-11-2009 01:18:04 11.1 C 6.25 g/m*3 11.1 C 0 km/h
1327 24-11-2009 01:30:05 11 C 6.41 g/m*3 11 C 0 km/h
1328 24-11-2009 01:42:05 11.1 C 6.55 g/m*3 11.1 C 0 km/h
1329 24-11-2009 01:54:05 11.1 C 6.45 g/m*3 11.1 C 0 km/h
1330 24-11-2009 02:06:05 11.2 C 6.28 g/m*3 11.2 C 0 km/h
1331 24-11-2009 02:18:05 11.2 C 6.28 g/m*3 11.2 C 0 km/h
1332 24-11-2009 02:30:05 11 C 6.21 g/m*3 11 C 0 km/h
1333 24-11-2009 02:42:05 11 C 6.11 g/m*3 11 C 0 km/h
1334 24-11-2009 02:54:05 11 C 6.11 g/m*3 11 C 0 km/h
1335 24-11-2009 03:06:05 10.9 C 6.17 g/m*3 10.9 C 0 km/h
1336 24-11-2009 03:18:05 10.8 C 6.23 g/m*3 10.8 C 0 km/h
1337 24-11-2009 03:30:05 10.7 C 6.29 g/m*3 10.7 C 0 km/h
1338 24-11-2009 03:42:05 10.7 C 6.19 g/m*3 10.7 C 0 km/h
1339 24-11-2009 03:54:05 10.7 C 6.19 g/m*3 10.7 C 0 km/h
1340 24-11-2009 04:06:05 10.7 C 6.29 g/m*3 10.7 C 0 km/h
1341 24-11-2009 04:18:05 10.6 C 6.25 g/m*3 10.6 C 0 km/h
1342 24-11-2009 04:30:05 10.5 C 6.3 g/m*3 10.5 C 0 km/h
1343 24-11-2009 04:42:05 10.5 C 6.3 g/m*3 10.5 C 0 km/h
1344 24-11-2009 04:54:05 10.4 C 6.36 g/m*3 10.4 C 0 km/h
1345 24-11-2009 05:06:05 10.5 C 6.4 g/m*3 10.5 C 0 km/h
1346 24-11-2009 05:18:05 10.5 C 6.4 g/m*3 10.5 C 0 km/h
1347 24-11-2009 05:30:06 10.6 C 6.34 g/m*3 10.6 C 0 km/h
1348 24-11-2009 05:42:06 10.6 C 6.44 g/m*3 10.6 C 0 km/h
1349 24-11-2009 05:54:06 10.4 C 6.46 g/m*3 10.4 C 0 km/h
1350 24-11-2009 06:06:06 10.5 C 6.5 g/m*3 10.5 C 0 km/h
Sensor: Nr:Datum:Temp:Abs-Feuchte:Windchill:Wind:
Aussen-T/F 1351 24-11-2009 06:18:06 10.4 C 6.55 g/m*3 10.4 C 0 km/h
1352 24-11-2009 06:30:06 10.4 C 6.55 g/m*3 10.4 C 0 km/h
1353 24-11-2009 06:42:06 10.4 C 6.55 g/m*3 10.4 C 0 km/h
1354 24-11-2009 06:54:02 10.3 C 6.51 g/m*3 10.3 C 0 km/h
1355 24-11-2009 07:06:02 10.5 C 6.5 g/m*3 10.5 C 0 km/h
1356 24-11-2009 07:18:02 10.5 C 6.4 g/m*3 10.5 C 0 km/h
1357 24-11-2009 07:30:02 10.3 C 6.32 g/m*3 10.3 C 0 km/h
1358 24-11-2009 07:42:02 9.9 C 6.35 g/m*3 9.9 C 0 km/h
1359 24-11-2009 07:54:02 9.8 C 6.31 g/m*3 9.8 C 0 km/h
1360 24-11-2009 08:06:01 9.7 C 6.36 g/m*3 9.7 C 0 km/h
1361 24-11-2009 08:18:02 9.5 C 6.28 g/m*3 9.5 C 0 km/h
1362 24-11-2009 08:30:02 9.5 C 6.37 g/m*3 9.5 C 0 km/h
1363 24-11-2009 08:42:02 9.4 C 6.33 g/m*3 9.4 C 0 km/h
1364 24-11-2009 08:54:02 9.4 C 6.42 g/m*3 9.4 C 0 km/h
1365 24-11-2009 09:06:03 9.8 C 6.49 g/m*3 9.8 C 0 km/h
1366 24-11-2009 09:18:02 10 C 6.39 g/m*3 10 C 0 km/h
1367 24-11-2009 09:30:02 10 C 6.48 g/m*3 10 C 0 km/h
1368 24-11-2009 09:42:02 10.1 C 6.62 g/m*3 10.1 C 0 km/h
1369 24-11-2009 09:54:01 10.2 C 6.66 g/m*3 10.2 C 0 km/h
1370 24-11-2009 10:06:01 10.4 C 6.84 g/m*3 10.4 C 0 km/h
1371 24-11-2009 10:18:01 10.5 C 6.98 g/m*3 10.5 C 0 km/h
1372 24-11-2009 10:30:01 10.3 C 6.99 g/m*3 10.3 C 0 km/h
1373 24-11-2009 10:42:02 10.3 C 7.37 g/m*3 10.3 C 0 km/h
1374 24-11-2009 10:54:02 10.6 C 7.61 g/m*3 10.6 C 0 km/h
1375 24-11-2009 11:06:02 11 C 7.71 g/m*3 11 C 0 km/h
Sensor: Nr:Datum:Temp:Abs-Feuchte:Windchill:Wind:
Aussen-T/F 1376 24-11-2009 11:18:02 11.1 C 7.76 g/m*3 11.1 C 0 km/h
1377 24-11-2009 11:30:02 11.4 C 7.9 g/m*3 11.4 C 0 km/h
1378 24-11-2009 11:42:02 11.5 C 8.06 g/m*3 11.5 C 0 km/h
1379 24-11-2009 11:54:01 11.4 C 8.21 g/m*3 11.4 C 0 km/h
1380 24-11-2009 12:06:02 11.5 C 8.37 g/m*3 11.5 C 0 km/h
1381 24-11-2009 12:18:01 11.7 C 8.58 g/m*3 11.7 C 0 km/h
1382 24-11-2009 12:30:01 11.9 C 8.79 g/m*3 11.9 C 0 km/h
1383 24-11-2009 12:42:02 12.2 C 8.96 g/m*3 12.2 C 0 km/h
1384 24-11-2009 12:54:02 12.3 C 9.01 g/m*3 12.3 C 0 km/h
1385 24-11-2009 13:06:02 12.5 C 9.24 g/m*3 12.5 C 0 km/h
1386 24-11-2009 13:18:01 12.8 C 9.3 g/m*3 12.8 C 0 km/h
1387 24-11-2009 13:30:01 13.3 C 9.24 g/m*3 13.3 C 0 km/h
1388 24-11-2009 13:42:02 13.3 C 9.24 g/m*3 13.3 C 0 km/h
1389 24-11-2009 13:54:02 13.7 C 9.35 g/m*3 13.7 C 0 km/h
1390 24-11-2009 14:06:02 13.9 C 9.23 g/m*3 13.9 C 0 km/h
1391 24-11-2009 14:18:01 14.1 C 8.86 g/m*3 14.1 C 0 km/h
1392 24-11-2009 14:30:01 14.2 C 8.43 g/m*3 14.2 C 0 km/h
1393 24-11-2009 14:42:02 14.4 C 8.03 g/m*3 14.4 C 0 km/h
1394 24-11-2009 14:54:02 14.4 C 7.91 g/m*3 14.4 C 0 km/h
1395 24-11-2009 15:06:02 14.2 C 8.06 g/m*3 14.2 C 0 km/h
1396 24-11-2009 15:18:02 13.9 C 8.39 g/m*3 13.9 C 0 km/h
1397 24-11-2009 15:30:02 13.7 C 8.41 g/m*3 13.7 C 0 km/h
1398 24-11-2009 15:42:02 13.6 C 8.47 g/m*3 13.6 C 0 km/h
1399 24-11-2009 15:54:02 13.5 C 8.54 g/m*3 13.5 C 0 km/h
1400 24-11-2009 16:06:02 13.5 C 8.42 g/m*3 13.5 C 0 km/h
Sensor: Nr:Datum:Temp:Abs-Feuchte:Windchill:Wind:
Aussen-T/F 1401 24-11-2009 16:18:02 13.4 C 8.25 g/m*3 13.4 C 0 km/h
1402 24-11-2009 16:30:02 13.3 C 8.2 g/m*3 13.3 C 0 km/h
1403 24-11-2009 16:42:02 13.3 C 8.2 g/m*3 13.3 C 0 km/h
1404 24-11-2009 16:54:01 13.2 C 8.15 g/m*3 13.2 C 0 km/h
1405 24-11-2009 17:06:02 13.4 C 8.25 g/m*3 13.4 C 0 km/h
1406 24-11-2009 17:18:02 13.2 C 8.15 g/m*3 13.2 C 0 km/h
1407 24-11-2009 17:30:02 13.3 C 8.2 g/m*3 13.3 C 0 km/h
1408 24-11-2009 17:42:02 13.2 C 8.15 g/m*3 13.2 C 0 km/h
1409 24-11-2009 17:54:02 13.2 C 8.27 g/m*3 13.2 C 0 km/h
1410 24-11-2009 18:06:02 13.1 C 8.22 g/m*3 13.1 C 0 km/h
1411 24-11-2009 18:18:02 13.1 C 8.33 g/m*3 13.1 C 0 km/h
1412 24-11-2009 18:30:03 13.1 C 8.33 g/m*3 13.1 C 0 km/h
1413 24-11-2009 18:42:01 13 C 8.28 g/m*3 13 C 0 km/h
1414 24-11-2009 18:54:02 13 C 8.28 g/m*3 13 C 0 km/h
1415 24-11-2009 19:06:01 13.1 C 8.22 g/m*3 13.1 C 0 km/h
1416 24-11-2009 19:18:02 13.1 C 8.1 g/m*3 13.1 C 0 km/h
1417 24-11-2009 19:30:02 13 C 8.05 g/m*3 13 C 0 km/h
1418 24-11-2009 19:42:02 13 C 8.05 g/m*3 13 C 0 km/h
1419 24-11-2009 19:54:02 13 C 7.94 g/m*3 13 C 0 km/h
1420 24-11-2009 20:06:02 13 C 7.94 g/m*3 13 C 0 km/h
1421 24-11-2009 20:18:02 13.1 C 7.87 g/m*3 13.1 C 0 km/h
1422 24-11-2009 20:30:02 13.1 C 7.87 g/m*3 13.1 C 0 km/h
1423 24-11-2009 20:42:02 13.1 C 7.76 g/m*3 13.1 C 0 km/h
1424 24-11-2009 20:54:02 13.2 C 7.81 g/m*3 13.2 C 0 km/h
1425 24-11-2009 21:06:01 13.3 C 7.74 g/m*3 13.3 C 0 km/h
Sensor: Nr:Datum:Temp:Abs-Feuchte:Windchill:Wind:
Aussen-T/F 1426 24-11-2009 21:18:02 13.4 C 7.67 g/m*3 13.4 C 0 km/h
1427 24-11-2009 21:30:02 13.3 C 7.63 g/m*3 13.3 C 0 km/h
1428 24-11-2009 21:42:01 13.3 C 7.63 g/m*3 13.3 C 0 km/h
1429 24-11-2009 21:54:02 13.1 C 7.53 g/m*3 13.1 C 0 km/h
1430 24-11-2009 22:06:01 13.3 C 7.51 g/m*3 13.3 C 0 km/h
1431 24-11-2009 22:18:02 13.3 C 7.39 g/m*3 13.3 C 0 km/h
1432 24-11-2009 22:30:02 13.4 C 7.32 g/m*3 13.4 C 0 km/h
1433 24-11-2009 22:42:01 13.3 C 7.28 g/m*3 13.3 C 0 km/h
1434 24-11-2009 22:55:03 13.3 C 7.28 g/m*3 13.3 C 0 km/h
1435 24-11-2009 23:07:03 13.2 C 7.12 g/m*3 13.2 C 0 km/h
1436 24-11-2009 23:19:03 13.2 C 7 g/m*3 13.2 C 0 km/h
1437 24-11-2009 23:31:03 13.2 C 6.89 g/m*3 13.2 C 0 km/h
1438 24-11-2009 23:43:03 13.2 C 6.77 g/m*3 13.2 C 0 km/h
1439 24-11-2009 23:55:03 13.1 C 6.62 g/m*3 13.1 C 0 km/h
1440 25-11-2009 00:07:03 13.2 C 6.54 g/m*3 13.2 C 0 km/h
1441 25-11-2009 00:19:03 13.2 C 6.54 g/m*3 13.2 C 0 km/h
1442 25-11-2009 00:31:03 13.2 C 6.54 g/m*3 13.2 C 0 km/h
1443 25-11-2009 00:43:03 13.2 C 6.54 g/m*3 13.2 C 0 km/h
1444 25-11-2009 00:55:03 13.1 C 6.5 g/m*3 13.1 C 0 km/h
1445 25-11-2009 01:07:03 13.1 C 6.62 g/m*3 13.1 C 0 km/h
1446 25-11-2009 01:19:03 13.1 C 6.73 g/m*3 13.1 C 0 km/h
1447 25-11-2009 01:31:03 12.9 C 6.88 g/m*3 12.9 C 0 km/h
1448 25-11-2009 01:43:04 13 C 6.8 g/m*3 13 C 0 km/h
1449 25-11-2009 01:55:04 13.1 C 6.85 g/m*3 13.1 C 0 km/h
1450 25-11-2009 02:07:04 13 C 7.03 g/m*3 13 C 0 km/h
Sensor: Nr:Datum:Temp:Abs-Feuchte:Windchill:Wind:
Aussen-T/F 1451 25-11-2009 02:19:04 12.9 C 7.1 g/m*3 12.9 C 0 km/h
1452 25-11-2009 02:31:04 12.8 C 7.06 g/m*3 12.8 C 0 km/h
1453 25-11-2009 02:43:04 12.9 C 6.99 g/m*3 12.9 C 0 km/h
1454 25-11-2009 02:55:04 12.9 C 6.76 g/m*3 12.9 C 0 km/h
1455 25-11-2009 03:07:04 12.9 C 6.76 g/m*3 12.9 C 0 km/h
1456 25-11-2009 03:19:04 13 C 6.58 g/m*3 13 C 0 km/h
1457 25-11-2009 03:31:04 13 C 6.46 g/m*3 13 C 0 km/h
1458 25-11-2009 03:43:04 13.1 C 6.5 g/m*3 13.1 C 0 km/h
1459 25-11-2009 03:55:04 13.1 C 6.5 g/m*3 13.1 C 0 km/h
1460 25-11-2009 04:07:04 13 C 6.46 g/m*3 13 C 0 km/h
1461 25-11-2009 04:19:04 12.9 C 6.42 g/m*3 12.9 C 0 km/h
1462 25-11-2009 04:31:04 13 C 6.24 g/m*3 13 C 0 km/h
1463 25-11-2009 04:43:04 12.8 C 6.38 g/m*3 12.8 C 0 km/h
1464 25-11-2009 04:55:04 12.7 C 6.35 g/m*3 12.7 C 0 km/h
1465 25-11-2009 05:07:04 12.7 C 6.35 g/m*3 12.7 C 0 km/h
1466 25-11-2009 05:19:04 12.6 C 6.31 g/m*3 12.6 C 0 km/h
1467 25-11-2009 05:31:04 12.4 C 6.23 g/m*3 12.4 C 0 km/h
1468 25-11-2009 05:43:05 12.2 C 6.26 g/m*3 12.2 C 0 km/h
1469 25-11-2009 05:55:05 12.1 C 6.33 g/m*3 12.1 C 0 km/h
1470 25-11-2009 06:07:05 11.9 C 6.35 g/m*3 11.9 C 0 km/h
1471 25-11-2009 06:19:05 11.7 C 6.38 g/m*3 11.7 C 0 km/h
1472 25-11-2009 06:31:05 11.5 C 6.3 g/m*3 11.5 C 0 km/h
1473 25-11-2009 06:43:05 11.4 C 6.36 g/m*3 11.4 C 0 km/h
1474 25-11-2009 06:55:05 11.2 C 6.28 g/m*3 11.2 C 0 km/h
1475 25-11-2009 07:07:02 11.2 C 6.28 g/m*3 11.2 C 0 km/h
Sensor: Nr:Datum:Temp:Abs-Feuchte:Windchill:Wind:
Aussen-T/F 1476 25-11-2009 07:19:03 11.2 C 6.28 g/m*3 11.2 C 0 km/h
1477 25-11-2009 07:31:02 10.7 C 6.29 g/m*3 10.7 C 0 km/h
1478 25-11-2009 07:43:02 10.1 C 6.24 g/m*3 10.1 C 0 km/h
1479 25-11-2009 07:55:02 10 C 6.3 g/m*3 10 C 0 km/h
1480 25-11-2009 08:07:01 9.8 C 6.31 g/m*3 9.8 C 0 km/h
1481 25-11-2009 08:19:02 9.5 C 6.28 g/m*3 9.5 C 0 km/h
1482 25-11-2009 08:31:01 9.5 C 6.28 g/m*3 9.5 C 0 km/h
1483 25-11-2009 08:43:01 9.4 C 6.33 g/m*3 9.4 C 0 km/h
1484 25-11-2009 08:55:02 9.3 C 6.29 g/m*3 9.3 C 0 km/h
1485 25-11-2009 09:07:02 9.5 C 6.46 g/m*3 9.5 C 0 km/h
1486 25-11-2009 09:19:02 9.4 C 6.33 g/m*3 9.4 C 0 km/h
1487 25-11-2009 09:31:02 9.4 C 6.42 g/m*3 9.4 C 0 km/h
1488 25-11-2009 09:43:02 9.5 C 6.37 g/m*3 9.5 C 0 km/h
1489 25-11-2009 09:55:02 10.2 C 6.28 g/m*3 10.2 C 0 km/h
1490 25-11-2009 10:07:02 10.6 C 6.34 g/m*3 10.6 C 0 km/h
1491 25-11-2009 10:19:02 11.2 C 6.18 g/m*3 11.2 C 0 km/h
1492 25-11-2009 10:31:01 11.5 C 6.2 g/m*3 11.5 C 0 km/h
1493 25-11-2009 10:43:01 11.2 C 6.08 g/m*3 11.2 C 0 km/h
1494 25-11-2009 10:55:02 11.2 C 6.18 g/m*3 11.2 C 0 km/h
1495 25-11-2009 11:07:01 11.5 C 6.2 g/m*3 11.5 C 0 km/h
1496 25-11-2009 11:19:01 11.8 C 6.31 g/m*3 11.8 C 0 km/h
1497 25-11-2009 11:31:02 12.3 C 6.08 g/m*3 12.3 C 0 km/h
1498 25-11-2009 11:43:02 12.5 C 6.05 g/m*3 12.5 C 0 km/h
1499 25-11-2009 11:55:02 12.6 C 5.97 g/m*3 12.6 C 0 km/h
1500 25-11-2009 12:07:02 13.1 C 5.71 g/m*3 13.1 C 0 km/h
Sensor: Nr:Datum:Temp:Abs-Feuchte:Windchill:Wind:
Aussen-T/F 1501 25-11-2009 12:19:02 13.7 C 5.68 g/m*3 13.7 C 0 km/h
1502 25-11-2009 12:31:02 13.9 C 5.51 g/m*3 13.9 C 0 km/h
1503 25-11-2009 12:43:02 14.1 C 5.22 g/m*3 14.1 C 0 km/h
1504 25-11-2009 12:55:02 14.1 C 5.22 g/m*3 14.1 C 0 km/h
1505 25-11-2009 13:07:02 14.4 C 5.07 g/m*3 14.4 C 0 km/h
1506 25-11-2009 13:19:01 15 C 5 g/m*3 15 C 0 km/h
1507 25-11-2009 13:31:02 15 C 5 g/m*3 15 C 0 km/h
1508 25-11-2009 13:43:02 15 C 4.74 g/m*3 15 C 0 km/h
1509 25-11-2009 13:55:02 15.2 C 4.67 g/m*3 15.2 C 0 km/h
1510 25-11-2009 14:07:02 15.2 C 4.67 g/m*3 15.2 C 0 km/h
1511 25-11-2009 14:19:01 15.1 C 4.52 g/m*3 15.1 C 0 km/h
1512 25-11-2009 14:31:02 15.2 C 4.67 g/m*3 15.2 C 0 km/h
1513 25-11-2009 14:43:02 15.2 C 4.67 g/m*3 15.2 C 0 km/h
1514 25-11-2009 14:55:02 15.1 C 4.77 g/m*3 15.1 C 0 km/h
1515 25-11-2009 15:07:02 14.8 C 4.94 g/m*3 14.8 C 0 km/h
1516 25-11-2009 15:19:02 14.7 C 4.78 g/m*3 14.7 C 0 km/h
1517 25-11-2009 15:31:02 14.5 C 4.85 g/m*3 14.5 C 0 km/h
1518 25-11-2009 15:43:02 14.4 C 4.94 g/m*3 14.4 C 0 km/h
1519 25-11-2009 15:55:02 14.3 C 4.91 g/m*3 14.3 C 0 km/h
1520 25-11-2009 16:07:02 14.2 C 4.88 g/m*3 14.2 C 0 km/h
1521 25-11-2009 16:19:03 14.1 C 4.85 g/m*3 14.1 C 0 km/h
1522 25-11-2009 16:31:02 14 C 4.95 g/m*3 14 C 0 km/h
1523 25-11-2009 16:43:02 14 C 4.95 g/m*3 14 C 0 km/h
1524 25-11-2009 16:55:02 13.8 C 5 g/m*3 13.8 C 0 km/h
1525 25-11-2009 17:07:02 13.6 C 5.18 g/m*3 13.6 C 0 km/h
Sensor: Nr:Datum:Temp:Abs-Feuchte:Windchill:Wind:
Aussen-T/F 1526 25-11-2009 17:19:02 13.4 C 5.23 g/m*3 13.4 C 0 km/h
1527 25-11-2009 17:31:02 13.4 C 5.23 g/m*3 13.4 C 0 km/h
1528 25-11-2009 17:43:02 13.4 C 5.35 g/m*3 13.4 C 0 km/h
1529 25-11-2009 17:55:02 13 C 5.78 g/m*3 13 C 0 km/h
1530 25-11-2009 18:07:02 12.8 C 6.05 g/m*3 12.8 C 0 km/h
1531 25-11-2009 18:19:02 12.4 C 6.45 g/m*3 12.4 C 0 km/h
1532 25-11-2009 18:31:02 12 C 6.61 g/m*3 12 C 0 km/h
1533 25-11-2009 18:43:02 11.3 C 7.04 g/m*3 11.3 C 0 km/h
1534 25-11-2009 18:55:02 10.6 C 7.42 g/m*3 10.6 C 0 km/h
1535 25-11-2009 19:07:01 10.3 C 7.57 g/m*3 10.3 C 0 km/h
1536 25-11-2009 19:19:02 10.2 C 7.71 g/m*3 10.2 C 0 km/h
1537 25-11-2009 19:31:01 10.1 C 7.75 g/m*3 10.1 C 0 km/h
1538 25-11-2009 19:43:01 10 C 7.8 g/m*3 10 C 0 km/h
1539 25-11-2009 19:55:02 9.9 C 7.84 g/m*3 9.9 C 0 km/h
1540 25-11-2009 20:07:01 9.9 C 7.84 g/m*3 9.9 C 0 km/h
1541 25-11-2009 20:19:01 10 C 7.71 g/m*3 10 C 0 km/h
1542 25-11-2009 20:31:02 10.4 C 7.61 g/m*3 10.4 C 0 km/h
1543 25-11-2009 20:43:02 10.4 C 7.42 g/m*3 10.4 C 0 km/h
1544 25-11-2009 20:55:02 10.3 C 7.37 g/m*3 10.3 C 0 km/h
1545 25-11-2009 21:07:02 10.2 C 7.33 g/m*3 10.2 C 0 km/h
1546 25-11-2009 21:19:02 10.1 C 7.38 g/m*3 10.1 C 0 km/h
1547 25-11-2009 21:31:02 10.2 C 7.33 g/m*3 10.2 C 0 km/h
1548 25-11-2009 21:43:03 10.3 C 7.09 g/m*3 10.3 C 0 km/h
1549 25-11-2009 21:55:01 10.3 C 6.99 g/m*3 10.3 C 0 km/h
1550 25-11-2009 22:08:02 10.2 C 6.95 g/m*3 10.2 C 0 km/h
Sensor: Nr:Datum:Temp:Abs-Feuchte:Windchill:Wind:
Aussen-T/F 1551 25-11-2009 22:20:02 10.2 C 6.85 g/m*3 10.2 C 0 km/h
1552 25-11-2009 22:32:02 10 C 6.86 g/m*3 10 C 0 km/h
1553 25-11-2009 22:44:02 10 C 6.86 g/m*3 10 C 0 km/h
1554 25-11-2009 22:56:02 10 C 6.77 g/m*3 10 C 0 km/h
1555 25-11-2009 23:08:02 10.1 C 6.81 g/m*3 10.1 C 0 km/h
1556 25-11-2009 23:20:02 10.1 C 6.71 g/m*3 10.1 C 0 km/h
1557 25-11-2009 23:32:02 9.8 C 6.68 g/m*3 9.8 C 0 km/h
1558 25-11-2009 23:44:02 9.8 C 6.59 g/m*3 9.8 C 0 km/h
1559 25-11-2009 23:56:02 9.8 C 6.49 g/m*3 9.8 C 0 km/h
1560 26-11-2009 00:08:02 9.8 C 6.59 g/m*3 9.8 C 0 km/h
1561 26-11-2009 00:20:02 9.8 C 6.49 g/m*3 9.8 C 0 km/h
1562 26-11-2009 00:32:02 9.9 C 6.44 g/m*3 9.9 C 0 km/h
1563 26-11-2009 00:44:02 9.8 C 6.4 g/m*3 9.8 C 0 km/h
1564 26-11-2009 00:56:02 9.6 C 6.41 g/m*3 9.6 C 0 km/h
1565 26-11-2009 01:08:03 9.7 C 6.36 g/m*3 9.7 C 0 km/h
1566 26-11-2009 01:20:03 9.5 C 6.28 g/m*3 9.5 C 0 km/h
1567 26-11-2009 01:32:03 9.5 C 6.19 g/m*3 9.5 C 0 km/h
1568 26-11-2009 01:44:03 9.4 C 6.06 g/m*3 9.4 C 0 km/h
1569 26-11-2009 01:56:03 9.2 C 5.98 g/m*3 9.2 C 0 km/h
1570 26-11-2009 02:08:03 9 C 5.91 g/m*3 9 C 0 km/h
1571 26-11-2009 02:20:03 9.2 C 5.8 g/m*3 9.2 C 0 km/h
1572 26-11-2009 02:32:03 9.1 C 5.77 g/m*3 9.1 C 0 km/h
1573 26-11-2009 02:44:03 9.1 C 5.77 g/m*3 9.1 C 0 km/h
1574 26-11-2009 02:56:03 9.2 C 5.8 g/m*3 9.2 C 0 km/h
1575 26-11-2009 03:08:03 9.4 C 5.79 g/m*3 9.4 C 0 km/h
Sensor: Nr:Datum:Temp:Abs-Feuchte:Windchill:Wind:
Aussen-T/F 1576 26-11-2009 03:20:03 9.5 C 5.83 g/m*3 9.5 C 0 km/h
1577 26-11-2009 03:32:03 9.4 C 5.88 g/m*3 9.4 C 0 km/h
1578 26-11-2009 03:44:03 9.5 C 5.83 g/m*3 9.5 C 0 km/h
1579 26-11-2009 03:56:03 9.4 C 5.79 g/m*3 9.4 C 0 km/h
1580 26-11-2009 04:08:03 9.5 C 5.73 g/m*3 9.5 C 0 km/h
1581 26-11-2009 04:20:03 9.4 C 5.7 g/m*3 9.4 C 0 km/h
1582 26-11-2009 04:32:03 9.5 C 5.73 g/m*3 9.5 C 0 km/h
1583 26-11-2009 04:44:03 9.6 C 5.68 g/m*3 9.6 C 0 km/h
1584 26-11-2009 04:56:03 9.6 C 5.59 g/m*3 9.6 C 0 km/h
1585 26-11-2009 05:08:03 9.6 C 5.59 g/m*3 9.6 C 0 km/h
1586 26-11-2009 05:20:04 9.6 C 5.59 g/m*3 9.6 C 0 km/h
1587 26-11-2009 05:32:04 9.7 C 5.53 g/m*3 9.7 C 0 km/h
1588 26-11-2009 05:44:04 9.7 C 5.44 g/m*3 9.7 C 0 km/h
1589 26-11-2009 05:56:04 9.7 C 5.44 g/m*3 9.7 C 0 km/h
1590 26-11-2009 06:08:04 9.6 C 5.5 g/m*3 9.6 C 0 km/h
1591 26-11-2009 06:20:04 9.6 C 5.5 g/m*3 9.6 C 0 km/h
1592 26-11-2009 06:32:04 9.6 C 5.5 g/m*3 9.6 C 0 km/h
1593 26-11-2009 06:44:04 9.7 C 5.53 g/m*3 9.7 C 0 km/h
1594 26-11-2009 06:56:04 9.6 C 5.5 g/m*3 9.6 C 0 km/h
1595 26-11-2009 07:08:02 9.7 C 5.53 g/m*3 9.7 C 0 km/h
1596 26-11-2009 07:20:01 9.7 C 5.44 g/m*3 9.7 C 0 km/h
1597 26-11-2009 07:32:02 9.7 C 5.44 g/m*3 9.7 C 0 km/h
1598 26-11-2009 07:44:02 9.8 C 5.47 g/m*3 9.8 C 0 km/h
1599 26-11-2009 07:56:02 9.8 C 5.38 g/m*3 9.8 C 0 km/h
1600 26-11-2009 08:08:02 9.8 C 5.47 g/m*3 9.8 C 0 km/h
Sensor: Nr:Datum:Temp:Abs-Feuchte:Windchill:Wind:
Aussen-T/F 1601 26-11-2009 08:20:02 9.9 C 5.42 g/m*3 9.9 C 0 km/h
1602 26-11-2009 08:32:02 9.8 C 5.47 g/m*3 9.8 C 0 km/h
1603 26-11-2009 08:44:02 10 C 5.45 g/m*3 10 C 0 km/h
1604 26-11-2009 08:56:01 10 C 5.45 g/m*3 10 C 0 km/h
1605 26-11-2009 09:08:01 9.9 C 5.51 g/m*3 9.9 C 0 km/h
1606 26-11-2009 09:20:01 10 C 5.36 g/m*3 10 C 0 km/h
1607 26-11-2009 09:32:01 10 C 5.36 g/m*3 10 C 0 km/h
1608 26-11-2009 09:44:01 10 C 5.36 g/m*3 10 C 0 km/h
1609 26-11-2009 09:56:01 10 C 5.36 g/m*3 10 C 0 km/h
1610 26-11-2009 10:08:01 10 C 5.26 g/m*3 10 C 0 km/h
1611 26-11-2009 10:20:02 10.1 C 5.3 g/m*3 10.1 C 0 km/h
1612 26-11-2009 10:32:01 10.2 C 5.23 g/m*3 10.2 C 0 km/h
1613 26-11-2009 10:44:01 10.3 C 5.27 g/m*3 10.3 C 0 km/h
1614 26-11-2009 10:56:02 10.4 C 5.2 g/m*3 10.4 C 0 km/h
1615 26-11-2009 11:08:01 10.5 C 5.14 g/m*3 10.5 C 0 km/h
1616 26-11-2009 11:20:02 10.9 C 5.07 g/m*3 10.9 C 0 km/h
1617 26-11-2009 11:32:01 10.7 C 5.3 g/m*3 10.7 C 0 km/h
1618 26-11-2009 11:44:01 10.9 C 5.27 g/m*3 10.9 C 0 km/h
1619 26-11-2009 11:56:03 11.1 C 5.24 g/m*3 11.1 C 0 km/h
1620 26-11-2009 12:08:02 11.3 C 5.2 g/m*3 11.3 C 0 km/h
1621 26-11-2009 12:20:02 11.1 C 5.24 g/m*3 11.1 C 0 km/h
1622 26-11-2009 12:32:02 11 C 5.31 g/m*3 11 C 0 km/h
1623 26-11-2009 12:44:02 11 C 5.31 g/m*3 11 C 0 km/h
1624 26-11-2009 12:56:02 11.3 C 5.41 g/m*3 11.3 C 0 km/h
1625 26-11-2009 13:08:02 11.3 C 5.41 g/m*3 11.3 C 0 km/h
Sensor: Nr:Datum:Temp:Abs-Feuchte:Windchill:Wind:
Aussen-T/F 1626 26-11-2009 13:20:02 11.4 C 5.44 g/m*3 11.4 C 0 km/h
1627 26-11-2009 13:32:02 11.7 C 5.54 g/m*3 11.7 C 0 km/h
1628 26-11-2009 13:44:02 11.2 C 5.88 g/m*3 11.2 C 0 km/h
1629 26-11-2009 13:56:02 11.1 C 5.94 g/m*3 11.1 C 0 km/h
1630 26-11-2009 14:08:01 10.7 C 5.8 g/m*3 10.7 C 0 km/h
1631 26-11-2009 14:20:01 10.6 C 5.76 g/m*3 10.6 C 0 km/h
1632 26-11-2009 14:32:02 10.7 C 5.8 g/m*3 10.7 C 0 km/h
1633 26-11-2009 14:44:02 10.8 C 5.83 g/m*3 10.8 C 0 km/h
1634 26-11-2009 14:56:02 10.7 C 5.8 g/m*3 10.7 C 0 km/h
1635 26-11-2009 15:08:02 10.7 C 5.89 g/m*3 10.7 C 0 km/h
1636 26-11-2009 15:20:02 10.8 C 5.83 g/m*3 10.8 C 0 km/h
1637 26-11-2009 15:32:02 10.8 C 5.63 g/m*3 10.8 C 0 km/h
1638 26-11-2009 15:44:02 10.8 C 5.73 g/m*3 10.8 C 0 km/h
1639 26-11-2009 15:56:01 10.6 C 5.47 g/m*3 10.6 C 0 km/h
1640 26-11-2009 16:08:02 10.3 C 5.46 g/m*3 10.3 C 0 km/h
1641 26-11-2009 16:20:01 10.3 C 5.46 g/m*3 10.3 C 0 km/h
1642 26-11-2009 16:32:02 10.2 C 5.33 g/m*3 10.2 C 0 km/h
1643 26-11-2009 16:44:02 10.1 C 5.3 g/m*3 10.1 C 0 km/h
1644 26-11-2009 16:56:02 9.9 C 5.42 g/m*3 9.9 C 0 km/h
1645 26-11-2009 17:08:02 9.8 C 5.47 g/m*3 9.8 C 0 km/h
1646 26-11-2009 17:20:01 9.7 C 5.53 g/m*3 9.7 C 0 km/h
1647 26-11-2009 17:32:02 10 C 5.54 g/m*3 10 C 0 km/h
1648 26-11-2009 17:44:02 9.9 C 5.7 g/m*3 9.9 C 0 km/h
1649 26-11-2009 17:56:02 10 C 5.64 g/m*3 10 C 0 km/h
1650 26-11-2009 18:08:02 9.8 C 5.66 g/m*3 9.8 C 0 km/h
Sensor: Nr:Datum:Temp:Abs-Feuchte:Windchill:Wind:
Aussen-T/F 1651 26-11-2009 18:20:02 10.1 C 5.67 g/m*3 10.1 C 0 km/h
1652 26-11-2009 18:32:02 10 C 5.64 g/m*3 10 C 0 km/h
1653 26-11-2009 18:44:02 10 C 5.64 g/m*3 10 C 0 km/h
1654 26-11-2009 18:56:02 10.2 C 5.61 g/m*3 10.2 C 0 km/h
1655 26-11-2009 19:08:02 10.2 C 5.52 g/m*3 10.2 C 0 km/h
1656 26-11-2009 19:20:02 10.3 C 5.55 g/m*3 10.3 C 0 km/h
1657 26-11-2009 19:32:02 9.5 C 6.1 g/m*3 9.5 C 0 km/h
1658 26-11-2009 19:44:02 9 C 6.44 g/m*3 9 C 0 km/h
1659 26-11-2009 19:56:02 8.8 C 6.79 g/m*3 8.8 C 0 km/h
1660 26-11-2009 20:08:02 8.8 C 6.7 g/m*3 8.8 C 0 km/h
1661 26-11-2009 20:20:02 8.9 C 6.83 g/m*3 8.9 C 0 km/h
1662 26-11-2009 20:32:02 8.4 C 6.79 g/m*3 8.4 C 0 km/h
1663 26-11-2009 20:44:02 8.4 C 6.79 g/m*3 8.4 C 0 km/h
1664 26-11-2009 20:56:02 8.8 C 6.35 g/m*3 8.8 C 0 km/h
1665 26-11-2009 21:08:02 9.3 C 6.11 g/m*3 9.3 C 0 km/h
1666 26-11-2009 21:20:02 9.7 C 6.08 g/m*3 9.7 C 0 km/h
1667 26-11-2009 21:32:03 9.8 C 5.94 g/m*3 9.8 C 0 km/h
1668 26-11-2009 21:44:03 10 C 5.83 g/m*3 10 C 0 km/h
1669 26-11-2009 21:56:02 10 C 5.83 g/m*3 10 C 0 km/h
1670 26-11-2009 22:08:02 10 C 5.92 g/m*3 10 C 0 km/h
1671 26-11-2009 22:20:01 10 C 5.83 g/m*3 10 C 0 km/h
1672 26-11-2009 22:32:02 10.1 C 5.86 g/m*3 10.1 C 0 km/h
1673 26-11-2009 22:44:02 10.1 C 5.77 g/m*3 10.1 C 0 km/h
1674 26-11-2009 22:56:02 10.3 C 5.75 g/m*3 10.3 C 0 km/h
1675 26-11-2009 23:09:01 10.5 C 5.72 g/m*3 10.5 C 0 km/h
Sensor: Nr:Datum:Temp:Abs-Feuchte:Windchill:Wind:
Aussen-T/F 1676 26-11-2009 23:21:01 10.4 C 5.69 g/m*3 10.4 C 0 km/h
1677 26-11-2009 23:33:01 10.5 C 5.72 g/m*3 10.5 C 0 km/h
1678 26-11-2009 23:45:01 10.4 C 5.78 g/m*3 10.4 C 0 km/h
1679 26-11-2009 23:57:01 10.4 C 5.88 g/m*3 10.4 C 0 km/h
1680 27-11-2009 00:09:01 10.4 C 5.88 g/m*3 10.4 C 0 km/h
1681 27-11-2009 00:21:01 10.6 C 5.86 g/m*3 10.6 C 0 km/h
1682 27-11-2009 00:33:01 10.8 C 5.73 g/m*3 10.8 C 0 km/h
1683 27-11-2009 00:45:01 10.8 C 5.73 g/m*3 10.8 C 0 km/h
1684 27-11-2009 00:57:02 10.7 C 5.89 g/m*3 10.7 C 0 km/h
1685 27-11-2009 01:09:02 10.4 C 6.07 g/m*3 10.4 C 0 km/h
1686 27-11-2009 01:21:02 10.7 C 5.99 g/m*3 10.7 C 0 km/h
1687 27-11-2009 01:33:02 10.8 C 5.93 g/m*3 10.8 C 0 km/h
1688 27-11-2009 01:45:02 10.9 C 5.87 g/m*3 10.9 C 0 km/h
1689 27-11-2009 01:57:02 11 C 5.81 g/m*3 11 C 0 km/h
1690 27-11-2009 02:09:02 11 C 5.71 g/m*3 11 C 0 km/h
1691 27-11-2009 02:21:02 10.9 C 5.87 g/m*3 10.9 C 0 km/h
1692 27-11-2009 02:33:02 11 C 5.71 g/m*3 11 C 0 km/h
1693 27-11-2009 02:45:02 10.9 C 5.77 g/m*3 10.9 C 0 km/h
1694 27-11-2009 02:57:02 11 C 5.51 g/m*3 11 C 0 km/h
1695 27-11-2009 03:09:02 10.9 C 5.57 g/m*3 10.9 C 0 km/h
1696 27-11-2009 03:21:02 10.9 C 5.57 g/m*3 10.9 C 0 km/h
1697 27-11-2009 03:33:02 10.9 C 5.67 g/m*3 10.9 C 0 km/h
1698 27-11-2009 03:45:02 10.8 C 5.63 g/m*3 10.8 C 0 km/h
1699 27-11-2009 03:57:02 10.5 C 5.72 g/m*3 10.5 C 0 km/h
1700 27-11-2009 04:09:02 10.1 C 5.86 g/m*3 10.1 C 0 km/h
Sensor: Nr:Datum:Temp:Abs-Feuchte:Windchill:Wind:
Aussen-T/F 1701 27-11-2009 04:21:02 9.8 C 5.94 g/m*3 9.8 C 0 km/h
1702 27-11-2009 04:33:02 9.3 C 5.84 g/m*3 9.3 C 0 km/h
1703 27-11-2009 04:45:03 9.1 C 6.03 g/m*3 9.1 C 0 km/h
1704 27-11-2009 04:57:03 8.9 C 6.22 g/m*3 8.9 C 0 km/h
1705 27-11-2009 05:09:03 9 C 6.08 g/m*3 9 C 0 km/h
1706 27-11-2009 05:21:03 9.1 C 6.03 g/m*3 9.1 C 0 km/h
1707 27-11-2009 05:33:03 9.1 C 6.03 g/m*3 9.1 C 0 km/h
1708 27-11-2009 05:45:03 9.1 C 6.12 g/m*3 9.1 C 0 km/h
1709 27-11-2009 05:57:03 8.9 C 6.22 g/m*3 8.9 C 0 km/h
1710 27-11-2009 06:09:03 8.5 C 6.32 g/m*3 8.5 C 0 km/h
1711 27-11-2009 06:21:03 8.3 C 6.66 g/m*3 8.3 C 0 km/h
1712 27-11-2009 06:33:03 8.2 C 6.78 g/m*3 8.2 C 0 km/h
1713 27-11-2009 06:45:03 8.1 C 6.66 g/m*3 8.1 C 0 km/h
1714 27-11-2009 06:57:03 7.9 C 6.74 g/m*3 7.9 C 0 km/h
1715 27-11-2009 07:09:02 7.7 C 6.73 g/m*3 7.7 C 0 km/h
1716 27-11-2009 07:21:01 7.5 C 6.72 g/m*3 7.5 C 0 km/h
1717 27-11-2009 07:33:01 7.4 C 6.84 g/m*3 7.4 C 0 km/h
1718 27-11-2009 07:45:01 7.5 C 6.96 g/m*3 7.5 C 0 km/h
1719 27-11-2009 07:57:01 7.5 C 7.04 g/m*3 7.5 C 0 km/h
1720 27-11-2009 08:09:02 7.6 C 6.93 g/m*3 7.6 C 0 km/h
1721 27-11-2009 08:21:01 8.2 C 6.7 g/m*3 8.2 C 0 km/h
1722 27-11-2009 08:33:02 8.2 C 6.36 g/m*3 8.2 C 0 km/h
1723 27-11-2009 08:45:01 8.4 C 6.02 g/m*3 8.4 C 0 km/h
1724 27-11-2009 08:57:01 8.4 C 5.85 g/m*3 8.4 C 0 km/h
1725 27-11-2009 09:09:02 8.3 C 5.82 g/m*3 8.3 C 0 km/h
Sensor: Nr:Datum:Temp:Abs-Feuchte:Windchill:Wind:
Aussen-T/F 1726 27-11-2009 09:21:02 8.5 C 5.72 g/m*3 8.5 C 0 km/h
1727 27-11-2009 09:33:02 8.6 C 5.67 g/m*3 8.6 C 0 km/h
1728 27-11-2009 09:45:02 8.8 C 5.57 g/m*3 8.8 C 0 km/h
1729 27-11-2009 09:57:02 8.7 C 5.53 g/m*3 8.7 C 0 km/h
1730 27-11-2009 10:09:02 8.8 C 5.57 g/m*3 8.8 C 0 km/h
1731 27-11-2009 10:21:01 9 C 5.55 g/m*3 9 C 0 km/h
1732 27-11-2009 10:33:01 9.1 C 5.59 g/m*3 9.1 C 0 km/h
1733 27-11-2009 10:45:01 9.2 C 5.54 g/m*3 9.2 C 0 km/h
1734 27-11-2009 10:57:01 9.2 C 5.54 g/m*3 9.2 C 0 km/h
1735 27-11-2009 11:09:02 9.4 C 5.61 g/m*3 9.4 C 0 km/h
1736 27-11-2009 11:21:02 9.3 C 5.57 g/m*3 9.3 C 0 km/h
1737 27-11-2009 11:33:01 9.4 C 5.52 g/m*3 9.4 C 0 km/h
1738 27-11-2009 11:45:02 9.5 C 5.46 g/m*3 9.5 C 0 km/h
1739 27-11-2009 11:57:02 9.6 C 5.4 g/m*3 9.6 C 0 km/h
1740 27-11-2009 12:09:01 9.3 C 5.3 g/m*3 9.3 C 0 km/h
1741 27-11-2009 12:21:02 9.1 C 5.32 g/m*3 9.1 C 0 km/h
1742 27-11-2009 12:33:01 9 C 5.47 g/m*3 9 C 0 km/h
1743 27-11-2009 12:45:03 9.2 C 5.54 g/m*3 9.2 C 0 km/h
1744 27-11-2009 12:57:03 9.5 C 5.55 g/m*3 9.5 C 0 km/h
1745 27-11-2009 13:09:02 9.8 C 5.57 g/m*3 9.8 C 0 km/h
1746 27-11-2009 13:21:02 10 C 5.26 g/m*3 10 C 0 km/h
1747 27-11-2009 13:33:02 10 C 5.17 g/m*3 10 C 0 km/h
1748 27-11-2009 13:45:02 9.8 C 5.2 g/m*3 9.8 C 0 km/h
1749 27-11-2009 13:57:02 9.6 C 5.13 g/m*3 9.6 C 0 km/h
1750 27-11-2009 14:09:02 9.7 C 5.07 g/m*3 9.7 C 0 km/h
Sensor: Nr:Datum:Temp:Abs-Feuchte:Windchill:Wind:
Aussen-T/F 1751 27-11-2009 14:21:02 9.8 C 5.01 g/m*3 9.8 C 0 km/h
1752 27-11-2009 14:33:01 9.8 C 5.01 g/m*3 9.8 C 0 km/h
1753 27-11-2009 14:45:02 9.8 C 4.92 g/m*3 9.8 C 0 km/h
1754 27-11-2009 14:57:02 9.7 C 4.98 g/m*3 9.7 C 0 km/h
1755 27-11-2009 15:09:01 9.8 C 5.01 g/m*3 9.8 C 0 km/h
1756 27-11-2009 15:21:02 9.6 C 4.95 g/m*3 9.6 C 0 km/h
1757 27-11-2009 15:33:02 9.3 C 5.12 g/m*3 9.3 C 0 km/h
1758 27-11-2009 15:45:02 9.1 C 5.23 g/m*3 9.1 C 0 km/h
1759 27-11-2009 15:57:02 9 C 5.38 g/m*3 9 C 0 km/h
1760 27-11-2009 16:09:02 8.8 C 5.48 g/m*3 8.8 C 0 km/h
1761 27-11-2009 16:21:01 8.7 C 5.45 g/m*3 8.7 C 0 km/h
1762 27-11-2009 16:33:02 8.5 C 5.29 g/m*3 8.5 C 0 km/h
1763 27-11-2009 16:45:01 8.6 C 5.16 g/m*3 8.6 C 0 km/h
1764 27-11-2009 16:57:01 8.4 C 5.09 g/m*3 8.4 C 0 km/h
1765 27-11-2009 17:09:02 8.5 C 4.95 g/m*3 8.5 C 0 km/h
1766 27-11-2009 17:21:01 8.4 C 4.92 g/m*3 8.4 C 0 km/h
1767 27-11-2009 17:33:02 8.3 C 4.89 g/m*3 8.3 C 0 km/h
1768 27-11-2009 17:45:01 8.4 C 4.92 g/m*3 8.4 C 0 km/h
1769 27-11-2009 17:57:01 8.4 C 4.92 g/m*3 8.4 C 0 km/h
1770 27-11-2009 18:09:02 8.4 C 5.01 g/m*3 8.4 C 0 km/h
1771 27-11-2009 18:21:02 8.5 C 4.95 g/m*3 8.5 C 0 km/h
1772 27-11-2009 18:33:02 8.5 C 4.87 g/m*3 8.5 C 0 km/h
1773 27-11-2009 18:45:01 8.4 C 4.84 g/m*3 8.4 C 0 km/h
1774 27-11-2009 18:57:01 8.4 C 4.92 g/m*3 8.4 C 0 km/h
1775 27-11-2009 19:09:02 8.9 C 4.82 g/m*3 8.9 C 0 km/h
Sensor: Nr:Datum:Temp:Abs-Feuchte:Windchill:Wind:
Aussen-T/F 1776 27-11-2009 19:21:02 8.7 C 5.02 g/m*3 8.7 C 0 km/h
1777 27-11-2009 19:33:01 8.3 C 5.14 g/m*3 8.3 C 0 km/h
1778 27-11-2009 19:45:02 8.2 C 5.11 g/m*3 8.2 C 0 km/h
1779 27-11-2009 19:57:02 8.2 C 5.11 g/m*3 8.2 C 0 km/h
1780 27-11-2009 20:09:01 8.3 C 5.14 g/m*3 8.3 C 0 km/h
1781 27-11-2009 20:21:02 8.2 C 5.11 g/m*3 8.2 C 0 km/h
1782 27-11-2009 20:33:01 8.2 C 5.11 g/m*3 8.2 C 0 km/h
1783 27-11-2009 20:45:02 8.2 C 5.11 g/m*3 8.2 C 0 km/h
1784 27-11-2009 20:57:02 8.1 C 5.08 g/m*3 8.1 C 0 km/h
1785 27-11-2009 21:09:01 8.1 C 5.16 g/m*3 8.1 C 0 km/h
1786 27-11-2009 21:21:01 8.3 C 5.23 g/m*3 8.3 C 0 km/h
1787 27-11-2009 21:33:02 8.3 C 5.14 g/m*3 8.3 C 0 km/h
1788 27-11-2009 21:45:02 8.1 C 5.08 g/m*3 8.1 C 0 km/h
1789 27-11-2009 21:57:03 8 C 5.04 g/m*3 8 C 0 km/h
1790 27-11-2009 22:09:02 8 C 5.04 g/m*3 8 C 0 km/h
1791 27-11-2009 22:21:02 8.1 C 5.08 g/m*3 8.1 C 0 km/h
1792 27-11-2009 22:34:04 8 C 5.13 g/m*3 8 C 0 km/h
1793 27-11-2009 22:46:04 8.1 C 5.24 g/m*3 8.1 C 0 km/h
1794 27-11-2009 22:58:04 8 C 5.29 g/m*3 8 C 0 km/h
1795 27-11-2009 23:10:04 7.9 C 5.59 g/m*3 7.9 C 0 km/h
1796 27-11-2009 23:22:04 7.8 C 5.55 g/m*3 7.8 C 0 km/h
1797 27-11-2009 23:34:04 7.9 C 5.5 g/m*3 7.9 C 0 km/h
1798 27-11-2009 23:46:04 8 C 5.37 g/m*3 8 C 0 km/h
1799 27-11-2009 23:58:04 8 C 5.29 g/m*3 8 C 0 km/h
1800 28-11-2009 00:10:04 7.9 C 5.26 g/m*3 7.9 C 0 km/h
Sensor: Nr:Datum:Temp:Abs-Feuchte:Windchill:Wind:
Aussen-T/F 1801 28-11-2009 00:22:04 8 C 5.21 g/m*3 8 C 0 km/h
1802 28-11-2009 00:34:04 8.1 C 5.16 g/m*3 8.1 C 0 km/h
1803 28-11-2009 00:46:04 8 C 5.37 g/m*3 8 C 0 km/h
1804 28-11-2009 00:58:05 7.3 C 5.69 g/m*3 7.3 C 0 km/h
1805 28-11-2009 01:10:05 7 C 5.81 g/m*3 7 C 0 km/h
1806 28-11-2009 01:22:05 7.4 C 5.88 g/m*3 7.4 C 0 km/h
1807 28-11-2009 01:34:05 7.3 C 5.93 g/m*3 7.3 C 0 km/h
1808 28-11-2009 01:46:05 7.4 C 5.88 g/m*3 7.4 C 0 km/h
1809 28-11-2009 01:58:05 7.6 C 5.72 g/m*3 7.6 C 0 km/h
1810 28-11-2009 02:10:05 7.6 C 5.56 g/m*3 7.6 C 0 km/h
1811 28-11-2009 02:22:05 7.5 C 5.6 g/m*3 7.5 C 0 km/h
1812 28-11-2009 02:34:05 7.5 C 5.6 g/m*3 7.5 C 0 km/h
1813 28-11-2009 02:46:05 7.5 C 5.6 g/m*3 7.5 C 0 km/h
1814 28-11-2009 02:58:05 7.8 C 5.55 g/m*3 7.8 C 0 km/h
1815 28-11-2009 03:10:05 8 C 5.46 g/m*3 8 C 0 km/h
1816 28-11-2009 03:22:05 8 C 5.37 g/m*3 8 C 0 km/h
1817 28-11-2009 03:34:05 7.9 C 5.34 g/m*3 7.9 C 0 km/h
1818 28-11-2009 03:46:05 7.9 C 5.42 g/m*3 7.9 C 0 km/h
1819 28-11-2009 03:58:05 8 C 5.29 g/m*3 8 C 0 km/h
1820 28-11-2009 04:10:05 7.6 C 5.32 g/m*3 7.6 C 0 km/h
1821 28-11-2009 04:22:05 7.6 C 5.24 g/m*3 7.6 C 0 km/h
1822 28-11-2009 04:34:05 7.5 C 5.28 g/m*3 7.5 C 0 km/h
1823 28-11-2009 04:46:05 7.7 C 5.27 g/m*3 7.7 C 0 km/h
1824 28-11-2009 04:58:06 7.9 C 5.26 g/m*3 7.9 C 0 km/h
1825 28-11-2009 05:10:06 7.9 C 5.17 g/m*3 7.9 C 0 km/h
Sensor: Nr:Datum:Temp:Abs-Feuchte:Windchill:Wind:
Aussen-T/F 1826 28-11-2009 05:22:06 7.9 C 5.34 g/m*3 7.9 C 0 km/h
1827 28-11-2009 05:34:06 7.1 C 5.77 g/m*3 7.1 C 0 km/h
1828 28-11-2009 05:46:06 7 C 5.89 g/m*3 7 C 0 km/h
1829 28-11-2009 05:58:06 6.9 C 5.93 g/m*3 6.9 C 0 km/h
1830 28-11-2009 06:10:06 7.3 C 5.77 g/m*3 7.3 C 0 km/h
1831 28-11-2009 06:22:06 7.4 C 5.73 g/m*3 7.4 C 0 km/h
1832 28-11-2009 06:34:06 7.6 C 5.72 g/m*3 7.6 C 0 km/h
1833 28-11-2009 06:46:06 7.5 C 5.68 g/m*3 7.5 C 0 km/h
1834 28-11-2009 06:58:06 7.5 C 5.68 g/m*3 7.5 C 0 km/h
1835 28-11-2009 07:10:06 7.4 C 5.65 g/m*3 7.4 C 0 km/h
1836 28-11-2009 07:22:06 7.5 C 5.6 g/m*3 7.5 C 0 km/h
1837 28-11-2009 07:34:06 7.4 C 5.65 g/m*3 7.4 C 0 km/h
1838 28-11-2009 07:46:06 7.3 C 5.61 g/m*3 7.3 C 0 km/h
1839 28-11-2009 07:58:06 7.2 C 5.65 g/m*3 7.2 C 0 km/h
1840 28-11-2009 08:10:03 7 C 5.58 g/m*3 7 C 0 km/h
1841 28-11-2009 08:22:03 7.2 C 5.73 g/m*3 7.2 C 0 km/h
1842 28-11-2009 08:34:03 7.3 C 5.77 g/m*3 7.3 C 0 km/h
1843 28-11-2009 08:46:01 7.7 C 5.76 g/m*3 7.7 C 0 km/h
1844 28-11-2009 08:58:01 7.7 C 5.68 g/m*3 7.7 C 0 km/h
1845 28-11-2009 09:10:02 7.6 C 5.72 g/m*3 7.6 C 0 km/h
1846 28-11-2009 09:22:01 8 C 5.7 g/m*3 8 C 0 km/h
1847 28-11-2009 09:34:02 8.2 C 5.78 g/m*3 8.2 C 0 km/h
1848 28-11-2009 09:46:02 8.4 C 5.77 g/m*3 8.4 C 0 km/h
1849 28-11-2009 09:58:02 8.5 C 5.81 g/m*3 8.5 C 0 km/h
1850 28-11-2009 10:10:02 8.5 C 5.89 g/m*3 8.5 C 0 km/h
Sensor: Nr:Datum:Temp:Abs-Feuchte:Windchill:Wind:
Aussen-T/F 1851 28-11-2009 10:22:02 8.6 C 5.84 g/m*3 8.6 C 0 km/h
1852 28-11-2009 10:34:02 8.7 C 5.88 g/m*3 8.7 C 0 km/h
1853 28-11-2009 10:46:01 8.7 C 5.88 g/m*3 8.7 C 0 km/h
1854 28-11-2009 10:58:01 9.2 C 5.8 g/m*3 9.2 C 0 km/h
1855 28-11-2009 11:10:02 9.5 C 5.64 g/m*3 9.5 C 0 km/h
1856 28-11-2009 11:22:02 9.7 C 5.62 g/m*3 9.7 C 0 km/h
1857 28-11-2009 11:34:01 9.7 C 5.72 g/m*3 9.7 C 0 km/h
1858 28-11-2009 11:46:02 9.5 C 5.83 g/m*3 9.5 C 0 km/h
1859 28-11-2009 11:58:02 9.2 C 5.98 g/m*3 9.2 C 0 km/h
1860 28-11-2009 12:10:01 8.8 C 6.18 g/m*3 8.8 C 0 km/h
1861 28-11-2009 12:22:02 8.4 C 6.36 g/m*3 8.4 C 0 km/h
1862 28-11-2009 12:34:01 8.3 C 6.41 g/m*3 8.3 C 0 km/h
1863 28-11-2009 12:46:02 8.3 C 6.41 g/m*3 8.3 C 0 km/h
1864 28-11-2009 12:58:02 8.4 C 6.45 g/m*3 8.4 C 0 km/h
1865 28-11-2009 13:10:01 8.5 C 6.49 g/m*3 8.5 C 0 km/h
1866 28-11-2009 13:22:01 8.6 C 6.44 g/m*3 8.6 C 0 km/h
1867 28-11-2009 13:34:01 8.8 C 6.44 g/m*3 8.8 C 0 km/h
1868 28-11-2009 13:46:02 9 C 6.35 g/m*3 9 C 0 km/h
1869 28-11-2009 13:58:02 9.1 C 6.12 g/m*3 9.1 C 0 km/h
1870 28-11-2009 14:10:02 9.2 C 6.16 g/m*3 9.2 C 0 km/h
1871 28-11-2009 14:22:02 9.2 C 6.16 g/m*3 9.2 C 0 km/h
1872 28-11-2009 14:34:02 9.3 C 6.2 g/m*3 9.3 C 0 km/h
1873 28-11-2009 14:46:02 9.4 C 6.24 g/m*3 9.4 C 0 km/h
1874 28-11-2009 14:58:03 9.3 C 6.2 g/m*3 9.3 C 0 km/h
1875 28-11-2009 15:10:01 9.3 C 6.29 g/m*3 9.3 C 0 km/h
Sensor: Nr:Datum:Temp:Abs-Feuchte:Windchill:Wind:
Aussen-T/F 1876 28-11-2009 15:22:01 9.2 C 6.34 g/m*3 9.2 C 0 km/h
1877 28-11-2009 15:34:02 9.2 C 6.43 g/m*3 9.2 C 0 km/h
1878 28-11-2009 15:46:02 9.4 C 6.33 g/m*3 9.4 C 0 km/h
1879 28-11-2009 15:58:02 9.3 C 6.38 g/m*3 9.3 C 0 km/h
1880 28-11-2009 16:10:03 9.4 C 6.51 g/m*3 9.4 C 0 km/h
1881 28-11-2009 16:22:02 9.3 C 6.56 g/m*3 9.3 C 0 km/h
1882 28-11-2009 16:34:02 9.4 C 6.6 g/m*3 9.4 C 0 km/h
1883 28-11-2009 16:46:01 9.5 C 6.55 g/m*3 9.5 C 0 km/h
1884 28-11-2009 16:58:01 9.6 C 6.5 g/m*3 9.6 C 0 km/h
1885 28-11-2009 17:10:02 9.8 C 6.49 g/m*3 9.8 C 0 km/h
1886 28-11-2009 17:22:01 9.7 C 6.45 g/m*3 9.7 C 0 km/h
1887 28-11-2009 17:34:02 9.6 C 6.5 g/m*3 9.6 C 0 km/h
1888 28-11-2009 17:46:02 9.5 C 6.55 g/m*3 9.5 C 0 km/h
1889 28-11-2009 17:58:02 9.6 C 6.6 g/m*3 9.6 C 0 km/h
1890 28-11-2009 18:10:02 9.7 C 6.55 g/m*3 9.7 C 0 km/h
1891 28-11-2009 18:22:01 9.7 C 6.55 g/m*3 9.7 C 0 km/h
1892 28-11-2009 18:34:02 9.9 C 6.54 g/m*3 9.9 C 0 km/h
1893 28-11-2009 18:46:02 10 C 6.48 g/m*3 10 C 0 km/h
1894 28-11-2009 18:58:02 9.9 C 6.63 g/m*3 9.9 C 0 km/h
1895 28-11-2009 19:10:02 9.5 C 6.74 g/m*3 9.5 C 0 km/h
1896 28-11-2009 19:22:01 9.6 C 6.78 g/m*3 9.6 C 0 km/h
1897 28-11-2009 19:34:02 9.9 C 6.72 g/m*3 9.9 C 0 km/h
1898 28-11-2009 19:46:02 10.2 C 6.57 g/m*3 10.2 C 0 km/h
1899 28-11-2009 19:58:02 10.3 C 6.51 g/m*3 10.3 C 0 km/h
1900 28-11-2009 20:10:02 10.4 C 6.46 g/m*3 10.4 C 0 km/h
Sensor: Nr:Datum:Temp:Abs-Feuchte:Windchill:Wind:
Aussen-T/F 1901 28-11-2009 20:22:01 10.4 C 6.46 g/m*3 10.4 C 0 km/h
1902 28-11-2009 20:34:02 10.1 C 6.43 g/m*3 10.1 C 0 km/h
1903 28-11-2009 20:46:01 10.2 C 6.47 g/m*3 10.2 C 0 km/h
1904 28-11-2009 20:58:01 10.4 C 6.46 g/m*3 10.4 C 0 km/h
1905 28-11-2009 21:10:02 10.5 C 6.4 g/m*3 10.5 C 0 km/h
1906 28-11-2009 21:22:02 10.6 C 6.25 g/m*3 10.6 C 0 km/h
1907 28-11-2009 21:34:02 10.8 C 6.13 g/m*3 10.8 C 0 km/h
1908 28-11-2009 21:46:02 10.9 C 6.07 g/m*3 10.9 C 0 km/h
1909 28-11-2009 21:58:02 10.9 C 5.97 g/m*3 10.9 C 0 km/h
1910 28-11-2009 22:10:03 10.9 C 5.77 g/m*3 10.9 C 0 km/h
1911 28-11-2009 22:22:02 10.9 C 5.77 g/m*3 10.9 C 0 km/h
1912 28-11-2009 22:34:02 10.5 C 5.72 g/m*3 10.5 C 0 km/h
1913 28-11-2009 22:46:01 10.3 C 5.65 g/m*3 10.3 C 0 km/h
1914 28-11-2009 22:58:01 10.4 C 5.59 g/m*3 10.4 C 0 km/h
1915 28-11-2009 23:11:02 10.3 C 5.65 g/m*3 10.3 C 0 km/h
1916 28-11-2009 23:23:02 10.4 C 5.59 g/m*3 10.4 C 0 km/h
1917 28-11-2009 23:35:02 10.4 C 5.59 g/m*3 10.4 C 0 km/h
1918 28-11-2009 23:47:02 10.4 C 5.49 g/m*3 10.4 C 0 km/h
1919 28-11-2009 23:59:02 10.2 C 5.42 g/m*3 10.2 C 0 km/h
1920 29-11-2009 00:11:02 9.8 C 5.47 g/m*3 9.8 C 0 km/h
1921 29-11-2009 00:23:02 9.7 C 5.35 g/m*3 9.7 C 0 km/h
1922 29-11-2009 00:35:02 9.6 C 5.4 g/m*3 9.6 C 0 km/h
1923 29-11-2009 00:47:02 9.5 C 5.37 g/m*3 9.5 C 0 km/h
1924 29-11-2009 00:59:02 9.6 C 5.31 g/m*3 9.6 C 0 km/h
1925 29-11-2009 01:11:02 10 C 5.26 g/m*3 10 C 0 km/h
Sensor: Nr:Datum:Temp:Abs-Feuchte:Windchill:Wind:
Aussen-T/F 1926 29-11-2009 01:23:02 10.1 C 5.11 g/m*3 10.1 C 0 km/h
1927 29-11-2009 01:35:03 10 C 5.17 g/m*3 10 C 0 km/h
1928 29-11-2009 01:47:03 10.1 C 5.01 g/m*3 10.1 C 0 km/h
1929 29-11-2009 01:59:03 10.4 C 4.92 g/m*3 10.4 C 0 km/h
1930 29-11-2009 02:11:03 10.6 C 4.88 g/m*3 10.6 C 0 km/h
1931 29-11-2009 02:23:03 10.7 C 4.81 g/m*3 10.7 C 0 km/h
1932 29-11-2009 02:35:03 10.6 C 4.88 g/m*3 10.6 C 0 km/h
1933 29-11-2009 02:47:03 10.7 C 4.71 g/m*3 10.7 C 0 km/h
1934 29-11-2009 02:59:03 10.6 C 4.78 g/m*3 10.6 C 0 km/h
1935 29-11-2009 03:11:03 10.4 C 4.82 g/m*3 10.4 C 0 km/h
1936 29-11-2009 03:23:03 10.1 C 4.82 g/m*3 10.1 C 0 km/h
1937 29-11-2009 03:35:03 10.1 C 4.73 g/m*3 10.1 C 0 km/h
1938 29-11-2009 03:47:03 9.9 C 4.86 g/m*3 9.9 C 0 km/h
1939 29-11-2009 03:59:03 9.5 C 4.82 g/m*3 9.5 C 0 km/h
1940 29-11-2009 04:11:03 9 C 4.94 g/m*3 9 C 0 km/h
1941 29-11-2009 04:23:03 8.8 C 5.05 g/m*3 8.8 C 0 km/h
1942 29-11-2009 04:35:03 8.7 C 5.02 g/m*3 8.7 C 0 km/h
1943 29-11-2009 04:47:03 8.4 C 5.09 g/m*3 8.4 C 0 km/h
1944 29-11-2009 04:59:03 8.1 C 5.08 g/m*3 8.1 C 0 km/h
1945 29-11-2009 05:11:03 8.2 C 5.02 g/m*3 8.2 C 0 km/h
1946 29-11-2009 05:23:04 8.5 C 5.12 g/m*3 8.5 C 0 km/h
1947 29-11-2009 05:35:04 8.6 C 4.98 g/m*3 8.6 C 0 km/h
1948 29-11-2009 05:47:04 8.3 C 4.89 g/m*3 8.3 C 0 km/h
1949 29-11-2009 05:59:04 8.1 C 4.99 g/m*3 8.1 C 0 km/h
1950 29-11-2009 06:11:04 8 C 4.96 g/m*3 8 C 0 km/h
Sensor: Nr:Datum:Temp:Abs-Feuchte:Windchill:Wind:
Aussen-T/F 1951 29-11-2009 06:23:04 8.1 C 4.91 g/m*3 8.1 C 0 km/h
1952 29-11-2009 06:35:04 8.2 C 4.86 g/m*3 8.2 C 0 km/h
1953 29-11-2009 06:47:04 8.3 C 4.89 g/m*3 8.3 C 0 km/h
1954 29-11-2009 06:59:04 8.1 C 4.91 g/m*3 8.1 C 0 km/h
1955 29-11-2009 07:11:04 8.3 C 4.8 g/m*3 8.3 C 0 km/h
1956 29-11-2009 07:23:04 8.2 C 4.77 g/m*3 8.2 C 0 km/h
1957 29-11-2009 07:35:03 7.9 C 4.93 g/m*3 7.9 C 0 km/h
1958 29-11-2009 07:47:02 8.1 C 4.99 g/m*3 8.1 C 0 km/h
1959 29-11-2009 07:59:02 8.1 C 4.99 g/m*3 8.1 C 0 km/h
1960 29-11-2009 08:11:03 8.3 C 5.06 g/m*3 8.3 C 0 km/h
1961 29-11-2009 08:23:02 8.6 C 5.16 g/m*3 8.6 C 0 km/h
1962 29-11-2009 08:35:02 8.6 C 5.24 g/m*3 8.6 C 0 km/h
1963 29-11-2009 08:47:01 8.7 C 5.28 g/m*3 8.7 C 0 km/h
1964 29-11-2009 08:59:01 8.9 C 5.34 g/m*3 8.9 C 0 km/h
1965 29-11-2009 09:11:02 9.1 C 5.32 g/m*3 9.1 C 0 km/h
1966 29-11-2009 09:23:01 9.4 C 5.25 g/m*3 9.4 C 0 km/h
1967 29-11-2009 09:35:02 9.4 C 5.25 g/m*3 9.4 C 0 km/h
1968 29-11-2009 09:47:02 9.5 C 5.37 g/m*3 9.5 C 0 km/h
1969 29-11-2009 09:59:02 9.8 C 5.38 g/m*3 9.8 C 0 km/h
1970 29-11-2009 10:11:02 10 C 5.45 g/m*3 10 C 0 km/h
1971 29-11-2009 10:23:02 10.2 C 5.33 g/m*3 10.2 C 0 km/h
1972 29-11-2009 10:35:01 10.5 C 5.33 g/m*3 10.5 C 0 km/h
1973 29-11-2009 10:47:02 10.5 C 5.33 g/m*3 10.5 C 0 km/h
1974 29-11-2009 10:59:02 11 C 5.41 g/m*3 11 C 0 km/h
1975 29-11-2009 11:11:01 11.2 C 5.27 g/m*3 11.2 C 0 km/h
Sensor: Nr:Datum:Temp:Abs-Feuchte:Windchill:Wind:
Aussen-T/F 1976 29-11-2009 11:23:02 11.3 C 5.2 g/m*3 11.3 C 0 km/h
1977 29-11-2009 11:35:02 11.3 C 5.1 g/m*3 11.3 C 0 km/h
1978 29-11-2009 11:47:02 11.5 C 5.16 g/m*3 11.5 C 0 km/h
1979 29-11-2009 11:59:03 11.7 C 5.33 g/m*3 11.7 C 0 km/h
1980 29-11-2009 12:11:02 11.9 C 5.3 g/m*3 11.9 C 0 km/h
1981 29-11-2009 12:23:02 12.1 C 5.15 g/m*3 12.1 C 0 km/h
1982 29-11-2009 12:35:02 12.5 C 5.17 g/m*3 12.5 C 0 km/h
1983 29-11-2009 12:47:02 12.8 C 5.26 g/m*3 12.8 C 0 km/h
1984 29-11-2009 12:59:02 13.2 C 5.28 g/m*3 13.2 C 0 km/h
1985 29-11-2009 13:11:01 13.4 C 5.23 g/m*3 13.4 C 0 km/h
1986 29-11-2009 13:23:01 13.7 C 5.33 g/m*3 13.7 C 0 km/h
1987 29-11-2009 13:35:02 13.8 C 5.24 g/m*3 13.8 C 0 km/h
1988 29-11-2009 13:47:02 13 C 5.67 g/m*3 13 C 0 km/h
1989 29-11-2009 13:59:02 12.7 C 6.12 g/m*3 12.7 C 0 km/h
1990 29-11-2009 14:11:02 11.7 C 6.48 g/m*3 11.7 C 0 km/h
1991 29-11-2009 14:23:02 11 C 6.91 g/m*3 11 C 0 km/h
1992 29-11-2009 14:35:02 10.8 C 7.12 g/m*3 10.8 C 0 km/h
1993 29-11-2009 14:47:02 10.7 C 7.17 g/m*3 10.7 C 0 km/h
1994 29-11-2009 14:59:02 10.5 C 7.18 g/m*3 10.5 C 0 km/h
1995 29-11-2009 15:11:03 10.4 C 7.13 g/m*3 10.4 C 0 km/h
1996 29-11-2009 15:23:02 10.3 C 7.28 g/m*3 10.3 C 0 km/h
1997 29-11-2009 15:35:02 10.2 C 7.23 g/m*3 10.2 C 0 km/h
1998 29-11-2009 15:47:01 9.9 C 7.28 g/m*3 9.9 C 0 km/h
1999 29-11-2009 15:59:01 9.9 C 7.28 g/m*3 9.9 C 0 km/h
2000 29-11-2009 16:11:02 9.9 C 7.19 g/m*3 9.9 C 0 km/h
Sensor: Nr:Datum:Temp:Abs-Feuchte:Windchill:Wind:
Aussen-T/F 2001 29-11-2009 16:23:01 9.8 C 7.14 g/m*3 9.8 C 0 km/h
2002 29-11-2009 16:35:02 9.7 C 7.19 g/m*3 9.7 C 0 km/h
2003 29-11-2009 16:47:01 9.5 C 7.19 g/m*3 9.5 C 0 km/h
2004 29-11-2009 16:59:01 9.5 C 7.28 g/m*3 9.5 C 0 km/h
2005 29-11-2009 17:11:02 9.4 C 7.33 g/m*3 9.4 C 0 km/h
2006 29-11-2009 17:23:01 9.3 C 7.37 g/m*3 9.3 C 0 km/h
2007 29-11-2009 17:35:02 9.2 C 7.32 g/m*3 9.2 C 0 km/h
2008 29-11-2009 17:47:01 9 C 7.23 g/m*3 9 C 0 km/h
2009 29-11-2009 17:59:01 8.9 C 7.36 g/m*3 8.9 C 0 km/h
2010 29-11-2009 18:11:02 8.7 C 7.26 g/m*3 8.7 C 0 km/h
2011 29-11-2009 18:23:01 8.5 C 7.26 g/m*3 8.5 C 0 km/h
2012 29-11-2009 18:35:02 8.4 C 7.3 g/m*3 8.4 C 0 km/h
2013 29-11-2009 18:47:01 8.3 C 7.25 g/m*3 8.3 C 0 km/h
2014 29-11-2009 18:59:01 8.2 C 7.29 g/m*3 8.2 C 0 km/h
2015 29-11-2009 19:11:02 8.2 C 7.37 g/m*3 8.2 C 0 km/h
2016 29-11-2009 19:23:02 8.2 C 7.37 g/m*3 8.2 C 0 km/h
2017 29-11-2009 19:35:01 8.2 C 7.45 g/m*3 8.2 C 0 km/h
2018 29-11-2009 19:47:02 8.1 C 7.41 g/m*3 8.1 C 0 km/h
2019 29-11-2009 19:59:02 8.1 C 7.49 g/m*3 8.1 C 0 km/h
2020 29-11-2009 20:11:01 8.1 C 7.49 g/m*3 8.1 C 0 km/h
2021 29-11-2009 20:23:02 8.1 C 7.57 g/m*3 8.1 C 0 km/h
2022 29-11-2009 20:35:01 8.1 C 7.57 g/m*3 8.1 C 0 km/h
2023 29-11-2009 20:47:02 7.9 C 7.56 g/m*3 7.9 C 0 km/h
2024 29-11-2009 20:59:02 7.8 C 7.51 g/m*3 7.8 C 0 km/h
2025 29-11-2009 21:11:02 7.6 C 7.41 g/m*3 7.6 C 0 km/h
Sensor: Nr:Datum:Temp:Abs-Feuchte:Windchill:Wind:
Aussen-T/F 2026 29-11-2009 21:23:01 7.6 C 7.41 g/m*3 7.6 C 0 km/h
2027 29-11-2009 21:35:02 7.5 C 7.36 g/m*3 7.5 C 0 km/h
2028 29-11-2009 21:47:01 7.4 C 7.4 g/m*3 7.4 C 0 km/h
2029 29-11-2009 21:59:01 7.4 C 7.4 g/m*3 7.4 C 0 km/h
2030 29-11-2009 22:11:02 7.3 C 7.35 g/m*3 7.3 C 0 km/h
2031 29-11-2009 22:23:01 7.2 C 7.3 g/m*3 7.2 C 0 km/h
2032 29-11-2009 22:36:02 7.1 C 7.25 g/m*3 7.1 C 0 km/h
2033 29-11-2009 22:48:02 7.1 C 7.33 g/m*3 7.1 C 0 km/h
2034 29-11-2009 23:00:02 7.1 C 7.33 g/m*3 7.1 C 0 km/h
2035 29-11-2009 23:12:02 7.1 C 7.33 g/m*3 7.1 C 0 km/h
2036 29-11-2009 23:24:02 7 C 7.28 g/m*3 7 C 0 km/h
2037 29-11-2009 23:36:03 7 C 7.28 g/m*3 7 C 0 km/h
2038 29-11-2009 23:48:03 7 C 7.28 g/m*3 7 C 0 km/h
2039 30-11-2009 00:00:03 6.9 C 7.31 g/m*3 6.9 C 0 km/h
2040 30-11-2009 00:12:03 6.9 C 7.31 g/m*3 6.9 C 0 km/h
2041 30-11-2009 00:24:03 6.7 C 7.22 g/m*3 6.7 C 0 km/h
2042 30-11-2009 00:36:03 6.5 C 7.12 g/m*3 6.5 C 0 km/h
2043 30-11-2009 00:48:03 6.4 C 7.08 g/m*3 6.4 C 0 km/h
2044 30-11-2009 01:00:03 6.4 C 7.08 g/m*3 6.4 C 0 km/h
2045 30-11-2009 01:12:03 6.4 C 7.08 g/m*3 6.4 C 0 km/h
2046 30-11-2009 01:24:03 6.4 C 7.08 g/m*3 6.4 C 0 km/h
2047 30-11-2009 01:36:03 6.4 C 7.08 g/m*3 6.4 C 0 km/h
2048 30-11-2009 01:48:03 6.3 C 7.03 g/m*3 6.3 C 0 km/h
2049 30-11-2009 02:00:03 6.2 C 6.99 g/m*3 6.2 C 0 km/h
2050 30-11-2009 02:12:03 6.2 C 6.99 g/m*3 6.2 C 0 km/h
Sensor: Nr:Datum:Temp:Abs-Feuchte:Windchill:Wind:
Aussen-T/F 2051 30-11-2009 02:24:03 6.3 C 7.03 g/m*3 6.3 C 0 km/h
2052 30-11-2009 02:36:03 6.3 C 7.03 g/m*3 6.3 C 0 km/h
2053 30-11-2009 02:48:03 6.2 C 6.99 g/m*3 6.2 C 0 km/h
2054 30-11-2009 03:00:03 6.2 C 6.91 g/m*3 6.2 C 0 km/h
2055 30-11-2009 03:12:03 6.1 C 6.87 g/m*3 6.1 C 0 km/h
2056 30-11-2009 03:24:04 6.2 C 6.84 g/m*3 6.2 C 0 km/h
2057 30-11-2009 03:36:04 6.2 C 6.77 g/m*3 6.2 C 0 km/h
2058 30-11-2009 03:48:04 6.2 C 6.69 g/m*3 6.2 C 0 km/h
2059 30-11-2009 04:00:04 6.2 C 6.69 g/m*3 6.2 C 0 km/h
2060 30-11-2009 04:12:04 6.2 C 6.62 g/m*3 6.2 C 0 km/h
2061 30-11-2009 04:24:04 6.2 C 6.62 g/m*3 6.2 C 0 km/h
2062 30-11-2009 04:36:04 6.2 C 6.62 g/m*3 6.2 C 0 km/h
2063 30-11-2009 04:48:04 6.3 C 6.66 g/m*3 6.3 C 0 km/h
2064 30-11-2009 05:00:04 6.3 C 6.66 g/m*3 6.3 C 0 km/h
2065 30-11-2009 05:12:04 6.4 C 6.71 g/m*3 6.4 C 0 km/h
2066 30-11-2009 05:24:04 6.3 C 6.59 g/m*3 6.3 C 0 km/h
2067 30-11-2009 05:36:04 6.3 C 6.66 g/m*3 6.3 C 0 km/h
2068 30-11-2009 05:48:04 6.4 C 6.71 g/m*3 6.4 C 0 km/h
2069 30-11-2009 06:00:04 6.4 C 6.71 g/m*3 6.4 C 0 km/h
2070 30-11-2009 06:12:04 6.4 C 6.71 g/m*3 6.4 C 0 km/h
2071 30-11-2009 06:24:04 6.2 C 6.55 g/m*3 6.2 C 0 km/h
2072 30-11-2009 06:36:04 6.2 C 6.55 g/m*3 6.2 C 0 km/h
2073 30-11-2009 06:48:04 6.1 C 6.5 g/m*3 6.1 C 0 km/h
2074 30-11-2009 07:00:04 6 C 6.39 g/m*3 6 C 0 km/h
2075 30-11-2009 07:12:02 6 C 6.39 g/m*3 6 C 0 km/h
Sensor: Nr:Datum:Temp:Abs-Feuchte:Windchill:Wind:
Aussen-T/F 2076 30-11-2009 07:24:02 6 C 6.31 g/m*3 6 C 0 km/h
2077 30-11-2009 07:36:02 5.9 C 6.42 g/m*3 5.9 C 0 km/h
2078 30-11-2009 07:48:02 5.9 C 6.42 g/m*3 5.9 C 0 km/h
2079 30-11-2009 08:00:02 5.8 C 6.45 g/m*3 5.8 C 0 km/h
2080 30-11-2009 08:12:01 5.8 C 6.45 g/m*3 5.8 C 0 km/h
2081 30-11-2009 08:24:01 5.6 C 6.29 g/m*3 5.6 C 0 km/h
2082 30-11-2009 08:36:02 5.5 C 6.32 g/m*3 5.5 C 0 km/h
2083 30-11-2009 08:48:02 5.6 C 6.36 g/m*3 5.6 C 0 km/h
2084 30-11-2009 09:00:02 5.9 C 6.56 g/m*3 5.9 C 0 km/h
2085 30-11-2009 09:12:02 6 C 6.53 g/m*3 6 C 0 km/h
2086 30-11-2009 09:24:02 6.2 C 6.55 g/m*3 6.2 C 0 km/h
2087 30-11-2009 09:36:02 6.3 C 6.59 g/m*3 6.3 C 0 km/h
2088 30-11-2009 09:48:03 6.4 C 6.63 g/m*3 6.4 C 0 km/h
2089 30-11-2009 10:00:03 6.4 C 6.56 g/m*3 6.4 C 0 km/h
2090 30-11-2009 10:12:02 6.5 C 6.37 g/m*3 6.5 C 0 km/h
2091 30-11-2009 10:24:02 6.7 C 6.38 g/m*3 6.7 C 0 km/h
2092 30-11-2009 10:36:02 7 C 6.43 g/m*3 7 C 0 km/h
2093 30-11-2009 10:48:02 7.1 C 6.47 g/m*3 7.1 C 0 km/h
2094 30-11-2009 11:00:02 7.3 C 6.4 g/m*3 7.3 C 0 km/h
2095 30-11-2009 11:12:02 7.4 C 6.28 g/m*3 7.4 C 0 km/h
2096 30-11-2009 11:24:02 7.3 C 6.08 g/m*3 7.3 C 0 km/h
2097 30-11-2009 11:36:01 7.4 C 6.12 g/m*3 7.4 C 0 km/h
2098 30-11-2009 11:48:02 7.5 C 6.16 g/m*3 7.5 C 0 km/h
2099 30-11-2009 12:00:02 7.6 C 6.12 g/m*3 7.6 C 0 km/h
2100 30-11-2009 12:12:01 7.6 C 6.04 g/m*3 7.6 C 0 km/h
Sensor: Nr:Datum:Temp:Abs-Feuchte:Windchill:Wind:
Aussen-T/F 2101 30-11-2009 12:24:02 7.8 C 6.04 g/m*3 7.8 C 0 km/h
2102 30-11-2009 12:36:01 8 C 6.04 g/m*3 8 C 0 km/h
2103 30-11-2009 12:48:02 8 C 5.87 g/m*3 8 C 0 km/h
2104 30-11-2009 13:00:02 7.9 C 5.91 g/m*3 7.9 C 0 km/h
2105 30-11-2009 13:12:02 8.2 C 5.95 g/m*3 8.2 C 0 km/h
2106 30-11-2009 13:24:02 8.1 C 5.82 g/m*3 8.1 C 0 km/h
2107 30-11-2009 13:36:03 8.1 C 5.74 g/m*3 8.1 C 0 km/h
2108 30-11-2009 13:48:02 8.2 C 5.69 g/m*3 8.2 C 0 km/h
2109 30-11-2009 14:00:02 8.3 C 5.65 g/m*3 8.3 C 0 km/h
2110 30-11-2009 14:12:01 8.4 C 5.68 g/m*3 8.4 C 0 km/h
2111 30-11-2009 14:24:02 8.3 C 5.65 g/m*3 8.3 C 0 km/h
2112 30-11-2009 14:36:02 8.3 C 5.73 g/m*3 8.3 C 0 km/h
2113 30-11-2009 14:48:02 8.3 C 5.65 g/m*3 8.3 C 0 km/h
2114 30-11-2009 15:00:02 8.1 C 5.66 g/m*3 8.1 C 0 km/h
2115 30-11-2009 15:12:03 8 C 5.7 g/m*3 8 C 0 km/h
2116 30-11-2009 15:24:02 7.9 C 5.75 g/m*3 7.9 C 0 km/h
2117 30-11-2009 15:36:02 7.8 C 5.88 g/m*3 7.8 C 0 km/h
2118 30-11-2009 15:48:01 7.6 C 5.8 g/m*3 7.6 C 0 km/h
2119 30-11-2009 16:00:01 7.3 C 5.77 g/m*3 7.3 C 0 km/h
2120 30-11-2009 16:12:02 7 C 5.81 g/m*3 7 C 0 km/h
2121 30-11-2009 16:24:01 6.6 C 5.89 g/m*3 6.6 C 0 km/h
2122 30-11-2009 16:36:02 6.3 C 5.85 g/m*3 6.3 C 0 km/h
2123 30-11-2009 16:48:02 6.1 C 5.84 g/m*3 6.1 C 0 km/h
2124 30-11-2009 17:00:02 6 C 5.88 g/m*3 6 C 0 km/h
2125 30-11-2009 17:12:02 5.9 C 5.91 g/m*3 5.9 C 0 km/h
Sensor: Nr:Datum:Temp:Abs-Feuchte:Windchill:Wind:
Aussen-T/F 2126 30-11-2009 17:24:01 6 C 5.95 g/m*3 6 C 0 km/h
2127 30-11-2009 17:36:02 6 C 5.95 g/m*3 6 C 0 km/h
2128 30-11-2009 17:48:02 6 C 5.95 g/m*3 6 C 0 km/h
2129 30-11-2009 18:00:02 6 C 6.02 g/m*3 6 C 0 km/h
2130 30-11-2009 18:12:02 6 C 6.02 g/m*3 6 C 0 km/h
2131 30-11-2009 18:24:01 5.9 C 6.06 g/m*3 5.9 C 0 km/h
2132 30-11-2009 18:36:02 6 C 6.02 g/m*3 6 C 0 km/h
2133 30-11-2009 18:48:02 6.1 C 6.06 g/m*3 6.1 C 0 km/h
2134 30-11-2009 19:00:02 6 C 6.02 g/m*3 6 C 0 km/h
2135 30-11-2009 19:12:02 6 C 6.02 g/m*3 6 C 0 km/h
2136 30-11-2009 19:24:01 5.9 C 6.06 g/m*3 5.9 C 0 km/h
2137 30-11-2009 19:36:02 5.9 C 6.13 g/m*3 5.9 C 0 km/h
2138 30-11-2009 19:48:01 5.9 C 6.13 g/m*3 5.9 C 0 km/h
2139 30-11-2009 20:00:01 5.9 C 6.13 g/m*3 5.9 C 0 km/h
2140 30-11-2009 20:12:02 5.9 C 6.13 g/m*3 5.9 C 0 km/h
2141 30-11-2009 20:24:02 5.9 C 6.13 g/m*3 5.9 C 0 km/h
2142 30-11-2009 20:36:02 5.9 C 6.13 g/m*3 5.9 C 0 km/h
2143 30-11-2009 20:48:02 5.7 C 6.05 g/m*3 5.7 C 0 km/h
2144 30-11-2009 21:00:02 5.7 C 6.05 g/m*3 5.7 C 0 km/h
2145 30-11-2009 21:12:02 5.6 C 6.01 g/m*3 5.6 C 0 km/h
2146 30-11-2009 21:24:02 5.6 C 6.08 g/m*3 5.6 C 0 km/h
2147 30-11-2009 21:36:01 5.5 C 6.04 g/m*3 5.5 C 0 km/h
2148 30-11-2009 21:48:02 5.5 C 6.04 g/m*3 5.5 C 0 km/h
2149 30-11-2009 22:00:02 5.4 C 6 g/m*3 5.4 C 0 km/h
2150 30-11-2009 22:12:02 5.4 C 6 g/m*3 5.4 C 0 km/h
Sensor: Nr:Datum:Temp:Abs-Feuchte:Windchill:Wind:
Aussen-T/F 2151 30-11-2009 22:24:02 5.3 C 6.03 g/m*3 5.3 C 0 km/h
2152 30-11-2009 22:36:01 5.3 C 6.03 g/m*3 5.3 C 0 km/h
2153 30-11-2009 22:48:01 5.2 C 5.99 g/m*3 5.2 C 0 km/h
2154 30-11-2009 23:00:01 5.2 C 5.99 g/m*3 5.2 C 0 km/h
2155 30-11-2009 23:12:01 5.4 C 6.07 g/m*3 5.4 C 0 km/h
2156 30-11-2009 23:24:02 5.5 C 6.11 g/m*3 5.5 C 0 km/h
2157 30-11-2009 23:36:01 5.4 C 6.07 g/m*3 5.4 C 0 km/h
2158 30-11-2009 23:48:02 5.5 C 6.18 g/m*3 5.5 C 0 km/h
2159 01-12-2009 00:00:02 5.5 C 6.18 g/m*3 5.5 C 0 km/h
2160 01-12-2009 00:12:01 5.6 C 6.15 g/m*3 5.6 C 0 km/h
2161 01-12-2009 00:24:01 5.6 C 6.15 g/m*3 5.6 C 0 km/h
2162 01-12-2009 00:36:02 5.6 C 6.15 g/m*3 5.6 C 0 km/h
2163 01-12-2009 00:48:02 5.6 C 6.15 g/m*3 5.6 C 0 km/h
2164 01-12-2009 01:00:02 5.5 C 6.11 g/m*3 5.5 C 0 km/h
2165 01-12-2009 01:12:02 5.5 C 6.11 g/m*3 5.5 C 0 km/h
2166 01-12-2009 01:24:02 5.5 C 6.11 g/m*3 5.5 C 0 km/h
2167 01-12-2009 01:36:02 5.5 C 6.11 g/m*3 5.5 C 0 km/h
2168 01-12-2009 01:48:02 5.4 C 6.07 g/m*3 5.4 C 0 km/h
2169 01-12-2009 02:00:02 5.4 C 6.14 g/m*3 5.4 C 0 km/h
2170 01-12-2009 02:12:02 5.4 C 6.14 g/m*3 5.4 C 0 km/h
2171 01-12-2009 02:24:02 5.4 C 6.14 g/m*3 5.4 C 0 km/h
2172 01-12-2009 02:36:02 5.4 C 6.07 g/m*3 5.4 C 0 km/h
2173 01-12-2009 02:48:01 5.4 C 6.07 g/m*3 5.4 C 0 km/h
2174 01-12-2009 03:00:01 5.3 C 6.03 g/m*3 5.3 C 0 km/h
2175 01-12-2009 03:12:01 5.3 C 5.96 g/m*3 5.3 C 0 km/h
Sensor: Nr:Datum:Temp:Abs-Feuchte:Windchill:Wind:
Aussen-T/F 2176 01-12-2009 03:24:02 5.3 C 5.89 g/m*3 5.3 C 0 km/h
2177 01-12-2009 03:36:01 5.3 C 5.89 g/m*3 5.3 C 0 km/h
2178 01-12-2009 03:48:01 5.2 C 5.78 g/m*3 5.2 C 0 km/h
2179 01-12-2009 04:00:01 5 C 5.71 g/m*3 5 C 0 km/h
2180 01-12-2009 04:12:02 4.9 C 5.81 g/m*3 4.9 C 0 km/h
2181 01-12-2009 04:24:01 4.8 C 5.77 g/m*3 4.8 C 0 km/h
2182 01-12-2009 04:36:01 4.7 C 5.73 g/m*3 4.7 C 0 km/h
2183 01-12-2009 04:48:01 4.7 C 5.73 g/m*3 4.7 C 0 km/h
2184 01-12-2009 05:00:01 4.9 C 5.87 g/m*3 4.9 C 0 km/h
2185 01-12-2009 05:12:02 4.9 C 5.94 g/m*3 4.9 C 0 km/h
2186 01-12-2009 05:24:01 5 C 5.91 g/m*3 5 C 0 km/h
2187 01-12-2009 05:36:01 5 C 5.91 g/m*3 5 C 0 km/h
2188 01-12-2009 05:48:01 5 C 5.91 g/m*3 5 C 0 km/h
2189 01-12-2009 06:00:01 5.1 C 5.95 g/m*3 5.1 C 0 km/h
2190 01-12-2009 06:12:01 5.1 C 5.95 g/m*3 5.1 C 0 km/h
2191 01-12-2009 06:24:02 5.1 C 5.95 g/m*3 5.1 C 0 km/h
2192 01-12-2009 06:36:01 5 C 5.91 g/m*3 5 C 0 km/h
2193 01-12-2009 06:48:02 5 C 5.91 g/m*3 5 C 0 km/h
2194 01-12-2009 07:00:02 5 C 5.91 g/m*3 5 C 0 km/h
2195 01-12-2009 07:12:01 5 C 5.98 g/m*3 5 C 0 km/h
2196 01-12-2009 07:24:02 5 C 5.98 g/m*3 5 C 0 km/h
2197 01-12-2009 07:36:01 5 C 5.98 g/m*3 5 C 0 km/h
2198 01-12-2009 07:48:02 4.9 C 5.94 g/m*3 4.9 C 0 km/h
2199 01-12-2009 08:00:02 4.8 C 5.9 g/m*3 4.8 C 0 km/h
2200 01-12-2009 08:12:01 4.8 C 5.9 g/m*3 4.8 C 0 km/h
Sensor: Nr:Datum:Temp:Abs-Feuchte:Windchill:Wind:
Aussen-T/F 2201 01-12-2009 08:24:01 4.8 C 5.97 g/m*3 4.8 C 0 km/h
2202 01-12-2009 08:36:01 4.9 C 6.01 g/m*3 4.9 C 0 km/h
2203 01-12-2009 08:48:02 4.9 C 6.01 g/m*3 4.9 C 0 km/h
2204 01-12-2009 09:00:02 5 C 5.98 g/m*3 5 C 0 km/h
2205 01-12-2009 09:12:01 5.1 C 6.02 g/m*3 5.1 C 0 km/h
2206 01-12-2009 09:24:01 5.2 C 6.06 g/m*3 5.2 C 0 km/h
2207 01-12-2009 09:36:02 5.3 C 6.1 g/m*3 5.3 C 0 km/h
2208 01-12-2009 09:48:01 5.4 C 6.14 g/m*3 5.4 C 0 km/h
2209 01-12-2009 10:00:01 5.5 C 6.11 g/m*3 5.5 C 0 km/h
2210 01-12-2009 10:12:02 5.6 C 6.15 g/m*3 5.6 C 0 km/h
2211 01-12-2009 10:24:01 5.7 C 6.12 g/m*3 5.7 C 0 km/h
2212 01-12-2009 10:36:02 5.7 C 6.12 g/m*3 5.7 C 0 km/h
2213 01-12-2009 10:48:01 5.8 C 6.09 g/m*3 5.8 C 0 km/h
2214 01-12-2009 11:00:01 6.1 C 6.06 g/m*3 6.1 C 0 km/h
2215 01-12-2009 11:12:02 6.3 C 6.07 g/m*3 6.3 C 0 km/h
2216 01-12-2009 11:24:01 6.3 C 6 g/m*3 6.3 C 0 km/h
2217 01-12-2009 11:36:01 6.4 C 6.04 g/m*3 6.4 C 0 km/h
2218 01-12-2009 11:48:01 6.6 C 5.96 g/m*3 6.6 C 0 km/h
2219 01-12-2009 12:00:01 6.7 C 5.85 g/m*3 6.7 C 0 km/h
2220 01-12-2009 12:12:01 6.8 C 5.89 g/m*3 6.8 C 0 km/h
2221 01-12-2009 12:24:01 6.8 C 5.81 g/m*3 6.8 C 0 km/h
2222 01-12-2009 12:36:01 6.9 C 5.85 g/m*3 6.9 C 0 km/h
2223 01-12-2009 12:48:01 6.9 C 5.77 g/m*3 6.9 C 0 km/h
2224 01-12-2009 13:00:01 6.9 C 5.77 g/m*3 6.9 C 0 km/h
2225 01-12-2009 13:12:01 6.9 C 5.77 g/m*3 6.9 C 0 km/h
Sensor: Nr:Datum:Temp:Abs-Feuchte:Windchill:Wind:
Aussen-T/F 2226 01-12-2009 13:24:02 6.9 C 5.77 g/m*3 6.9 C 0 km/h
2227 01-12-2009 13:36:01 6.9 C 5.7 g/m*3 6.9 C 0 km/h
2228 01-12-2009 13:48:02 6.9 C 5.77 g/m*3 6.9 C 0 km/h
2229 01-12-2009 14:00:02 6.8 C 5.74 g/m*3 6.8 C 0 km/h
2230 01-12-2009 14:12:01 6.8 C 5.81 g/m*3 6.8 C 0 km/h
2231 01-12-2009 14:24:02 6.8 C 5.74 g/m*3 6.8 C 0 km/h
2232 01-12-2009 14:36:01 6.8 C 5.81 g/m*3 6.8 C 0 km/h
2233 01-12-2009 14:48:02 6.8 C 5.81 g/m*3 6.8 C 0 km/h
2234 01-12-2009 15:00:02 6.7 C 5.85 g/m*3 6.7 C 0 km/h
2235 01-12-2009 15:12:01 6.6 C 5.89 g/m*3 6.6 C 0 km/h
2236 01-12-2009 15:24:01 6.6 C 5.89 g/m*3 6.6 C 0 km/h
2237 01-12-2009 15:36:01 6.5 C 5.85 g/m*3 6.5 C 0 km/h
2238 01-12-2009 15:48:02 6.5 C 5.85 g/m*3 6.5 C 0 km/h
2239 01-12-2009 16:00:02 6.4 C 5.81 g/m*3 6.4 C 0 km/h
2240 01-12-2009 16:12:01 6.3 C 5.85 g/m*3 6.3 C 0 km/h
2241 01-12-2009 16:24:01 6.2 C 5.81 g/m*3 6.2 C 0 km/h
2242 01-12-2009 16:36:02 6.1 C 5.77 g/m*3 6.1 C 0 km/h
2243 01-12-2009 16:48:01 6 C 5.81 g/m*3 6 C 0 km/h
2244 01-12-2009 17:00:01 5.9 C 5.84 g/m*3 5.9 C 0 km/h
2245 01-12-2009 17:12:02 5.9 C 5.84 g/m*3 5.9 C 0 km/h
2246 01-12-2009 17:24:01 5.9 C 5.84 g/m*3 5.9 C 0 km/h
2247 01-12-2009 17:36:02 5.8 C 5.87 g/m*3 5.8 C 0 km/h
2248 01-12-2009 17:48:01 5.8 C 5.87 g/m*3 5.8 C 0 km/h
2249 01-12-2009 18:00:01 5.8 C 5.87 g/m*3 5.8 C 0 km/h
2250 01-12-2009 18:12:02 5.7 C 5.91 g/m*3 5.7 C 0 km/h
Sensor: Nr:Datum:Temp:Abs-Feuchte:Windchill:Wind:
Aussen-T/F 2251 01-12-2009 18:24:01 5.8 C 5.95 g/m*3 5.8 C 0 km/h
2252 01-12-2009 18:36:02 5.7 C 5.91 g/m*3 5.7 C 0 km/h
2253 01-12-2009 18:48:02 5.7 C 5.91 g/m*3 5.7 C 0 km/h
2254 01-12-2009 19:00:02 5.7 C 5.91 g/m*3 5.7 C 0 km/h
2255 01-12-2009 19:12:01 5.6 C 5.87 g/m*3 5.6 C 0 km/h
2256 01-12-2009 19:24:02 5.6 C 5.87 g/m*3 5.6 C 0 km/h
2257 01-12-2009 19:36:01 5.6 C 5.87 g/m*3 5.6 C 0 km/h
2258 01-12-2009 19:48:02 5.7 C 5.91 g/m*3 5.7 C 0 km/h
2259 01-12-2009 20:00:02 5.6 C 5.87 g/m*3 5.6 C 0 km/h
2260 01-12-2009 20:12:01 5.6 C 5.87 g/m*3 5.6 C 0 km/h
2261 01-12-2009 20:24:02 5.5 C 5.83 g/m*3 5.5 C 0 km/h
2262 01-12-2009 20:36:01 5.5 C 5.83 g/m*3 5.5 C 0 km/h
2263 01-12-2009 20:48:02 5.5 C 5.83 g/m*3 5.5 C 0 km/h
2264 01-12-2009 21:00:02 5.5 C 5.9 g/m*3 5.5 C 0 km/h
2265 01-12-2009 21:12:01 5.5 C 5.9 g/m*3 5.5 C 0 km/h
2266 01-12-2009 21:24:01 5.4 C 5.86 g/m*3 5.4 C 0 km/h
2267 01-12-2009 21:36:02 5.4 C 5.86 g/m*3 5.4 C 0 km/h
2268 01-12-2009 21:48:01 5.4 C 5.93 g/m*3 5.4 C 0 km/h
2269 01-12-2009 22:00:01 5.6 C 6.01 g/m*3 5.6 C 0 km/h
2270 01-12-2009 22:12:02 5.5 C 5.97 g/m*3 5.5 C 0 km/h
2271 01-12-2009 22:25:05 5.4 C 5.93 g/m*3 5.4 C 0 km/h
2272 01-12-2009 22:37:05 5.3 C 5.89 g/m*3 5.3 C 0 km/h
2273 01-12-2009 22:49:05 5.3 C 5.89 g/m*3 5.3 C 0 km/h
2274 01-12-2009 23:01:05 5.2 C 5.78 g/m*3 5.2 C 0 km/h
2275 01-12-2009 23:13:05 5.2 C 5.78 g/m*3 5.2 C 0 km/h
Sensor: Nr:Datum:Temp:Abs-Feuchte:Windchill:Wind:
Aussen-T/F 2276 01-12-2009 23:25:05 5.2 C 5.78 g/m*3 5.2 C 0 km/h
2277 01-12-2009 23:37:05 5.2 C 5.78 g/m*3 5.2 C 0 km/h
2278 01-12-2009 23:49:05 5.2 C 5.71 g/m*3 5.2 C 0 km/h
2279 02-12-2009 00:01:06 5.2 C 5.65 g/m*3 5.2 C 0 km/h
2280 02-12-2009 00:13:06 5.2 C 5.65 g/m*3 5.2 C 0 km/h
2281 02-12-2009 00:25:06 5.2 C 5.58 g/m*3 5.2 C 0 km/h
2282 02-12-2009 00:37:06 5.2 C 5.58 g/m*3 5.2 C 0 km/h
2283 02-12-2009 00:49:06 5 C 5.44 g/m*3 5 C 0 km/h
2284 02-12-2009 01:01:06 4.8 C 5.43 g/m*3 4.8 C 0 km/h
2285 02-12-2009 01:13:06 4.7 C 5.46 g/m*3 4.7 C 0 km/h
2286 02-12-2009 01:25:06 4.6 C 5.49 g/m*3 4.6 C 0 km/h
2287 02-12-2009 01:37:06 4.5 C 5.52 g/m*3 4.5 C 0 km/h
2288 02-12-2009 01:49:06 4.3 C 5.45 g/m*3 4.3 C 0 km/h
2289 02-12-2009 02:01:06 4.4 C 5.55 g/m*3 4.4 C 0 km/h
2290 02-12-2009 02:13:06 4.6 C 5.62 g/m*3 4.6 C 0 km/h
2291 02-12-2009 02:25:06 4.7 C 5.66 g/m*3 4.7 C 0 km/h
2292 02-12-2009 02:37:06 4.7 C 5.66 g/m*3 4.7 C 0 km/h
2293 02-12-2009 02:49:06 4.8 C 5.77 g/m*3 4.8 C 0 km/h
2294 02-12-2009 03:01:06 4.9 C 5.81 g/m*3 4.9 C 0 km/h
2295 02-12-2009 03:13:06 4.7 C 5.73 g/m*3 4.7 C 0 km/h
2296 02-12-2009 03:25:06 4.7 C 5.8 g/m*3 4.7 C 0 km/h
2297 02-12-2009 03:37:06 4.8 C 5.83 g/m*3 4.8 C 0 km/h
2298 02-12-2009 03:49:06 5 C 5.84 g/m*3 5 C 0 km/h
2299 02-12-2009 04:01:07 4.9 C 5.87 g/m*3 4.9 C 0 km/h
2300 02-12-2009 04:13:07 4.9 C 5.87 g/m*3 4.9 C 0 km/h
Sensor: Nr:Datum:Temp:Abs-Feuchte:Windchill:Wind:
Aussen-T/F 2301 02-12-2009 04:25:07 4.9 C 5.87 g/m*3 4.9 C 0 km/h
2302 02-12-2009 04:37:07 4.9 C 5.94 g/m*3 4.9 C 0 km/h
2303 02-12-2009 04:49:07 5 C 5.91 g/m*3 5 C 0 km/h
2304 02-12-2009 05:01:07 5 C 5.91 g/m*3 5 C 0 km/h
2305 02-12-2009 05:13:07 5 C 5.91 g/m*3 5 C 0 km/h
2306 02-12-2009 05:25:07 4.8 C 5.83 g/m*3 4.8 C 0 km/h
2307 02-12-2009 05:37:07 4.8 C 5.83 g/m*3 4.8 C 0 km/h
2308 02-12-2009 05:49:07 4.8 C 5.83 g/m*3 4.8 C 0 km/h
2309 02-12-2009 06:01:05 4.8 C 5.83 g/m*3 4.8 C 0 km/h
2310 02-12-2009 06:13:05 5 C 5.91 g/m*3 5 C 0 km/h
2311 02-12-2009 06:25:05 4.9 C 5.87 g/m*3 4.9 C 0 km/h
2312 02-12-2009 06:37:05 5 C 5.91 g/m*3 5 C 0 km/h
2313 02-12-2009 06:49:01 5 C 5.91 g/m*3 5 C 0 km/h
2314 02-12-2009 07:01:02 4.9 C 5.94 g/m*3 4.9 C 0 km/h
2315 02-12-2009 07:13:02 5 C 5.91 g/m*3 5 C 0 km/h
2316 02-12-2009 07:25:01 5.1 C 5.95 g/m*3 5.1 C 0 km/h
2317 02-12-2009 07:37:01 5.2 C 5.99 g/m*3 5.2 C 0 km/h
2318 02-12-2009 07:49:01 5.2 C 5.99 g/m*3 5.2 C 0 km/h
2319 02-12-2009 08:01:01 4.8 C 5.83 g/m*3 4.8 C 0 km/h
2320 02-12-2009 08:13:01 4.8 C 5.83 g/m*3 4.8 C 0 km/h
2321 02-12-2009 08:25:02 4.6 C 5.82 g/m*3 4.6 C 0 km/h
2322 02-12-2009 08:37:01 4.7 C 5.86 g/m*3 4.7 C 0 km/h
2323 02-12-2009 08:49:02 4.7 C 5.8 g/m*3 4.7 C 0 km/h
2324 02-12-2009 09:01:01 4.6 C 5.76 g/m*3 4.6 C 0 km/h
2325 02-12-2009 09:13:01 4.6 C 5.76 g/m*3 4.6 C 0 km/h
Sensor: Nr:Datum:Temp:Abs-Feuchte:Windchill:Wind:
Aussen-T/F 2326 02-12-2009 09:25:02 4.5 C 5.65 g/m*3 4.5 C 0 km/h
2327 02-12-2009 09:37:01 4.5 C 5.65 g/m*3 4.5 C 0 km/h
2328 02-12-2009 09:49:02 4.5 C 5.65 g/m*3 4.5 C 0 km/h
2329 02-12-2009 10:01:02 4.7 C 5.66 g/m*3 4.7 C 0 km/h
2330 02-12-2009 10:13:02 4.9 C 5.54 g/m*3 4.9 C 0 km/h
2331 02-12-2009 10:25:02 5.2 C 5.23 g/m*3 5.2 C 0 km/h
2332 02-12-2009 10:37:02 5.2 C 5.1 g/m*3 5.2 C 0 km/h
2333 02-12-2009 10:49:02 5.2 C 5.03 g/m*3 5.2 C 0 km/h
2334 02-12-2009 11:01:01 5.3 C 4.99 g/m*3 5.3 C 0 km/h
2335 02-12-2009 11:13:01 5.5 C 5.06 g/m*3 5.5 C 0 km/h
2336 02-12-2009 11:25:02 5.8 C 4.8 g/m*3 5.8 C 0 km/h
2337 02-12-2009 11:37:02 5.7 C 4.84 g/m*3 5.7 C 0 km/h
2338 02-12-2009 11:49:02 5.9 C 4.61 g/m*3 5.9 C 0 km/h
2339 02-12-2009 12:01:02 6.2 C 4.41 g/m*3 6.2 C 0 km/h
2340 02-12-2009 12:13:02 6.8 C 4.44 g/m*3 6.8 C 0 km/h
2341 02-12-2009 12:25:02 7.2 C 4.32 g/m*3 7.2 C 0 km/h
2342 02-12-2009 12:37:03 7.5 C 4.4 g/m*3 7.5 C 0 km/h
2343 02-12-2009 12:49:02 7.6 C 4.27 g/m*3 7.6 C 0 km/h
2344 02-12-2009 13:01:02 7.6 C 4.27 g/m*3 7.6 C 0 km/h
2345 02-12-2009 13:13:02 7.7 C 4.3 g/m*3 7.7 C 0 km/h
2346 02-12-2009 13:25:02 7.7 C 4.22 g/m*3 7.7 C 0 km/h
2347 02-12-2009 13:37:02 7.9 C 4.35 g/m*3 7.9 C 0 km/h
2348 02-12-2009 13:49:02 7.8 C 4.24 g/m*3 7.8 C 0 km/h
2349 02-12-2009 14:01:02 8 C 4.38 g/m*3 8 C 0 km/h
2350 02-12-2009 14:13:02 8 C 4.3 g/m*3 8 C 0 km/h
Sensor: Nr:Datum:Temp:Abs-Feuchte:Windchill:Wind:
Aussen-T/F 2351 02-12-2009 14:25:02 7.8 C 4.24 g/m*3 7.8 C 0 km/h
2352 02-12-2009 14:37:02 7.8 C 4.33 g/m*3 7.8 C 0 km/h
2353 02-12-2009 14:49:02 7.8 C 4.33 g/m*3 7.8 C 0 km/h
2354 02-12-2009 15:01:02 7.7 C 4.3 g/m*3 7.7 C 0 km/h
2355 02-12-2009 15:13:02 7.7 C 4.38 g/m*3 7.7 C 0 km/h
2356 02-12-2009 15:25:02 7.6 C 4.27 g/m*3 7.6 C 0 km/h
2357 02-12-2009 15:37:02 7.6 C 4.19 g/m*3 7.6 C 0 km/h
2358 02-12-2009 15:49:02 7.5 C 4.24 g/m*3 7.5 C 0 km/h
2359 02-12-2009 16:01:02 7.4 C 4.21 g/m*3 7.4 C 0 km/h
2360 02-12-2009 16:13:02 7.3 C 4.19 g/m*3 7.3 C 0 km/h
2361 02-12-2009 16:25:02 7 C 4.26 g/m*3 7 C 0 km/h
2362 02-12-2009 16:37:02 6.9 C 4.39 g/m*3 6.9 C 0 km/h
2363 02-12-2009 16:49:02 6.8 C 4.44 g/m*3 6.8 C 0 km/h
2364 02-12-2009 17:01:02 6.9 C 4.46 g/m*3 6.9 C 0 km/h
2365 02-12-2009 17:13:02 6.8 C 4.51 g/m*3 6.8 C 0 km/h
2366 02-12-2009 17:25:03 6.6 C 4.53 g/m*3 6.6 C 0 km/h
2367 02-12-2009 17:37:02 6.5 C 4.5 g/m*3 6.5 C 0 km/h
2368 02-12-2009 17:49:02 6.5 C 4.57 g/m*3 6.5 C 0 km/h
2369 02-12-2009 18:01:02 6.5 C 4.65 g/m*3 6.5 C 0 km/h
2370 02-12-2009 18:13:02 6.5 C 4.65 g/m*3 6.5 C 0 km/h
2371 02-12-2009 18:25:02 6.4 C 4.62 g/m*3 6.4 C 0 km/h
2372 02-12-2009 18:37:02 6.5 C 4.65 g/m*3 6.5 C 0 km/h
2373 02-12-2009 18:49:02 6.4 C 4.69 g/m*3 6.4 C 0 km/h
2374 02-12-2009 19:01:01 6.4 C 4.77 g/m*3 6.4 C 0 km/h
2375 02-12-2009 19:13:01 6.5 C 4.8 g/m*3 6.5 C 0 km/h
Sensor: Nr:Datum:Temp:Abs-Feuchte:Windchill:Wind:
Aussen-T/F 2376 02-12-2009 19:25:02 6.7 C 4.79 g/m*3 6.7 C 0 km/h
2377 02-12-2009 19:37:01 6.6 C 4.83 g/m*3 6.6 C 0 km/h
2378 02-12-2009 19:49:02 6.6 C 4.98 g/m*3 6.6 C 0 km/h
2379 02-12-2009 20:01:01 6.4 C 4.99 g/m*3 6.4 C 0 km/h
2380 02-12-2009 20:13:01 6.5 C 5.02 g/m*3 6.5 C 0 km/h
2381 02-12-2009 20:25:01 6.6 C 5.06 g/m*3 6.6 C 0 km/h
2382 02-12-2009 20:37:02 6.6 C 5.06 g/m*3 6.6 C 0 km/h
2383 02-12-2009 20:49:02 6.7 C 5.09 g/m*3 6.7 C 0 km/h
2384 02-12-2009 21:01:02 6.8 C 5.12 g/m*3 6.8 C 0 km/h
2385 02-12-2009 21:13:02 6.9 C 5.16 g/m*3 6.9 C 0 km/h
2386 02-12-2009 21:25:02 7 C 5.04 g/m*3 7 C 0 km/h
2387 02-12-2009 21:37:02 6.9 C 5.08 g/m*3 6.9 C 0 km/h
2388 02-12-2009 21:49:02 7 C 5.04 g/m*3 7 C 0 km/h
2389 02-12-2009 22:01:02 7 C 5.11 g/m*3 7 C 0 km/h
2390 02-12-2009 22:13:02 6.9 C 5.23 g/m*3 6.9 C 0 km/h
2391 02-12-2009 22:26:02 7 C 5.19 g/m*3 7 C 0 km/h
2392 02-12-2009 22:38:02 7 C 5.19 g/m*3 7 C 0 km/h
2393 02-12-2009 22:50:02 6.9 C 5.31 g/m*3 6.9 C 0 km/h
2394 02-12-2009 23:02:02 6.8 C 5.28 g/m*3 6.8 C 0 km/h
2395 02-12-2009 23:14:02 6.7 C 5.32 g/m*3 6.7 C 0 km/h
2396 02-12-2009 23:26:02 6.6 C 5.36 g/m*3 6.6 C 0 km/h
2397 02-12-2009 23:38:02 6.4 C 5.36 g/m*3 6.4 C 0 km/h
2398 02-12-2009 23:50:02 6.4 C 5.36 g/m*3 6.4 C 0 km/h
2399 03-12-2009 00:02:03 6.6 C 5.44 g/m*3 6.6 C 0 km/h
2400 03-12-2009 00:14:03 6.7 C 5.47 g/m*3 6.7 C 0 km/h
Sensor: Nr:Datum:Temp:Abs-Feuchte:Windchill:Wind:
Aussen-T/F 2401 03-12-2009 00:26:03 6.8 C 5.51 g/m*3 6.8 C 0 km/h
2402 03-12-2009 00:38:03 7 C 5.35 g/m*3 7 C 0 km/h
2403 03-12-2009 00:50:03 7.1 C 5.3 g/m*3 7.1 C 0 km/h
2404 03-12-2009 01:02:03 7.1 C 5.3 g/m*3 7.1 C 0 km/h
2405 03-12-2009 01:14:03 7.2 C 5.34 g/m*3 7.2 C 0 km/h
2406 03-12-2009 01:26:03 7.2 C 5.34 g/m*3 7.2 C 0 km/h
2407 03-12-2009 01:38:03 7.1 C 5.3 g/m*3 7.1 C 0 km/h
2408 03-12-2009 01:50:03 7 C 5.19 g/m*3 7 C 0 km/h
2409 03-12-2009 02:02:03 7.1 C 5.23 g/m*3 7.1 C 0 km/h
2410 03-12-2009 02:14:03 7.1 C 5.3 g/m*3 7.1 C 0 km/h
2411 03-12-2009 02:26:03 7.2 C 5.26 g/m*3 7.2 C 0 km/h
2412 03-12-2009 02:38:03 7.3 C 5.29 g/m*3 7.3 C 0 km/h
2413 03-12-2009 02:50:03 7.5 C 5.28 g/m*3 7.5 C 0 km/h
2414 03-12-2009 03:02:03 7.4 C 5.25 g/m*3 7.4 C 0 km/h
2415 03-12-2009 03:14:03 7.4 C 5.41 g/m*3 7.4 C 0 km/h
2416 03-12-2009 03:26:03 7.3 C 5.45 g/m*3 7.3 C 0 km/h
2417 03-12-2009 03:38:03 7.5 C 5.68 g/m*3 7.5 C 0 km/h
2418 03-12-2009 03:50:03 7.7 C 5.68 g/m*3 7.7 C 0 km/h
2419 03-12-2009 04:02:03 7.8 C 5.79 g/m*3 7.8 C 0 km/h
2420 03-12-2009 04:14:04 7.9 C 5.83 g/m*3 7.9 C 0 km/h
2421 03-12-2009 04:26:04 8.1 C 5.82 g/m*3 8.1 C 0 km/h
2422 03-12-2009 04:38:04 8.1 C 5.82 g/m*3 8.1 C 0 km/h
2423 03-12-2009 04:50:04 7.8 C 5.96 g/m*3 7.8 C 0 km/h
2424 03-12-2009 05:02:04 7.5 C 6.08 g/m*3 7.5 C 0 km/h
2425 03-12-2009 05:14:04 7.3 C 6.24 g/m*3 7.3 C 0 km/h
Sensor: Nr:Datum:Temp:Abs-Feuchte:Windchill:Wind:
Aussen-T/F 2426 03-12-2009 05:26:04 7.4 C 6.28 g/m*3 7.4 C 0 km/h
2427 03-12-2009 05:38:04 7.6 C 6.36 g/m*3 7.6 C 0 km/h
2428 03-12-2009 05:50:04 7.6 C 6.36 g/m*3 7.6 C 0 km/h
2429 03-12-2009 06:02:04 7.8 C 6.45 g/m*3 7.8 C 0 km/h
2430 03-12-2009 06:14:04 8 C 6.37 g/m*3 8 C 0 km/h
2431 03-12-2009 06:26:04 7.9 C 6.32 g/m*3 7.9 C 0 km/h
2432 03-12-2009 06:38:04 7.9 C 6.32 g/m*3 7.9 C 0 km/h
2433 03-12-2009 06:50:04 7.7 C 6.24 g/m*3 7.7 C 0 km/h
2434 03-12-2009 07:02:02 7.6 C 6.28 g/m*3 7.6 C 0 km/h
2435 03-12-2009 07:14:02 7.5 C 6.24 g/m*3 7.5 C 0 km/h
2436 03-12-2009 07:26:01 7.4 C 6.28 g/m*3 7.4 C 0 km/h
2437 03-12-2009 07:38:02 7.5 C 6.32 g/m*3 7.5 C 0 km/h
2438 03-12-2009 07:50:02 7.5 C 6.32 g/m*3 7.5 C 0 km/h
2439 03-12-2009 08:02:02 7.6 C 6.2 g/m*3 7.6 C 0 km/h
2440 03-12-2009 08:14:02 7.7 C 6.32 g/m*3 7.7 C 0 km/h
2441 03-12-2009 08:26:02 7.7 C 6.32 g/m*3 7.7 C 0 km/h
2442 03-12-2009 08:38:02 8 C 6.28 g/m*3 8 C 0 km/h
2443 03-12-2009 08:50:02 8.2 C 6.2 g/m*3 8.2 C 0 km/h
2444 03-12-2009 09:02:02 8.2 C 6.36 g/m*3 8.2 C 0 km/h
2445 03-12-2009 09:14:02 7.9 C 6.41 g/m*3 7.9 C 0 km/h
2446 03-12-2009 09:26:02 7.9 C 6.49 g/m*3 7.9 C 0 km/h
2447 03-12-2009 09:38:02 8.1 C 6.49 g/m*3 8.1 C 0 km/h
2448 03-12-2009 09:50:02 8.4 C 6.53 g/m*3 8.4 C 0 km/h
2449 03-12-2009 10:02:02 8.5 C 6.49 g/m*3 8.5 C 0 km/h
2450 03-12-2009 10:14:02 8.9 C 6.39 g/m*3 8.9 C 0 km/h
Sensor: Nr:Datum:Temp:Abs-Feuchte:Windchill:Wind:
Aussen-T/F 2451 03-12-2009 10:26:02 9.2 C 6.43 g/m*3 9.2 C 0 km/h
2452 03-12-2009 10:38:02 9.5 C 6.46 g/m*3 9.5 C 0 km/h
2453 03-12-2009 10:50:02 9.6 C 6.41 g/m*3 9.6 C 0 km/h
2454 03-12-2009 11:02:02 9.8 C 6.4 g/m*3 9.8 C 0 km/h
2455 03-12-2009 11:14:02 10.1 C 6.34 g/m*3 10.1 C 0 km/h
2456 03-12-2009 11:26:02 10.3 C 6.42 g/m*3 10.3 C 0 km/h
2457 03-12-2009 11:38:02 10.3 C 6.32 g/m*3 10.3 C 0 km/h
2458 03-12-2009 11:50:02 10 C 6.2 g/m*3 10 C 0 km/h
2459 03-12-2009 12:02:01 10 C 6.2 g/m*3 10 C 0 km/h
2460 03-12-2009 12:14:01 10.3 C 6.22 g/m*3 10.3 C 0 km/h
2461 03-12-2009 12:26:02 10.5 C 6.21 g/m*3 10.5 C 0 km/h
2462 03-12-2009 12:38:01 10.6 C 6.25 g/m*3 10.6 C 0 km/h
2463 03-12-2009 12:50:02 10.5 C 6.21 g/m*3 10.5 C 0 km/h
2464 03-12-2009 13:02:01 10.4 C 6.17 g/m*3 10.4 C 0 km/h
2465 03-12-2009 13:14:01 10.6 C 6.25 g/m*3 10.6 C 0 km/h
2466 03-12-2009 13:26:01 10.6 C 6.15 g/m*3 10.6 C 0 km/h
2467 03-12-2009 13:38:02 10.5 C 6.21 g/m*3 10.5 C 0 km/h
2468 03-12-2009 13:50:02 10.6 C 6.15 g/m*3 10.6 C 0 km/h
2469 03-12-2009 14:02:02 10.4 C 6.17 g/m*3 10.4 C 0 km/h
2470 03-12-2009 14:14:02 10.6 C 6.15 g/m*3 10.6 C 0 km/h
2471 03-12-2009 14:26:02 10.6 C 6.15 g/m*3 10.6 C 0 km/h
2472 03-12-2009 14:38:02 10.4 C 6.07 g/m*3 10.4 C 0 km/h
2473 03-12-2009 14:50:01 10.3 C 6.13 g/m*3 10.3 C 0 km/h
2474 03-12-2009 15:02:02 9.9 C 6.35 g/m*3 9.9 C 0 km/h
2475 03-12-2009 15:14:02 9.9 C 6.35 g/m*3 9.9 C 0 km/h
Sensor: Nr:Datum:Temp:Abs-Feuchte:Windchill:Wind:
Aussen-T/F 2476 03-12-2009 15:26:01 9.8 C 6.31 g/m*3 9.8 C 0 km/h
2477 03-12-2009 15:38:02 9.6 C 6.23 g/m*3 9.6 C 0 km/h
2478 03-12-2009 15:50:02 9.4 C 6.24 g/m*3 9.4 C 0 km/h
2479 03-12-2009 16:02:02 9.3 C 6.2 g/m*3 9.3 C 0 km/h
2480 03-12-2009 16:14:02 9.3 C 6.2 g/m*3 9.3 C 0 km/h
2481 03-12-2009 16:26:01 9.4 C 6.15 g/m*3 9.4 C 0 km/h
2482 03-12-2009 16:38:02 9.4 C 6.15 g/m*3 9.4 C 0 km/h
2483 03-12-2009 16:50:02 9.5 C 6.19 g/m*3 9.5 C 0 km/h
2484 03-12-2009 17:02:02 9.2 C 6.16 g/m*3 9.2 C 0 km/h
2485 03-12-2009 17:14:02 9.4 C 6.15 g/m*3 9.4 C 0 km/h
2486 03-12-2009 17:26:01 9.5 C 6.19 g/m*3 9.5 C 0 km/h
2487 03-12-2009 17:38:02 9.5 C 6.19 g/m*3 9.5 C 0 km/h
2488 03-12-2009 17:50:02 8.9 C 6.31 g/m*3 8.9 C 0 km/h
2489 03-12-2009 18:02:02 8.5 C 6.4 g/m*3 8.5 C 0 km/h
2490 03-12-2009 18:14:02 8.7 C 6.49 g/m*3 8.7 C 0 km/h
2491 03-12-2009 18:26:02 8.7 C 6.49 g/m*3 8.7 C 0 km/h
2492 03-12-2009 18:38:02 8.8 C 6.53 g/m*3 8.8 C 0 km/h
2493 03-12-2009 18:50:02 8.9 C 6.48 g/m*3 8.9 C 0 km/h
2494 03-12-2009 19:02:02 8.9 C 6.48 g/m*3 8.9 C 0 km/h
2495 03-12-2009 19:14:02 8.7 C 6.31 g/m*3 8.7 C 0 km/h
2496 03-12-2009 19:26:02 9.1 C 6.21 g/m*3 9.1 C 0 km/h
2497 03-12-2009 19:38:02 9.4 C 6.15 g/m*3 9.4 C 0 km/h
2498 03-12-2009 19:50:02 9.3 C 6.02 g/m*3 9.3 C 0 km/h
2499 03-12-2009 20:02:01 9.2 C 5.98 g/m*3 9.2 C 0 km/h
2500 03-12-2009 20:14:01 9.2 C 5.98 g/m*3 9.2 C 0 km/h
Sensor: Nr:Datum:Temp:Abs-Feuchte:Windchill:Wind:
Aussen-T/F 2501 03-12-2009 20:26:02 9.1 C 5.94 g/m*3 9.1 C 0 km/h
2502 03-12-2009 20:38:01 9.2 C 5.98 g/m*3 9.2 C 0 km/h
2503 03-12-2009 20:50:02 9 C 5.91 g/m*3 9 C 0 km/h
2504 03-12-2009 21:02:01 8.8 C 5.92 g/m*3 8.8 C 0 km/h
2505 03-12-2009 21:14:01 8.9 C 5.96 g/m*3 8.9 C 0 km/h
2506 03-12-2009 21:26:02 8.6 C 5.93 g/m*3 8.6 C 0 km/h
2507 03-12-2009 21:38:01 8.3 C 5.9 g/m*3 8.3 C 0 km/h
2508 03-12-2009 21:51:03 8.3 C 5.98 g/m*3 8.3 C 0 km/h
2509 03-12-2009 22:03:03 8.5 C 6.06 g/m*3 8.5 C 0 km/h
2510 03-12-2009 22:15:03 8.2 C 5.95 g/m*3 8.2 C 0 km/h
2511 03-12-2009 22:27:03 8.2 C 6.03 g/m*3 8.2 C 0 km/h
2512 03-12-2009 22:39:03 8.5 C 6.06 g/m*3 8.5 C 0 km/h
2513 03-12-2009 22:51:03 8 C 6.04 g/m*3 8 C 0 km/h
2514 03-12-2009 23:03:03 7 C 6.04 g/m*3 7 C 0 km/h
2515 03-12-2009 23:15:03 6.8 C 6.12 g/m*3 6.8 C 0 km/h
2516 03-12-2009 23:27:03 6.6 C 6.11 g/m*3 6.6 C 0 km/h
2517 03-12-2009 23:39:03 6.5 C 5.92 g/m*3 6.5 C 0 km/h
2518 03-12-2009 23:51:03 6.5 C 5.77 g/m*3 6.5 C 0 km/h
2519 04-12-2009 00:03:03 6.6 C 5.51 g/m*3 6.6 C 0 km/h
2520 04-12-2009 00:15:03 6.7 C 5.47 g/m*3 6.7 C 0 km/h
2521 04-12-2009 00:27:03 6.8 C 5.43 g/m*3 6.8 C 0 km/h
2522 04-12-2009 00:39:03 6.7 C 5.32 g/m*3 6.7 C 0 km/h
2523 04-12-2009 00:51:03 6.6 C 5.28 g/m*3 6.6 C 0 km/h
2524 04-12-2009 01:03:03 6.4 C 5.22 g/m*3 6.4 C 0 km/h
2525 04-12-2009 01:15:03 6.2 C 5.22 g/m*3 6.2 C 0 km/h
Sensor: Nr:Datum:Temp:Abs-Feuchte:Windchill:Wind:
Aussen-T/F 2526 04-12-2009 01:27:03 6.3 C 5.26 g/m*3 6.3 C 0 km/h
2527 04-12-2009 01:39:03 6.2 C 5.07 g/m*3 6.2 C 0 km/h
2528 04-12-2009 01:51:03 6.2 C 4.71 g/m*3 6.2 C 0 km/h
2529 04-12-2009 02:03:04 6.2 C 4.78 g/m*3 6.2 C 0 km/h
2530 04-12-2009 02:15:04 6.2 C 5 g/m*3 6.2 C 0 km/h
2531 04-12-2009 02:27:04 5.6 C 5.16 g/m*3 5.6 C 0 km/h
2532 04-12-2009 02:39:04 5.6 C 5.23 g/m*3 5.6 C 0 km/h
2533 04-12-2009 02:51:04 5.6 C 5.16 g/m*3 5.6 C 0 km/h
2534 04-12-2009 03:03:04 5.6 C 5.16 g/m*3 5.6 C 0 km/h
2535 04-12-2009 03:15:04 5.5 C 5.2 g/m*3 5.5 C 0 km/h
2536 04-12-2009 03:27:04 5.4 C 5.16 g/m*3 5.4 C 0 km/h
2537 04-12-2009 03:39:04 5.4 C 5.16 g/m*3 5.4 C 0 km/h
2538 04-12-2009 03:51:04 5.4 C 5.16 g/m*3 5.4 C 0 km/h
2539 04-12-2009 04:03:04 5.5 C 5.2 g/m*3 5.5 C 0 km/h
2540 04-12-2009 04:15:04 5.4 C 4.81 g/m*3 5.4 C 0 km/h
2541 04-12-2009 04:27:04 5 C 4.62 g/m*3 5 C 0 km/h
2542 04-12-2009 04:39:04 4.8 C 4.63 g/m*3 4.8 C 0 km/h
2543 04-12-2009 04:51:04 4.6 C 4.5 g/m*3 4.6 C 0 km/h
2544 04-12-2009 05:03:04 4.3 C 4.48 g/m*3 4.3 C 0 km/h
2545 04-12-2009 05:15:04 4 C 4.51 g/m*3 4 C 0 km/h
2546 04-12-2009 05:27:04 3.7 C 4.49 g/m*3 3.7 C 0 km/h
2547 04-12-2009 05:39:04 3.4 C 4.52 g/m*3 3.4 C 0 km/h
2548 04-12-2009 05:51:04 3.1 C 4.49 g/m*3 3.1 C 0 km/h
2549 04-12-2009 06:03:04 3.2 C 4.64 g/m*3 3.2 C 0 km/h
2550 04-12-2009 06:15:02 3.3 C 4.67 g/m*3 3.3 C 0 km/h
Sensor: Nr:Datum:Temp:Abs-Feuchte:Windchill:Wind:
Aussen-T/F 2551 04-12-2009 06:27:02 3.1 C 4.61 g/m*3 3.1 C 0 km/h
2552 04-12-2009 06:39:02 3.1 C 4.67 g/m*3 3.1 C 0 km/h
2553 04-12-2009 06:51:02 3.4 C 4.76 g/m*3 3.4 C 0 km/h
2554 04-12-2009 07:03:02 3.9 C 4.74 g/m*3 3.9 C 0 km/h
2555 04-12-2009 07:15:03 4.1 C 4.61 g/m*3 4.1 C 0 km/h
2556 04-12-2009 07:27:03 4.1 C 4.54 g/m*3 4.1 C 0 km/h
2557 04-12-2009 07:39:02 3.4 C 4.46 g/m*3 3.4 C 0 km/h
2558 04-12-2009 07:51:01 3.1 C 4.43 g/m*3 3.1 C 0 km/h
2559 04-12-2009 08:03:01 2.8 C 4.46 g/m*3 2.8 C 0 km/h
2560 04-12-2009 08:15:01 2.7 C 4.49 g/m*3 2.7 C 0 km/h
2561 04-12-2009 08:27:01 3 C 4.58 g/m*3 3 C 0 km/h
2562 04-12-2009 08:39:00 3.3 C 4.67 g/m*3 3.3 C 0 km/h
2563 04-12-2009 08:51:03 3.6 C 4.7 g/m*3 3.6 C 0 km/h
2564 04-12-2009 09:03:02 3.8 C 4.64 g/m*3 3.8 C 0 km/h
2565 04-12-2009 09:15:02 3.9 C 4.61 g/m*3 3.9 C 0 km/h
2566 04-12-2009 09:27:03 4.1 C 4.54 g/m*3 4.1 C 0 km/h
2567 04-12-2009 09:39:02 4.2 C 4.45 g/m*3 4.2 C 0 km/h
2568 04-12-2009 09:51:02 4.3 C 4.28 g/m*3 4.3 C 0 km/h
2569 04-12-2009 10:03:01 4 C 4.13 g/m*3 4 C 0 km/h
2570 04-12-2009 10:15:02 4 C 4.13 g/m*3 4 C 0 km/h
2571 04-12-2009 10:27:02 4.1 C 4.16 g/m*3 4.1 C 0 km/h
2572 04-12-2009 10:39:02 4.2 C 4.12 g/m*3 4.2 C 0 km/h
2573 04-12-2009 10:51:02 4.2 C 4.12 g/m*3 4.2 C 0 km/h
2574 04-12-2009 11:03:03 4.1 C 4.1 g/m*3 4.1 C 0 km/h
2575 04-12-2009 11:15:02 4.1 C 4.1 g/m*3 4.1 C 0 km/h
Sensor: Nr:Datum:Temp:Abs-Feuchte:Windchill:Wind:
Aussen-T/F 2576 04-12-2009 11:27:02 4.2 C 4.06 g/m*3 4.2 C 0 km/h
2577 04-12-2009 11:39:02 4.1 C 4.1 g/m*3 4.1 C 0 km/h
2578 04-12-2009 11:51:01 4.3 C 4.09 g/m*3 4.3 C 0 km/h
2579 04-12-2009 12:03:02 4.6 C 4.17 g/m*3 4.6 C 0 km/h
2580 04-12-2009 12:15:01 5.1 C 4.1 g/m*3 5.1 C 0 km/h
2581 04-12-2009 12:27:01 5.4 C 4.12 g/m*3 5.4 C 0 km/h
2582 04-12-2009 12:39:01 5.5 C 4.07 g/m*3 5.5 C 0 km/h
2583 04-12-2009 12:51:01 5.7 C 4.2 g/m*3 5.7 C 0 km/h
2584 04-12-2009 13:03:02 5.5 C 4 g/m*3 5.5 C 0 km/h
2585 04-12-2009 13:15:01 5 C 3.87 g/m*3 5 C 0 km/h
2586 04-12-2009 13:27:01 4.9 C 3.92 g/m*3 4.9 C 0 km/h
2587 04-12-2009 13:39:02 4.9 C 3.85 g/m*3 4.9 C 0 km/h
2588 04-12-2009 13:51:02 4.9 C 3.85 g/m*3 4.9 C 0 km/h
2589 04-12-2009 14:03:02 4.8 C 3.82 g/m*3 4.8 C 0 km/h
2590 04-12-2009 14:15:02 4.8 C 3.82 g/m*3 4.8 C 0 km/h
2591 04-12-2009 14:27:02 4.9 C 3.78 g/m*3 4.9 C 0 km/h
2592 04-12-2009 14:39:02 5.1 C 3.69 g/m*3 5.1 C 0 km/h
2593 04-12-2009 14:51:02 4.9 C 3.71 g/m*3 4.9 C 0 km/h
2594 04-12-2009 15:03:03 4.8 C 3.62 g/m*3 4.8 C 0 km/h
2595 04-12-2009 15:15:02 4.7 C 3.6 g/m*3 4.7 C 0 km/h
2596 04-12-2009 15:27:02 4.5 C 3.68 g/m*3 4.5 C 0 km/h
2597 04-12-2009 15:39:03 4.7 C 3.66 g/m*3 4.7 C 0 km/h
2598 04-12-2009 15:51:02 4.9 C 3.65 g/m*3 4.9 C 0 km/h
2599 04-12-2009 16:03:02 4.9 C 3.78 g/m*3 4.9 C 0 km/h
2600 04-12-2009 16:15:03 4.9 C 3.71 g/m*3 4.9 C 0 km/h
Sensor: Nr:Datum:Temp:Abs-Feuchte:Windchill:Wind:
Aussen-T/F 2601 04-12-2009 16:27:03 4.9 C 3.78 g/m*3 4.9 C 0 km/h
2602 04-12-2009 16:39:02 4.9 C 3.78 g/m*3 4.9 C 0 km/h
2603 04-12-2009 16:51:03 4.8 C 3.82 g/m*3 4.8 C 0 km/h
2604 04-12-2009 17:03:02 4.8 C 3.89 g/m*3 4.8 C 0 km/h
2605 04-12-2009 17:15:03 4.7 C 3.93 g/m*3 4.7 C 0 km/h
2606 04-12-2009 17:27:03 4.7 C 4 g/m*3 4.7 C 0 km/h
2607 04-12-2009 17:39:02 4.7 C 4.06 g/m*3 4.7 C 0 km/h
2608 04-12-2009 17:51:02 4.8 C 4.09 g/m*3 4.8 C 0 km/h
2609 04-12-2009 18:03:02 4.8 C 4.09 g/m*3 4.8 C 0 km/h
2610 04-12-2009 18:15:02 4.8 C 4.16 g/m*3 4.8 C 0 km/h
2611 04-12-2009 18:27:02 4.7 C 4.2 g/m*3 4.7 C 0 km/h
2612 04-12-2009 18:39:02 4.9 C 4.19 g/m*3 4.9 C 0 km/h
2613 04-12-2009 18:51:02 5 C 4.08 g/m*3 5 C 0 km/h
2614 04-12-2009 19:03:01 5 C 4.08 g/m*3 5 C 0 km/h
2615 04-12-2009 19:15:02 5 C 4.08 g/m*3 5 C 0 km/h
2616 04-12-2009 19:27:02 5 C 4.14 g/m*3 5 C 0 km/h
2617 04-12-2009 19:39:02 5 C 4.14 g/m*3 5 C 0 km/h
2618 04-12-2009 19:51:01 5.1 C 4.17 g/m*3 5.1 C 0 km/h
2619 04-12-2009 20:03:02 5.1 C 4.17 g/m*3 5.1 C 0 km/h
2620 04-12-2009 20:15:01 5 C 4.21 g/m*3 5 C 0 km/h
2621 04-12-2009 20:27:01 5 C 4.21 g/m*3 5 C 0 km/h
2622 04-12-2009 20:39:02 5 C 4.21 g/m*3 5 C 0 km/h
2623 04-12-2009 20:51:02 5 C 4.28 g/m*3 5 C 0 km/h
2624 04-12-2009 21:03:02 5 C 4.28 g/m*3 5 C 0 km/h
2625 04-12-2009 21:15:01 5.1 C 4.31 g/m*3 5.1 C 0 km/h
Sensor: Nr:Datum:Temp:Abs-Feuchte:Windchill:Wind:
Aussen-T/F 2626 04-12-2009 21:27:01 5.1 C 4.31 g/m*3 5.1 C 0 km/h
2627 04-12-2009 21:39:02 5.2 C 4.34 g/m*3 5.2 C 0 km/h
2628 04-12-2009 21:51:02 5.2 C 4.34 g/m*3 5.2 C 0 km/h
2629 04-12-2009 22:04:03 5.2 C 4.34 g/m*3 5.2 C 0 km/h
2630 04-12-2009 22:16:03 5.2 C 4.34 g/m*3 5.2 C 0 km/h
2631 04-12-2009 22:28:03 5.1 C 4.31 g/m*3 5.1 C 0 km/h
2632 04-12-2009 22:40:03 5.1 C 4.17 g/m*3 5.1 C 0 km/h
2633 04-12-2009 22:52:03 5.1 C 4.17 g/m*3 5.1 C 0 km/h
2634 04-12-2009 23:04:03 4.7 C 4.06 g/m*3 4.7 C 0 km/h
2635 04-12-2009 23:16:03 4.1 C 4.03 g/m*3 4.1 C 0 km/h
2636 04-12-2009 23:28:03 3.6 C 4.15 g/m*3 3.6 C 0 km/h
2637 04-12-2009 23:40:03 3.2 C 4.16 g/m*3 3.2 C 0 km/h
2638 04-12-2009 23:52:03 3 C 4.16 g/m*3 3 C 0 km/h
2639 05-12-2009 00:04:03 2.7 C 4.2 g/m*3 2.7 C 0 km/h
2640 05-12-2009 00:16:03 2.5 C 4.25 g/m*3 2.5 C 0 km/h
2641 05-12-2009 00:28:03 2.3 C 4.2 g/m*3 2.3 C 0 km/h
2642 05-12-2009 00:40:03 2.7 C 4.37 g/m*3 2.7 C 0 km/h
2643 05-12-2009 00:52:03 3.2 C 4.4 g/m*3 3.2 C 0 km/h
2644 05-12-2009 01:04:03 3.3 C 4.43 g/m*3 3.3 C 0 km/h
2645 05-12-2009 01:16:03 2.9 C 4.25 g/m*3 2.9 C 0 km/h
2646 05-12-2009 01:28:04 2.7 C 4.31 g/m*3 2.7 C 0 km/h
2647 05-12-2009 01:40:04 2.8 C 4.4 g/m*3 2.8 C 0 km/h
2648 05-12-2009 01:52:04 3.1 C 4.37 g/m*3 3.1 C 0 km/h
2649 05-12-2009 02:04:04 2.9 C 4.31 g/m*3 2.9 C 0 km/h
2650 05-12-2009 02:16:04 2.8 C 4.28 g/m*3 2.8 C 0 km/h
Sensor: Nr:Datum:Temp:Abs-Feuchte:Windchill:Wind:
Aussen-T/F 2651 05-12-2009 02:28:04 2.8 C 4.28 g/m*3 2.8 C 0 km/h
2652 05-12-2009 02:40:04 2.7 C 4.31 g/m*3 2.7 C 0 km/h
2653 05-12-2009 02:52:04 2.7 C 4.31 g/m*3 2.7 C 0 km/h
2654 05-12-2009 03:04:04 2.7 C 4.37 g/m*3 2.7 C 0 km/h
2655 05-12-2009 03:16:04 3 C 4.34 g/m*3 3 C 0 km/h
2656 05-12-2009 03:28:04 2.9 C 4.37 g/m*3 2.9 C 0 km/h
2657 05-12-2009 03:40:04 3.2 C 4.4 g/m*3 3.2 C 0 km/h
2658 05-12-2009 03:52:04 3.3 C 4.37 g/m*3 3.3 C 0 km/h
2659 05-12-2009 04:04:04 3.3 C 4.37 g/m*3 3.3 C 0 km/h
2660 05-12-2009 04:16:04 3.4 C 4.4 g/m*3 3.4 C 0 km/h
2661 05-12-2009 04:28:04 3.4 C 4.34 g/m*3 3.4 C 0 km/h
2662 05-12-2009 04:40:04 3.2 C 4.28 g/m*3 3.2 C 0 km/h
2663 05-12-2009 04:52:04 3.2 C 4.34 g/m*3 3.2 C 0 km/h
2664 05-12-2009 05:04:04 3.3 C 4.37 g/m*3 3.3 C 0 km/h
2665 05-12-2009 05:16:05 3.3 C 4.31 g/m*3 3.3 C 0 km/h
2666 05-12-2009 05:28:05 3.4 C 4.34 g/m*3 3.4 C 0 km/h
2667 05-12-2009 05:40:05 3.4 C 4.34 g/m*3 3.4 C 0 km/h
2668 05-12-2009 05:52:05 3.4 C 4.28 g/m*3 3.4 C 0 km/h
2669 05-12-2009 06:04:05 3.4 C 4.28 g/m*3 3.4 C 0 km/h
2670 05-12-2009 06:16:05 3.4 C 4.28 g/m*3 3.4 C 0 km/h
2671 05-12-2009 06:28:05 3.5 C 4.24 g/m*3 3.5 C 0 km/h
2672 05-12-2009 06:40:05 3.5 C 4.24 g/m*3 3.5 C 0 km/h
2673 05-12-2009 06:52:05 3.5 C 4.24 g/m*3 3.5 C 0 km/h
2674 05-12-2009 07:04:05 3.5 C 4.18 g/m*3 3.5 C 0 km/h
2675 05-12-2009 07:16:05 3.7 C 4.18 g/m*3 3.7 C 0 km/h
Sensor: Nr:Datum:Temp:Abs-Feuchte:Windchill:Wind:
Aussen-T/F 2676 05-12-2009 07:28:05 3.7 C 4.11 g/m*3 3.7 C 0 km/h
2677 05-12-2009 07:40:02 3.8 C 4.08 g/m*3 3.8 C 0 km/h
2678 05-12-2009 07:52:01 3.8 C 4.08 g/m*3 3.8 C 0 km/h
2679 05-12-2009 08:04:01 3.9 C 4.11 g/m*3 3.9 C 0 km/h
2680 05-12-2009 08:16:02 4 C 4.07 g/m*3 4 C 0 km/h
2681 05-12-2009 08:28:02 4 C 4.01 g/m*3 4 C 0 km/h
2682 05-12-2009 08:40:01 4.1 C 4.03 g/m*3 4.1 C 0 km/h
2683 05-12-2009 08:52:03 4.1 C 4.03 g/m*3 4.1 C 0 km/h
2684 05-12-2009 09:04:02 4.2 C 4.06 g/m*3 4.2 C 0 km/h
2685 05-12-2009 09:16:02 4.2 C 4.12 g/m*3 4.2 C 0 km/h
2686 05-12-2009 09:28:02 4.3 C 4.15 g/m*3 4.3 C 0 km/h
2687 05-12-2009 09:40:02 4.4 C 4.11 g/m*3 4.4 C 0 km/h
2688 05-12-2009 09:52:02 4.6 C 4.17 g/m*3 4.6 C 0 km/h
2689 05-12-2009 10:04:02 4.7 C 4.13 g/m*3 4.7 C 0 km/h
2690 05-12-2009 10:16:02 4.8 C 4.16 g/m*3 4.8 C 0 km/h
2691 05-12-2009 10:28:03 5.1 C 4.17 g/m*3 5.1 C 0 km/h
2692 05-12-2009 10:40:02 5.2 C 4.13 g/m*3 5.2 C 0 km/h
2693 05-12-2009 10:52:02 5.3 C 4.23 g/m*3 5.3 C 0 km/h
2694 05-12-2009 11:04:01 5.3 C 4.3 g/m*3 5.3 C 0 km/h
2695 05-12-2009 11:16:02 5.2 C 4.54 g/m*3 5.2 C 0 km/h
2696 05-12-2009 11:28:02 5.2 C 4.68 g/m*3 5.2 C 0 km/h
2697 05-12-2009 11:40:02 5.6 C 4.81 g/m*3 5.6 C 0 km/h
2698 05-12-2009 11:52:02 5.7 C 4.77 g/m*3 5.7 C 0 km/h
2699 05-12-2009 12:04:02 6 C 4.79 g/m*3 6 C 0 km/h
2700 05-12-2009 12:16:02 6.3 C 4.89 g/m*3 6.3 C 0 km/h
Sensor: Nr:Datum:Temp:Abs-Feuchte:Windchill:Wind:
Aussen-T/F 2701 05-12-2009 12:28:02 6.2 C 4.93 g/m*3 6.2 C 0 km/h
2702 05-12-2009 12:40:03 6.4 C 4.99 g/m*3 6.4 C 0 km/h
2703 05-12-2009 12:52:02 6.4 C 5.07 g/m*3 6.4 C 0 km/h
2704 05-12-2009 13:04:02 6.6 C 5.13 g/m*3 6.6 C 0 km/h
2705 05-12-2009 13:16:01 6.8 C 5.2 g/m*3 6.8 C 0 km/h
2706 05-12-2009 13:28:01 6.8 C 5.28 g/m*3 6.8 C 0 km/h
2707 05-12-2009 13:40:02 6.9 C 5.31 g/m*3 6.9 C 0 km/h
2708 05-12-2009 13:52:02 7 C 5.27 g/m*3 7 C 0 km/h
2709 05-12-2009 14:04:02 7.4 C 5.33 g/m*3 7.4 C 0 km/h
2710 05-12-2009 14:16:02 7.2 C 5.34 g/m*3 7.2 C 0 km/h
2711 05-12-2009 14:28:02 7.1 C 5.46 g/m*3 7.1 C 0 km/h
2712 05-12-2009 14:40:02 6.9 C 5.54 g/m*3 6.9 C 0 km/h
2713 05-12-2009 14:52:02 6.9 C 5.62 g/m*3 6.9 C 0 km/h
2714 05-12-2009 15:04:02 6.8 C 5.66 g/m*3 6.8 C 0 km/h
2715 05-12-2009 15:16:02 6.6 C 5.66 g/m*3 6.6 C 0 km/h
2716 05-12-2009 15:28:02 6.3 C 5.77 g/m*3 6.3 C 0 km/h
2717 05-12-2009 15:40:02 6.3 C 5.85 g/m*3 6.3 C 0 km/h
2718 05-12-2009 15:52:02 6.2 C 5.88 g/m*3 6.2 C 0 km/h
2719 05-12-2009 16:04:02 6.2 C 5.96 g/m*3 6.2 C 0 km/h
2720 05-12-2009 16:16:03 6.1 C 5.99 g/m*3 6.1 C 0 km/h
2721 05-12-2009 16:28:03 6.1 C 6.06 g/m*3 6.1 C 0 km/h
2722 05-12-2009 16:40:02 6.1 C 6.14 g/m*3 6.1 C 0 km/h
2723 05-12-2009 16:52:02 6.2 C 6.18 g/m*3 6.2 C 0 km/h
2724 05-12-2009 17:04:02 6.2 C 6.25 g/m*3 6.2 C 0 km/h
2725 05-12-2009 17:16:03 6.4 C 6.33 g/m*3 6.4 C 0 km/h
Sensor: Nr:Datum:Temp:Abs-Feuchte:Windchill:Wind:
Aussen-T/F 2726 05-12-2009 17:28:03 6.5 C 6.37 g/m*3 6.5 C 0 km/h
2727 05-12-2009 17:40:02 6.7 C 6.38 g/m*3 6.7 C 0 km/h
2728 05-12-2009 17:52:03 6.9 C 6.39 g/m*3 6.9 C 0 km/h
2729 05-12-2009 18:04:02 7.1 C 6.24 g/m*3 7.1 C 0 km/h
2730 05-12-2009 18:16:02 7.3 C 6.24 g/m*3 7.3 C 0 km/h
2731 05-12-2009 18:28:02 7.3 C 6.24 g/m*3 7.3 C 0 km/h
2732 05-12-2009 18:40:02 7.3 C 6.24 g/m*3 7.3 C 0 km/h
2733 05-12-2009 18:52:02 7.3 C 6.32 g/m*3 7.3 C 0 km/h
2734 05-12-2009 19:04:02 7.4 C 6.36 g/m*3 7.4 C 0 km/h
2735 05-12-2009 19:16:02 7.3 C 6.32 g/m*3 7.3 C 0 km/h
2736 05-12-2009 19:28:02 7.4 C 6.36 g/m*3 7.4 C 0 km/h
2737 05-12-2009 19:40:02 7.4 C 6.36 g/m*3 7.4 C 0 km/h
2738 05-12-2009 19:52:02 7.5 C 6.48 g/m*3 7.5 C 0 km/h
2739 05-12-2009 20:04:01 7.6 C 6.61 g/m*3 7.6 C 0 km/h
2740 05-12-2009 20:16:02 7.6 C 6.53 g/m*3 7.6 C 0 km/h
2741 05-12-2009 20:28:02 7.6 C 6.61 g/m*3 7.6 C 0 km/h
2742 05-12-2009 20:40:02 7.8 C 6.69 g/m*3 7.8 C 0 km/h
2743 05-12-2009 20:52:02 7.8 C 6.69 g/m*3 7.8 C 0 km/h
2744 05-12-2009 21:04:02 7.9 C 6.74 g/m*3 7.9 C 0 km/h
2745 05-12-2009 21:16:02 7.9 C 6.74 g/m*3 7.9 C 0 km/h
2746 05-12-2009 21:28:02 7.8 C 6.69 g/m*3 7.8 C 0 km/h
2747 05-12-2009 21:40:03 7.9 C 6.82 g/m*3 7.9 C 0 km/h
2748 05-12-2009 21:53:02 7.8 C 6.77 g/m*3 7.8 C 0 km/h
2749 05-12-2009 22:05:02 7.8 C 6.77 g/m*3 7.8 C 0 km/h
2750 05-12-2009 22:17:02 7.9 C 6.82 g/m*3 7.9 C 0 km/h
Sensor: Nr:Datum:Temp:Abs-Feuchte:Windchill:Wind:
Aussen-T/F 2751 05-12-2009 22:29:02 7.9 C 6.82 g/m*3 7.9 C 0 km/h
2752 05-12-2009 22:41:02 7.8 C 6.77 g/m*3 7.8 C 0 km/h
2753 05-12-2009 22:53:02 7.9 C 6.82 g/m*3 7.9 C 0 km/h
2754 05-12-2009 23:05:02 8 C 6.86 g/m*3 8 C 0 km/h
2755 05-12-2009 23:17:03 8 C 6.86 g/m*3 8 C 0 km/h
2756 05-12-2009 23:29:03 8.1 C 6.82 g/m*3 8.1 C 0 km/h
2757 05-12-2009 23:41:03 8.2 C 6.95 g/m*3 8.2 C 0 km/h
2758 05-12-2009 23:53:03 8.4 C 6.96 g/m*3 8.4 C 0 km/h
2759 06-12-2009 00:05:03 8.6 C 7.05 g/m*3 8.6 C 0 km/h
2760 06-12-2009 00:17:03 8.9 C 7.1 g/m*3 8.9 C 0 km/h
2761 06-12-2009 00:29:03 9 C 6.96 g/m*3 9 C 0 km/h
2762 06-12-2009 00:41:03 9.1 C 7.01 g/m*3 9.1 C 0 km/h
2763 06-12-2009 00:53:03 9.2 C 7.05 g/m*3 9.2 C 0 km/h
2764 06-12-2009 01:05:03 9.3 C 7.1 g/m*3 9.3 C 0 km/h
2765 06-12-2009 01:17:03 9.4 C 7.15 g/m*3 9.4 C 0 km/h
2766 06-12-2009 01:29:03 9.3 C 7.1 g/m*3 9.3 C 0 km/h
2767 06-12-2009 01:41:03 9.5 C 7.19 g/m*3 9.5 C 0 km/h
2768 06-12-2009 01:53:03 9.4 C 7.15 g/m*3 9.4 C 0 km/h
2769 06-12-2009 02:05:03 9.5 C 7.19 g/m*3 9.5 C 0 km/h
2770 06-12-2009 02:17:03 9.6 C 7.15 g/m*3 9.6 C 0 km/h
2771 06-12-2009 02:29:03 9.6 C 7.15 g/m*3 9.6 C 0 km/h
2772 06-12-2009 02:41:03 9.7 C 7.19 g/m*3 9.7 C 0 km/h
2773 06-12-2009 02:53:03 9.8 C 7.14 g/m*3 9.8 C 0 km/h
2774 06-12-2009 03:05:04 9.7 C 7.1 g/m*3 9.7 C 0 km/h
2775 06-12-2009 03:17:04 10 C 7.05 g/m*3 10 C 0 km/h
Sensor: Nr:Datum:Temp:Abs-Feuchte:Windchill:Wind:
Aussen-T/F 2776 06-12-2009 03:29:04 10 C 7.05 g/m*3 10 C 0 km/h
2777 06-12-2009 03:41:04 9.9 C 7.19 g/m*3 9.9 C 0 km/h
2778 06-12-2009 03:53:04 9.9 C 7.19 g/m*3 9.9 C 0 km/h
2779 06-12-2009 04:05:04 10 C 7.14 g/m*3 10 C 0 km/h
2780 06-12-2009 04:17:04 10 C 7.05 g/m*3 10 C 0 km/h
2781 06-12-2009 04:29:04 10 C 7.14 g/m*3 10 C 0 km/h
2782 06-12-2009 04:41:04 9.9 C 7.19 g/m*3 9.9 C 0 km/h
2783 06-12-2009 04:53:04 9.7 C 7.19 g/m*3 9.7 C 0 km/h
2784 06-12-2009 05:05:04 9.9 C 7.28 g/m*3 9.9 C 0 km/h
2785 06-12-2009 05:17:04 10.2 C 7.23 g/m*3 10.2 C 0 km/h
2786 06-12-2009 05:29:04 9.8 C 7.33 g/m*3 9.8 C 0 km/h
2787 06-12-2009 05:41:04 9.4 C 7.33 g/m*3 9.4 C 0 km/h
2788 06-12-2009 05:53:04 9.3 C 7.37 g/m*3 9.3 C 0 km/h
2789 06-12-2009 06:05:04 9.4 C 7.42 g/m*3 9.4 C 0 km/h
2790 06-12-2009 06:17:04 9.6 C 7.42 g/m*3 9.6 C 0 km/h
2791 06-12-2009 06:29:04 9.2 C 7.41 g/m*3 9.2 C 0 km/h
2792 06-12-2009 06:41:04 8.8 C 7.49 g/m*3 8.8 C 0 km/h
2793 06-12-2009 06:53:05 8.9 C 7.71 g/m*3 8.9 C 0 km/h
2794 06-12-2009 07:05:05 8.8 C 7.66 g/m*3 8.8 C 0 km/h
2795 06-12-2009 07:17:05 8.6 C 7.56 g/m*3 8.6 C 0 km/h
2796 06-12-2009 07:29:05 8.4 C 7.55 g/m*3 8.4 C 0 km/h
2797 06-12-2009 07:41:02 8.4 C 7.55 g/m*3 8.4 C 0 km/h
2798 06-12-2009 07:53:02 8.3 C 7.5 g/m*3 8.3 C 0 km/h
2799 06-12-2009 08:05:03 8.2 C 7.54 g/m*3 8.2 C 0 km/h
2800 06-12-2009 08:17:02 8.2 C 7.54 g/m*3 8.2 C 0 km/h
Sensor: Nr:Datum:Temp:Abs-Feuchte:Windchill:Wind:
Aussen-T/F 2801 06-12-2009 08:29:02 8.2 C 7.62 g/m*3 8.2 C 0 km/h
2802 06-12-2009 08:41:03 8.2 C 7.62 g/m*3 8.2 C 0 km/h
2803 06-12-2009 08:53:02 8.2 C 7.62 g/m*3 8.2 C 0 km/h
2804 06-12-2009 09:05:01 8.2 C 7.62 g/m*3 8.2 C 0 km/h
2805 06-12-2009 09:17:02 8.4 C 7.72 g/m*3 8.4 C 0 km/h
2806 06-12-2009 09:29:02 8.4 C 7.8 g/m*3 8.4 C 0 km/h
2807 06-12-2009 09:41:02 8.6 C 7.91 g/m*3 8.6 C 0 km/h
2808 06-12-2009 09:53:02 8.7 C 7.87 g/m*3 8.7 C 0 km/h
2809 06-12-2009 10:05:02 8.8 C 7.83 g/m*3 8.8 C 0 km/h
2810 06-12-2009 10:17:02 8.9 C 7.8 g/m*3 8.9 C 0 km/h
2811 06-12-2009 10:29:02 9.2 C 7.86 g/m*3 9.2 C 0 km/h
2812 06-12-2009 10:41:02 9.3 C 7.91 g/m*3 9.3 C 0 km/h
2813 06-12-2009 10:53:02 9.6 C 8.06 g/m*3 9.6 C 0 km/h
2814 06-12-2009 11:05:02 9.7 C 8.11 g/m*3 9.7 C 0 km/h
2815 06-12-2009 11:17:02 9.8 C 8.07 g/m*3 9.8 C 0 km/h
2816 06-12-2009 11:29:03 9.7 C 7.93 g/m*3 9.7 C 0 km/h
2817 06-12-2009 11:41:02 9.8 C 7.89 g/m*3 9.8 C 0 km/h
2818 06-12-2009 11:53:02 9.8 C 7.61 g/m*3 9.8 C 0 km/h
2819 06-12-2009 12:05:02 10 C 7.52 g/m*3 10 C 0 km/h
2820 06-12-2009 12:17:02 10.2 C 7.61 g/m*3 10.2 C 0 km/h
2821 06-12-2009 12:29:03 10.2 C 7.71 g/m*3 10.2 C 0 km/h
2822 06-12-2009 12:41:02 10.2 C 7.71 g/m*3 10.2 C 0 km/h
2823 06-12-2009 12:53:02 10.2 C 7.8 g/m*3 10.2 C 0 km/h
2824 06-12-2009 13:05:02 10.1 C 7.75 g/m*3 10.1 C 0 km/h
2825 06-12-2009 13:17:01 10.3 C 7.57 g/m*3 10.3 C 0 km/h
Sensor: Nr:Datum:Temp:Abs-Feuchte:Windchill:Wind:
Aussen-T/F 2826 06-12-2009 13:29:01 10.7 C 7.27 g/m*3 10.7 C 0 km/h
2827 06-12-2009 13:41:02 10.9 C 6.96 g/m*3 10.9 C 0 km/h
2828 06-12-2009 13:53:02 11.1 C 7.05 g/m*3 11.1 C 0 km/h
2829 06-12-2009 14:05:02 11.6 C 7.17 g/m*3 11.6 C 0 km/h
2830 06-12-2009 14:17:02 11.9 C 7.1 g/m*3 11.9 C 0 km/h
2831 06-12-2009 14:29:02 12 C 6.93 g/m*3 12 C 0 km/h
2832 06-12-2009 14:41:02 11.8 C 7.05 g/m*3 11.8 C 0 km/h
2833 06-12-2009 14:53:01 11.6 C 7.17 g/m*3 11.6 C 0 km/h
2834 06-12-2009 15:05:01 11.6 C 7.28 g/m*3 11.6 C 0 km/h
2835 06-12-2009 15:17:02 11.4 C 7.29 g/m*3 11.4 C 0 km/h
2836 06-12-2009 15:29:02 11.2 C 7.5 g/m*3 11.2 C 0 km/h
2837 06-12-2009 15:41:01 11.1 C 7.45 g/m*3 11.1 C 0 km/h
2838 06-12-2009 15:53:02 11.1 C 7.45 g/m*3 11.1 C 0 km/h
2839 06-12-2009 16:05:02 11.2 C 7.4 g/m*3 11.2 C 0 km/h
2840 06-12-2009 16:17:02 11.1 C 7.35 g/m*3 11.1 C 0 km/h
2841 06-12-2009 16:29:02 11.1 C 7.35 g/m*3 11.1 C 0 km/h
2842 06-12-2009 16:41:02 11.1 C 7.35 g/m*3 11.1 C 0 km/h
2843 06-12-2009 16:53:01 11 C 7.41 g/m*3 11 C 0 km/h
2844 06-12-2009 17:05:02 11 C 7.41 g/m*3 11 C 0 km/h
2845 06-12-2009 17:17:02 10.9 C 7.46 g/m*3 10.9 C 0 km/h
2846 06-12-2009 17:29:02 10.9 C 7.66 g/m*3 10.9 C 0 km/h
2847 06-12-2009 17:41:01 11 C 7.71 g/m*3 11 C 0 km/h
2848 06-12-2009 17:53:02 10.8 C 7.71 g/m*3 10.8 C 0 km/h
2849 06-12-2009 18:05:07 11 C 7.71 g/m*3 11 C 0 km/h
2850 06-12-2009 18:17:05 11 C 7.71 g/m*3 11 C 0 km/h
Sensor: Nr:Datum:Temp:Abs-Feuchte:Windchill:Wind:
Aussen-T/F 2851 06-12-2009 18:29:05 11 C 7.71 g/m*3 11 C 0 km/h
2852 06-12-2009 18:41:05 11 C 7.71 g/m*3 11 C 0 km/h
2853 06-12-2009 18:53:05 11 C 7.71 g/m*3 11 C 0 km/h
2854 06-12-2009 19:05:05 11.2 C 7.7 g/m*3 11.2 C 0 km/h
2855 06-12-2009 19:17:06 11.4 C 7.8 g/m*3 11.4 C 0 km/h
2856 06-12-2009 19:29:06 11.4 C 7.8 g/m*3 11.4 C 0 km/h
2857 06-12-2009 19:41:06 11.4 C 7.9 g/m*3 11.4 C 0 km/h
2858 06-12-2009 19:53:02 11 C 8.01 g/m*3 11 C 0 km/h
2859 06-12-2009 20:05:02 11 C 8.31 g/m*3 11 C 0 km/h
2860 06-12-2009 20:17:02 10.7 C 8.25 g/m*3 10.7 C 0 km/h
2861 06-12-2009 20:29:02 10.6 C 8.2 g/m*3 10.6 C 0 km/h
2862 06-12-2009 20:41:02 10.5 C 8.24 g/m*3 10.5 C 0 km/h
2863 06-12-2009 20:53:02 10.4 C 8.19 g/m*3 10.4 C 0 km/h
2864 06-12-2009 21:05:02 10.4 C 8.19 g/m*3 10.4 C 0 km/h
2865 06-12-2009 21:17:02 10 C 7.99 g/m*3 10 C 0 km/h
2866 06-12-2009 21:29:02 9.6 C 7.88 g/m*3 9.6 C 0 km/h
2867 06-12-2009 21:41:02 9.3 C 7.82 g/m*3 9.3 C 0 km/h
2868 06-12-2009 21:54:02 9.2 C 7.77 g/m*3 9.2 C 0 km/h
2869 06-12-2009 22:06:02 9 C 7.76 g/m*3 9 C 0 km/h
2870 06-12-2009 22:18:02 8.9 C 7.8 g/m*3 8.9 C 0 km/h
2871 06-12-2009 22:30:03 8.9 C 7.88 g/m*3 8.9 C 0 km/h
2872 06-12-2009 22:42:03 8.9 C 7.88 g/m*3 8.9 C 0 km/h
2873 06-12-2009 22:54:03 8.6 C 7.65 g/m*3 8.6 C 0 km/h
2874 06-12-2009 23:06:03 8.4 C 7.47 g/m*3 8.4 C 0 km/h
2875 06-12-2009 23:18:03 8 C 7.19 g/m*3 8 C 0 km/h
Sensor: Nr:Datum:Temp:Abs-Feuchte:Windchill:Wind:
Aussen-T/F 2876 06-12-2009 23:30:03 7.7 C 7.14 g/m*3 7.7 C 0 km/h
2877 06-12-2009 23:42:03 7.6 C 6.93 g/m*3 7.6 C 0 km/h
2878 06-12-2009 23:54:03 7.3 C 6.72 g/m*3 7.3 C 0 km/h
2879 07-12-2009 00:06:03 6.9 C 6.62 g/m*3 6.9 C 0 km/h
2880 07-12-2009 00:18:03 6.7 C 6.46 g/m*3 6.7 C 0 km/h
2881 07-12-2009 00:30:03 7 C 6.43 g/m*3 7 C 0 km/h
2882 07-12-2009 00:42:03 6.7 C 6.31 g/m*3 6.7 C 0 km/h
2883 07-12-2009 00:54:03 6.6 C 6.34 g/m*3 6.6 C 0 km/h
2884 07-12-2009 01:06:03 6.6 C 6.42 g/m*3 6.6 C 0 km/h
2885 07-12-2009 01:18:03 6.8 C 6.5 g/m*3 6.8 C 0 km/h
2886 07-12-2009 01:30:03 6.6 C 6.42 g/m*3 6.6 C 0 km/h
2887 07-12-2009 01:42:03 6.5 C 6.45 g/m*3 6.5 C 0 km/h
2888 07-12-2009 01:54:03 5.9 C 6.27 g/m*3 5.9 C 0 km/h
2889 07-12-2009 02:06:03 5.4 C 6.07 g/m*3 5.4 C 0 km/h
2890 07-12-2009 02:18:03 4.9 C 5.94 g/m*3 4.9 C 0 km/h
2891 07-12-2009 02:30:04 4.7 C 5.93 g/m*3 4.7 C 0 km/h
2892 07-12-2009 02:42:04 4.7 C 5.93 g/m*3 4.7 C 0 km/h
2893 07-12-2009 02:54:04 4.5 C 5.85 g/m*3 4.5 C 0 km/h
2894 07-12-2009 03:06:04 4.3 C 5.84 g/m*3 4.3 C 0 km/h
2895 07-12-2009 03:18:04 4.3 C 5.84 g/m*3 4.3 C 0 km/h
2896 07-12-2009 03:30:04 4.4 C 5.94 g/m*3 4.4 C 0 km/h
2897 07-12-2009 03:42:04 4 C 5.79 g/m*3 4 C 0 km/h
2898 07-12-2009 03:54:04 3.9 C 5.81 g/m*3 3.9 C 0 km/h
2899 07-12-2009 04:06:04 3.7 C 5.73 g/m*3 3.7 C 0 km/h
2900 07-12-2009 04:18:04 3.6 C 5.69 g/m*3 3.6 C 0 km/h
Sensor: Nr:Datum:Temp:Abs-Feuchte:Windchill:Wind:
Aussen-T/F 2901 07-12-2009 04:30:04 3.5 C 5.66 g/m*3 3.5 C 0 km/h
2902 07-12-2009 04:42:04 3.3 C 5.58 g/m*3 3.3 C 0 km/h
2903 07-12-2009 04:54:04 3 C 5.47 g/m*3 3 C 0 km/h
2904 07-12-2009 05:06:04 3 C 5.53 g/m*3 3 C 0 km/h
2905 07-12-2009 05:18:04 2.9 C 5.55 g/m*3 2.9 C 0 km/h
2906 07-12-2009 05:30:04 2.6 C 5.44 g/m*3 2.6 C 0 km/h
2907 07-12-2009 05:42:04 2.3 C 5.33 g/m*3 2.3 C 0 km/h
2908 07-12-2009 05:54:04 2.2 C 5.29 g/m*3 2.2 C 0 km/h
2909 07-12-2009 06:06:04 2.3 C 5.33 g/m*3 2.3 C 0 km/h
2910 07-12-2009 06:18:04 2.4 C 5.37 g/m*3 2.4 C 0 km/h
2911 07-12-2009 06:30:04 2.3 C 5.33 g/m*3 2.3 C 0 km/h
2912 07-12-2009 06:42:05 2.5 C 5.46 g/m*3 2.5 C 0 km/h
2913 07-12-2009 06:54:05 3 C 5.65 g/m*3 3 C 0 km/h
2914 07-12-2009 07:06:02 3 C 5.65 g/m*3 3 C 0 km/h
2915 07-12-2009 07:18:02 3 C 5.65 g/m*3 3 C 0 km/h
2916 07-12-2009 07:30:02 2.8 C 5.57 g/m*3 2.8 C 0 km/h
2917 07-12-2009 07:42:02 2.9 C 5.61 g/m*3 2.9 C 0 km/h
2918 07-12-2009 07:54:02 2.7 C 5.54 g/m*3 2.7 C 0 km/h
2919 07-12-2009 08:06:02 2.8 C 5.57 g/m*3 2.8 C 0 km/h
2920 07-12-2009 08:18:02 3.3 C 5.76 g/m*3 3.3 C 0 km/h
2921 07-12-2009 08:30:02 3.3 C 5.76 g/m*3 3.3 C 0 km/h
2922 07-12-2009 08:42:02 3.3 C 5.76 g/m*3 3.3 C 0 km/h
2923 07-12-2009 08:54:01 2.9 C 5.61 g/m*3 2.9 C 0 km/h
2924 07-12-2009 09:06:02 2.9 C 5.61 g/m*3 2.9 C 0 km/h
2925 07-12-2009 09:18:02 3 C 5.65 g/m*3 3 C 0 km/h
Sensor: Nr:Datum:Temp:Abs-Feuchte:Windchill:Wind:
Aussen-T/F 2926 07-12-2009 09:30:02 3.4 C 5.8 g/m*3 3.4 C 0 km/h
2927 07-12-2009 09:42:01 4.5 C 6.24 g/m*3 4.5 C 0 km/h
2928 07-12-2009 09:54:01 5.2 C 6.54 g/m*3 5.2 C 0 km/h
2929 07-12-2009 10:06:02 5.4 C 6.63 g/m*3 5.4 C 0 km/h
2930 07-12-2009 10:18:01 5.5 C 6.6 g/m*3 5.5 C 0 km/h
2931 07-12-2009 10:30:01 5.8 C 6.52 g/m*3 5.8 C 0 km/h
2932 07-12-2009 10:42:01 5.9 C 6.42 g/m*3 5.9 C 0 km/h
2933 07-12-2009 10:54:02 6.3 C 6.29 g/m*3 6.3 C 0 km/h
2934 07-12-2009 11:06:02 6.5 C 6.3 g/m*3 6.5 C 0 km/h
2935 07-12-2009 11:18:03 6.7 C 6.23 g/m*3 6.7 C 0 km/h
2936 07-12-2009 11:30:03 6.8 C 6.27 g/m*3 6.8 C 0 km/h
2937 07-12-2009 11:42:02 7 C 6.28 g/m*3 7 C 0 km/h
2938 07-12-2009 11:54:02 7.1 C 6.01 g/m*3 7.1 C 0 km/h
2939 07-12-2009 12:06:01 7.1 C 6.01 g/m*3 7.1 C 0 km/h
2940 07-12-2009 12:18:02 7.4 C 5.88 g/m*3 7.4 C 0 km/h
2941 07-12-2009 12:30:03 7.5 C 5.84 g/m*3 7.5 C 0 km/h
2942 07-12-2009 12:42:01 7.7 C 6.16 g/m*3 7.7 C 0 km/h
2943 07-12-2009 12:54:02 7.9 C 6.16 g/m*3 7.9 C 0 km/h
2944 07-12-2009 13:06:02 7.7 C 6 g/m*3 7.7 C 0 km/h
2945 07-12-2009 13:18:02 7.8 C 5.96 g/m*3 7.8 C 0 km/h
2946 07-12-2009 13:30:02 7.9 C 5.67 g/m*3 7.9 C 0 km/h
2947 07-12-2009 13:42:03 7.7 C 5.59 g/m*3 7.7 C 0 km/h
2948 07-12-2009 13:54:02 7.5 C 5.68 g/m*3 7.5 C 0 km/h
2949 07-12-2009 14:06:02 7.8 C 5.71 g/m*3 7.8 C 0 km/h
2950 07-12-2009 14:18:02 8 C 5.62 g/m*3 8 C 0 km/h
Sensor: Nr:Datum:Temp:Abs-Feuchte:Windchill:Wind:
Aussen-T/F 2951 07-12-2009 14:30:02 8 C 5.21 g/m*3 8 C 0 km/h
2952 07-12-2009 14:42:02 8 C 5.13 g/m*3 8 C 0 km/h
2953 07-12-2009 14:54:01 7.6 C 5.24 g/m*3 7.6 C 0 km/h
2954 07-12-2009 15:06:02 7.4 C 5.25 g/m*3 7.4 C 0 km/h
2955 07-12-2009 15:18:01 7.2 C 5.26 g/m*3 7.2 C 0 km/h
2956 07-12-2009 15:30:01 7.1 C 5.23 g/m*3 7.1 C 0 km/h
2957 07-12-2009 15:42:02 7.1 C 5.3 g/m*3 7.1 C 0 km/h
2958 07-12-2009 15:54:02 7.2 C 5.26 g/m*3 7.2 C 0 km/h
2959 07-12-2009 16:06:02 6.9 C 5.31 g/m*3 6.9 C 0 km/h
2960 07-12-2009 16:18:01 6.7 C 5.32 g/m*3 6.7 C 0 km/h
2961 07-12-2009 16:30:01 6.6 C 5.36 g/m*3 6.6 C 0 km/h
2962 07-12-2009 16:42:02 6.4 C 5.36 g/m*3 6.4 C 0 km/h
2963 07-12-2009 16:54:02 6.3 C 5.55 g/m*3 6.3 C 0 km/h
2964 07-12-2009 17:06:02 6.2 C 5.66 g/m*3 6.2 C 0 km/h
2965 07-12-2009 17:18:02 6.3 C 5.77 g/m*3 6.3 C 0 km/h
2966 07-12-2009 17:30:02 6.3 C 5.85 g/m*3 6.3 C 0 km/h
2967 07-12-2009 17:42:02 6.4 C 5.96 g/m*3 6.4 C 0 km/h
2968 07-12-2009 17:54:01 6.5 C 6 g/m*3 6.5 C 0 km/h
2969 07-12-2009 18:06:02 6.5 C 6 g/m*3 6.5 C 0 km/h
2970 07-12-2009 18:18:02 6.6 C 6.04 g/m*3 6.6 C 0 km/h
2971 07-12-2009 18:30:02 6.7 C 6.15 g/m*3 6.7 C 0 km/h
2972 07-12-2009 18:42:02 6.6 C 6.11 g/m*3 6.6 C 0 km/h
2973 07-12-2009 18:54:02 6.3 C 6 g/m*3 6.3 C 0 km/h
2974 07-12-2009 19:06:02 6.3 C 6.07 g/m*3 6.3 C 0 km/h
2975 07-12-2009 19:18:02 6.4 C 6.18 g/m*3 6.4 C 0 km/h
Sensor: Nr:Datum:Temp:Abs-Feuchte:Windchill:Wind:
Aussen-T/F 2976 07-12-2009 19:30:03 6.4 C 6.18 g/m*3 6.4 C 0 km/h
2977 07-12-2009 19:42:02 6.4 C 6.18 g/m*3 6.4 C 0 km/h
2978 07-12-2009 19:54:02 6.2 C 6.1 g/m*3 6.2 C 0 km/h
2979 07-12-2009 20:06:02 6.2 C 6.18 g/m*3 6.2 C 0 km/h
2980 07-12-2009 20:18:02 6.3 C 6.29 g/m*3 6.3 C 0 km/h
2981 07-12-2009 20:30:02 6.4 C 6.41 g/m*3 6.4 C 0 km/h
2982 07-12-2009 20:42:03 6.3 C 6.44 g/m*3 6.3 C 0 km/h
2983 07-12-2009 20:54:01 6.3 C 6.51 g/m*3 6.3 C 0 km/h
2984 07-12-2009 21:06:02 6.3 C 6.59 g/m*3 6.3 C 0 km/h
2985 07-12-2009 21:18:01 6.4 C 6.71 g/m*3 6.4 C 0 km/h
2986 07-12-2009 21:30:01 6.4 C 6.71 g/m*3 6.4 C 0 km/h
2987 07-12-2009 21:42:02 6.3 C 6.74 g/m*3 6.3 C 0 km/h
2988 07-12-2009 21:55:03 6.4 C 6.85 g/m*3 6.4 C 0 km/h
2989 07-12-2009 22:07:03 6.4 C 6.85 g/m*3 6.4 C 0 km/h
2990 07-12-2009 22:19:03 6.2 C 6.77 g/m*3 6.2 C 0 km/h
2991 07-12-2009 22:31:03 5.9 C 6.71 g/m*3 5.9 C 0 km/h
2992 07-12-2009 22:43:03 5.8 C 6.66 g/m*3 5.8 C 0 km/h
2993 07-12-2009 22:55:03 6 C 6.75 g/m*3 6 C 0 km/h
2994 07-12-2009 23:07:03 6.1 C 6.87 g/m*3 6.1 C 0 km/h
2995 07-12-2009 23:19:03 6.2 C 6.91 g/m*3 6.2 C 0 km/h
2996 07-12-2009 23:31:03 6.5 C 7.05 g/m*3 6.5 C 0 km/h
2997 07-12-2009 23:43:03 6.4 C 7.08 g/m*3 6.4 C 0 km/h
2998 07-12-2009 23:55:03 6.5 C 7.12 g/m*3 6.5 C 0 km/h
2999 08-12-2009 00:07:03 6.5 C 7.12 g/m*3 6.5 C 0 km/h
3000 08-12-2009 00:19:04 6.4 C 7.08 g/m*3 6.4 C 0 km/h
Sensor: Nr:Datum:Temp:Abs-Feuchte:Windchill:Wind:
Aussen-T/F 3001 08-12-2009 00:31:04 6.5 C 7.12 g/m*3 6.5 C 0 km/h
3002 08-12-2009 00:43:04 6.4 C 7.08 g/m*3 6.4 C 0 km/h
3003 08-12-2009 00:55:04 6.4 C 7.08 g/m*3 6.4 C 0 km/h
3004 08-12-2009 01:07:04 6.5 C 7.12 g/m*3 6.5 C 0 km/h
3005 08-12-2009 01:19:04 6.9 C 7.31 g/m*3 6.9 C 0 km/h
3006 08-12-2009 01:31:04 7 C 7.36 g/m*3 7 C 0 km/h
3007 08-12-2009 01:43:04 7.2 C 7.46 g/m*3 7.2 C 0 km/h
3008 08-12-2009 01:55:04 7.3 C 7.51 g/m*3 7.3 C 0 km/h
3009 08-12-2009 02:07:04 7.3 C 7.51 g/m*3 7.3 C 0 km/h
3010 08-12-2009 02:19:04 7.1 C 7.41 g/m*3 7.1 C 0 km/h
3011 08-12-2009 02:31:04 7.2 C 7.46 g/m*3 7.2 C 0 km/h
3012 08-12-2009 02:43:04 7.1 C 7.41 g/m*3 7.1 C 0 km/h
3013 08-12-2009 02:55:04 7.3 C 7.51 g/m*3 7.3 C 0 km/h
3014 08-12-2009 03:07:04 7.5 C 7.6 g/m*3 7.5 C 0 km/h
3015 08-12-2009 03:19:04 7.7 C 7.7 g/m*3 7.7 C 0 km/h
3016 08-12-2009 03:31:04 7.6 C 7.65 g/m*3 7.6 C 0 km/h
3017 08-12-2009 03:43:04 7.7 C 7.7 g/m*3 7.7 C 0 km/h
3018 08-12-2009 03:55:04 8 C 7.85 g/m*3 8 C 0 km/h
3019 08-12-2009 04:07:04 8.1 C 7.9 g/m*3 8.1 C 0 km/h
3020 08-12-2009 04:19:04 7.9 C 7.8 g/m*3 7.9 C 0 km/h
3021 08-12-2009 04:31:05 7.9 C 7.8 g/m*3 7.9 C 0 km/h
3022 08-12-2009 04:43:05 7.9 C 7.8 g/m*3 7.9 C 0 km/h
3023 08-12-2009 04:55:05 7.8 C 7.75 g/m*3 7.8 C 0 km/h
3024 08-12-2009 05:07:05 7.9 C 7.8 g/m*3 7.9 C 0 km/h
3025 08-12-2009 05:19:05 8.2 C 7.87 g/m*3 8.2 C 0 km/h
Sensor: Nr:Datum:Temp:Abs-Feuchte:Windchill:Wind:
Aussen-T/F 3026 08-12-2009 05:31:05 8.5 C 7.85 g/m*3 8.5 C 0 km/h
3027 08-12-2009 05:43:05 8.5 C 7.51 g/m*3 8.5 C 0 km/h
3028 08-12-2009 05:55:05 8.3 C 7 g/m*3 8.3 C 0 km/h
3029 08-12-2009 06:07:05 8 C 6.28 g/m*3 8 C 0 km/h
3030 08-12-2009 06:19:05 7.8 C 6.12 g/m*3 7.8 C 0 km/h
3031 08-12-2009 06:31:05 7.6 C 6.04 g/m*3 7.6 C 0 km/h
3032 08-12-2009 06:43:05 7.4 C 5.88 g/m*3 7.4 C 0 km/h
3033 08-12-2009 06:55:02 7.3 C 6 g/m*3 7.3 C 0 km/h
3034 08-12-2009 07:07:02 7.2 C 5.97 g/m*3 7.2 C 0 km/h
3035 08-12-2009 07:19:03 7.1 C 5.85 g/m*3 7.1 C 0 km/h
3036 08-12-2009 07:31:02 6.8 C 5.97 g/m*3 6.8 C 0 km/h
3037 08-12-2009 07:43:02 6.4 C 5.96 g/m*3 6.4 C 0 km/h
3038 08-12-2009 07:55:03 6.2 C 6.03 g/m*3 6.2 C 0 km/h
3039 08-12-2009 08:07:02 6 C 5.88 g/m*3 6 C 0 km/h
3040 08-12-2009 08:19:02 5.9 C 6.06 g/m*3 5.9 C 0 km/h
3041 08-12-2009 08:31:02 6 C 6.02 g/m*3 6 C 0 km/h
3042 08-12-2009 08:43:02 6 C 6.1 g/m*3 6 C 0 km/h
3043 08-12-2009 08:55:02 6.2 C 6.18 g/m*3 6.2 C 0 km/h
3044 08-12-2009 09:07:02 6.3 C 6.14 g/m*3 6.3 C 0 km/h
3045 08-12-2009 09:19:02 6.2 C 6.1 g/m*3 6.2 C 0 km/h
3046 08-12-2009 09:31:02 6.2 C 5.96 g/m*3 6.2 C 0 km/h
3047 08-12-2009 09:43:02 6.4 C 5.81 g/m*3 6.4 C 0 km/h
3048 08-12-2009 09:55:02 6.6 C 5.89 g/m*3 6.6 C 0 km/h
3049 08-12-2009 10:07:02 6.8 C 5.89 g/m*3 6.8 C 0 km/h
3050 08-12-2009 10:19:01 6.8 C 5.74 g/m*3 6.8 C 0 km/h
Sensor: Nr:Datum:Temp:Abs-Feuchte:Windchill:Wind:
Aussen-T/F 3051 08-12-2009 10:31:02 6.9 C 5.77 g/m*3 6.9 C 0 km/h
3052 08-12-2009 10:43:02 7.1 C 5.85 g/m*3 7.1 C 0 km/h
3053 08-12-2009 10:55:02 7.3 C 5.85 g/m*3 7.3 C 0 km/h
3054 08-12-2009 11:07:02 7.4 C 5.88 g/m*3 7.4 C 0 km/h
3055 08-12-2009 11:19:02 7.4 C 5.81 g/m*3 7.4 C 0 km/h
3056 08-12-2009 11:31:02 7.4 C 5.81 g/m*3 7.4 C 0 km/h
3057 08-12-2009 11:43:02 7.5 C 5.92 g/m*3 7.5 C 0 km/h
3058 08-12-2009 11:55:02 7.4 C 5.73 g/m*3 7.4 C 0 km/h
3059 08-12-2009 12:07:02 7.4 C 5.73 g/m*3 7.4 C 0 km/h
3060 08-12-2009 12:19:02 7.4 C 5.81 g/m*3 7.4 C 0 km/h
3061 08-12-2009 12:31:02 7.6 C 5.72 g/m*3 7.6 C 0 km/h
3062 08-12-2009 12:43:02 7.9 C 5.67 g/m*3 7.9 C 0 km/h
3063 08-12-2009 12:55:02 8 C 5.46 g/m*3 8 C 0 km/h
3064 08-12-2009 13:07:02 8 C 5.37 g/m*3 8 C 0 km/h
3065 08-12-2009 13:19:03 7.9 C 5.5 g/m*3 7.9 C 0 km/h
3066 08-12-2009 13:31:02 7.8 C 5.55 g/m*3 7.8 C 0 km/h
3067 08-12-2009 13:43:02 7.6 C 5.48 g/m*3 7.6 C 0 km/h
3068 08-12-2009 13:55:03 7.5 C 5.52 g/m*3 7.5 C 0 km/h
3069 08-12-2009 14:07:02 7.5 C 5.6 g/m*3 7.5 C 0 km/h
3070 08-12-2009 14:19:02 7.5 C 5.52 g/m*3 7.5 C 0 km/h
3071 08-12-2009 14:31:02 7.8 C 5.63 g/m*3 7.8 C 0 km/h
3072 08-12-2009 14:43:02 7.8 C 5.55 g/m*3 7.8 C 0 km/h
3073 08-12-2009 14:55:02 7.8 C 5.55 g/m*3 7.8 C 0 km/h
3074 08-12-2009 15:07:02 7.8 C 5.63 g/m*3 7.8 C 0 km/h
3075 08-12-2009 15:19:02 7.7 C 5.59 g/m*3 7.7 C 0 km/h
Sensor: Nr:Datum:Temp:Abs-Feuchte:Windchill:Wind:
Aussen-T/F 3076 08-12-2009 15:31:02 7.5 C 5.68 g/m*3 7.5 C 0 km/h
3077 08-12-2009 15:43:02 7.3 C 5.61 g/m*3 7.3 C 0 km/h
3078 08-12-2009 15:55:02 7.4 C 5.57 g/m*3 7.4 C 0 km/h
3079 08-12-2009 16:07:01 7.3 C 5.61 g/m*3 7.3 C 0 km/h
3080 08-12-2009 16:19:01 6.9 C 5.7 g/m*3 6.9 C 0 km/h
3081 08-12-2009 16:31:02 6.9 C 5.62 g/m*3 6.9 C 0 km/h
3082 08-12-2009 16:43:02 6.9 C 5.62 g/m*3 6.9 C 0 km/h
3083 08-12-2009 16:55:02 6.8 C 5.66 g/m*3 6.8 C 0 km/h
3084 08-12-2009 17:07:02 6.5 C 5.7 g/m*3 6.5 C 0 km/h
3085 08-12-2009 17:19:02 6.5 C 5.7 g/m*3 6.5 C 0 km/h
3086 08-12-2009 17:31:02 6.5 C 5.7 g/m*3 6.5 C 0 km/h
3087 08-12-2009 17:43:02 6.4 C 5.66 g/m*3 6.4 C 0 km/h
3088 08-12-2009 17:55:01 6.3 C 5.7 g/m*3 6.3 C 0 km/h
3089 08-12-2009 18:07:02 6 C 5.66 g/m*3 6 C 0 km/h
3090 08-12-2009 18:19:01 5.9 C 5.77 g/m*3 5.9 C 0 km/h
3091 08-12-2009 18:31:02 5.8 C 5.8 g/m*3 5.8 C 0 km/h
3092 08-12-2009 18:43:03 5.7 C 5.76 g/m*3 5.7 C 0 km/h
3093 08-12-2009 18:55:02 5.8 C 5.87 g/m*3 5.8 C 0 km/h
3094 08-12-2009 19:07:02 5.7 C 5.84 g/m*3 5.7 C 0 km/h
3095 08-12-2009 19:19:01 6 C 5.88 g/m*3 6 C 0 km/h
3096 08-12-2009 19:31:02 6 C 5.81 g/m*3 6 C 0 km/h
3097 08-12-2009 19:43:02 6.1 C 5.84 g/m*3 6.1 C 0 km/h
3098 08-12-2009 19:55:02 6.2 C 5.88 g/m*3 6.2 C 0 km/h
3099 08-12-2009 20:07:02 6.2 C 5.88 g/m*3 6.2 C 0 km/h
3100 08-12-2009 20:19:02 6.3 C 5.92 g/m*3 6.3 C 0 km/h
Sensor: Nr:Datum:Temp:Abs-Feuchte:Windchill:Wind:
Aussen-T/F 3101 08-12-2009 20:31:02 6.3 C 6 g/m*3 6.3 C 0 km/h
3102 08-12-2009 20:43:02 6.3 C 6 g/m*3 6.3 C 0 km/h
3103 08-12-2009 20:55:02 6.3 C 6.07 g/m*3 6.3 C 0 km/h
3104 08-12-2009 21:07:01 6.3 C 6.07 g/m*3 6.3 C 0 km/h
3105 08-12-2009 21:19:02 6.4 C 6.11 g/m*3 6.4 C 0 km/h
3106 08-12-2009 21:31:01 6.4 C 6.11 g/m*3 6.4 C 0 km/h
3107 08-12-2009 21:43:01 6.5 C 6.15 g/m*3 6.5 C 0 km/h
3108 08-12-2009 21:55:02 6.5 C 6.15 g/m*3 6.5 C 0 km/h
3109 08-12-2009 22:07:02 6.4 C 6.11 g/m*3 6.4 C 0 km/h
3110 08-12-2009 22:19:02 6.4 C 6.11 g/m*3 6.4 C 0 km/h
3111 08-12-2009 22:31:02 6.4 C 6.11 g/m*3 6.4 C 0 km/h
3112 08-12-2009 22:43:02 6.3 C 6.14 g/m*3 6.3 C 0 km/h
3113 08-12-2009 22:55:02 6.3 C 6.22 g/m*3 6.3 C 0 km/h
3114 08-12-2009 23:07:02 6.4 C 6.26 g/m*3 6.4 C 0 km/h
3115 08-12-2009 23:19:02 6.5 C 6.22 g/m*3 6.5 C 0 km/h
3116 08-12-2009 23:31:02 6.5 C 6.22 g/m*3 6.5 C 0 km/h
3117 08-12-2009 23:43:02 6.4 C 6.26 g/m*3 6.4 C 0 km/h
3118 08-12-2009 23:55:02 6.3 C 6.37 g/m*3 6.3 C 0 km/h
3119 09-12-2009 00:07:01 6.2 C 6.4 g/m*3 6.2 C 0 km/h
3120 09-12-2009 00:19:02 6.2 C 6.47 g/m*3 6.2 C 0 km/h
3121 09-12-2009 00:31:01 6 C 6.39 g/m*3 6 C 0 km/h
3122 09-12-2009 00:43:01 6 C 6.46 g/m*3 6 C 0 km/h
3123 09-12-2009 00:55:02 6 C 6.46 g/m*3 6 C 0 km/h
3124 09-12-2009 01:07:01 5.9 C 6.49 g/m*3 5.9 C 0 km/h
3125 09-12-2009 01:19:01 6 C 6.46 g/m*3 6 C 0 km/h
Sensor: Nr:Datum:Temp:Abs-Feuchte:Windchill:Wind:
Aussen-T/F 3126 09-12-2009 01:31:02 6 C 6.46 g/m*3 6 C 0 km/h
3127 09-12-2009 01:43:02 6.1 C 6.5 g/m*3 6.1 C 0 km/h
3128 09-12-2009 01:55:02 6.1 C 6.5 g/m*3 6.1 C 0 km/h
3129 09-12-2009 02:07:02 6.1 C 6.43 g/m*3 6.1 C 0 km/h
3130 09-12-2009 02:19:02 5.9 C 6.42 g/m*3 5.9 C 0 km/h
3131 09-12-2009 02:31:02 5.9 C 6.35 g/m*3 5.9 C 0 km/h
3132 09-12-2009 02:43:02 5.7 C 6.26 g/m*3 5.7 C 0 km/h
3133 09-12-2009 02:55:01 5.5 C 6.18 g/m*3 5.5 C 0 km/h
3134 09-12-2009 03:07:01 5.5 C 6.18 g/m*3 5.5 C 0 km/h
3135 09-12-2009 03:19:02 5.6 C 6.29 g/m*3 5.6 C 0 km/h
3136 09-12-2009 03:31:01 5.8 C 6.3 g/m*3 5.8 C 0 km/h
3137 09-12-2009 03:43:01 5.9 C 6.2 g/m*3 5.9 C 0 km/h
3138 09-12-2009 03:55:01 5.9 C 6.13 g/m*3 5.9 C 0 km/h
3139 09-12-2009 04:07:01 5.9 C 6.06 g/m*3 5.9 C 0 km/h
3140 09-12-2009 04:19:01 5.9 C 5.98 g/m*3 5.9 C 0 km/h
3141 09-12-2009 04:31:02 5.9 C 5.91 g/m*3 5.9 C 0 km/h
3142 09-12-2009 04:43:02 5.9 C 5.91 g/m*3 5.9 C 0 km/h
3143 09-12-2009 04:55:01 5.9 C 5.84 g/m*3 5.9 C 0 km/h
3144 09-12-2009 05:07:02 5.9 C 5.84 g/m*3 5.9 C 0 km/h
3145 09-12-2009 05:19:01 6 C 5.81 g/m*3 6 C 0 km/h
3146 09-12-2009 05:31:01 6 C 5.73 g/m*3 6 C 0 km/h
3147 09-12-2009 05:43:01 6 C 5.73 g/m*3 6 C 0 km/h
3148 09-12-2009 05:55:01 5.9 C 5.77 g/m*3 5.9 C 0 km/h
3149 09-12-2009 06:07:01 6 C 5.66 g/m*3 6 C 0 km/h
3150 09-12-2009 06:19:01 6 C 5.59 g/m*3 6 C 0 km/h
Sensor: Nr:Datum:Temp:Abs-Feuchte:Windchill:Wind:
Aussen-T/F 3151 09-12-2009 06:31:01 6 C 5.59 g/m*3 6 C 0 km/h
3152 09-12-2009 06:43:01 6 C 5.66 g/m*3 6 C 0 km/h
3153 09-12-2009 06:55:01 6.2 C 5.59 g/m*3 6.2 C 0 km/h
3154 09-12-2009 07:07:01 6.2 C 5.52 g/m*3 6.2 C 0 km/h
3155 09-12-2009 07:19:02 6.3 C 5.55 g/m*3 6.3 C 0 km/h
3156 09-12-2009 07:31:01 6.4 C 5.59 g/m*3 6.4 C 0 km/h
3157 09-12-2009 07:43:01 6.4 C 5.59 g/m*3 6.4 C 0 km/h
3158 09-12-2009 07:55:02 6.4 C 5.59 g/m*3 6.4 C 0 km/h
3159 09-12-2009 08:07:01 6.4 C 5.66 g/m*3 6.4 C 0 km/h
3160 09-12-2009 08:19:01 6.3 C 5.63 g/m*3 6.3 C 0 km/h
3161 09-12-2009 08:31:01 5.8 C 5.52 g/m*3 5.8 C 0 km/h
3162 09-12-2009 08:43:01 5.7 C 5.55 g/m*3 5.7 C 0 km/h
3163 09-12-2009 08:55:02 5.3 C 5.48 g/m*3 5.3 C 0 km/h
3164 09-12-2009 09:07:01 5.2 C 5.58 g/m*3 5.2 C 0 km/h
3165 09-12-2009 09:19:01 5.5 C 5.69 g/m*3 5.5 C 0 km/h
3166 09-12-2009 09:31:02 5.7 C 5.76 g/m*3 5.7 C 0 km/h
3167 09-12-2009 09:43:02 5.9 C 5.84 g/m*3 5.9 C 0 km/h
3168 09-12-2009 09:55:01 6 C 5.73 g/m*3 6 C 0 km/h
3169 09-12-2009 10:07:02 6.5 C 5.85 g/m*3 6.5 C 0 km/h
3170 09-12-2009 10:19:01 7.1 C 5.77 g/m*3 7.1 C 0 km/h
3171 09-12-2009 10:31:01 7.5 C 5.6 g/m*3 7.5 C 0 km/h
3172 09-12-2009 10:43:02 7.6 C 5.64 g/m*3 7.6 C 0 km/h
3173 09-12-2009 10:55:01 7.6 C 5.56 g/m*3 7.6 C 0 km/h
3174 09-12-2009 11:07:02 7.8 C 5.63 g/m*3 7.8 C 0 km/h
3175 09-12-2009 11:19:01 7.9 C 5.59 g/m*3 7.9 C 0 km/h
Sensor: Nr:Datum:Temp:Abs-Feuchte:Windchill:Wind:
Aussen-T/F 3176 09-12-2009 11:31:01 8 C 5.62 g/m*3 8 C 0 km/h
3177 09-12-2009 11:43:01 8 C 5.54 g/m*3 8 C 0 km/h
3178 09-12-2009 11:55:01 8.1 C 5.57 g/m*3 8.1 C 0 km/h
3179 09-12-2009 12:07:01 8.2 C 5.61 g/m*3 8.2 C 0 km/h
3180 09-12-2009 12:19:02 8.4 C 5.6 g/m*3 8.4 C 0 km/h
3181 09-12-2009 12:31:01 8.5 C 5.64 g/m*3 8.5 C 0 km/h
3182 09-12-2009 12:43:01 8.4 C 5.6 g/m*3 8.4 C 0 km/h
3183 09-12-2009 12:55:02 8.7 C 5.71 g/m*3 8.7 C 0 km/h
3184 09-12-2009 13:07:01 9 C 5.64 g/m*3 9 C 0 km/h
3185 09-12-2009 13:19:02 9.1 C 5.68 g/m*3 9.1 C 0 km/h
3186 09-12-2009 13:31:01 8.7 C 5.71 g/m*3 8.7 C 0 km/h
3187 09-12-2009 13:43:01 8.8 C 5.83 g/m*3 8.8 C 0 km/h
3188 09-12-2009 13:55:02 9.1 C 5.86 g/m*3 9.1 C 0 km/h
3189 09-12-2009 14:07:01 8.9 C 5.87 g/m*3 8.9 C 0 km/h
3190 09-12-2009 14:19:01 8.8 C 5.92 g/m*3 8.8 C 0 km/h
3191 09-12-2009 14:31:02 9 C 5.91 g/m*3 9 C 0 km/h
3192 09-12-2009 14:43:02 9.3 C 6.02 g/m*3 9.3 C 0 km/h
3193 09-12-2009 14:55:01 9.3 C 6.02 g/m*3 9.3 C 0 km/h
3194 09-12-2009 15:07:02 9.4 C 5.97 g/m*3 9.4 C 0 km/h
3195 09-12-2009 15:19:01 9.2 C 5.89 g/m*3 9.2 C 0 km/h
3196 09-12-2009 15:31:02 9.1 C 5.86 g/m*3 9.1 C 0 km/h
3197 09-12-2009 15:43:02 9.1 C 5.94 g/m*3 9.1 C 0 km/h
3198 09-12-2009 15:55:01 9 C 5.91 g/m*3 9 C 0 km/h
3199 09-12-2009 16:07:02 9 C 5.99 g/m*3 9 C 0 km/h
3200 09-12-2009 16:19:01 8.9 C 6.13 g/m*3 8.9 C 0 km/h
Sensor: Nr:Datum:Temp:Abs-Feuchte:Windchill:Wind:
Aussen-T/F 3201 09-12-2009 16:31:01 8.7 C 6.14 g/m*3 8.7 C 0 km/h
3202 09-12-2009 16:43:01 8.6 C 6.19 g/m*3 8.6 C 0 km/h
3203 09-12-2009 16:55:01 8.6 C 6.27 g/m*3 8.6 C 0 km/h
3204 09-12-2009 17:07:01 8.5 C 6.32 g/m*3 8.5 C 0 km/h
3205 09-12-2009 17:19:02 8.4 C 6.28 g/m*3 8.4 C 0 km/h
3206 09-12-2009 17:31:01 8.4 C 6.36 g/m*3 8.4 C 0 km/h
3207 09-12-2009 17:43:01 8.4 C 6.36 g/m*3 8.4 C 0 km/h
3208 09-12-2009 17:55:01 8.2 C 6.36 g/m*3 8.2 C 0 km/h
3209 09-12-2009 18:07:02 8.1 C 6.41 g/m*3 8.1 C 0 km/h
3210 09-12-2009 18:19:01 8.2 C 6.53 g/m*3 8.2 C 0 km/h
3211 09-12-2009 18:31:01 8.2 C 6.53 g/m*3 8.2 C 0 km/h
3212 09-12-2009 18:43:01 8.2 C 6.53 g/m*3 8.2 C 0 km/h
3213 09-12-2009 18:55:01 8.4 C 6.62 g/m*3 8.4 C 0 km/h
3214 09-12-2009 19:07:01 8.1 C 6.41 g/m*3 8.1 C 0 km/h
3215 09-12-2009 19:19:02 7.8 C 6.53 g/m*3 7.8 C 0 km/h
3216 09-12-2009 19:31:01 7.8 C 6.69 g/m*3 7.8 C 0 km/h
3217 09-12-2009 19:43:01 7.7 C 6.73 g/m*3 7.7 C 0 km/h
3218 09-12-2009 19:55:01 7.7 C 6.81 g/m*3 7.7 C 0 km/h
3219 09-12-2009 20:07:01 7.7 C 6.89 g/m*3 7.7 C 0 km/h
3220 09-12-2009 20:19:02 7.8 C 6.94 g/m*3 7.8 C 0 km/h
3221 09-12-2009 20:31:01 7.8 C 7.02 g/m*3 7.8 C 0 km/h
3222 09-12-2009 20:43:01 7.8 C 7.02 g/m*3 7.8 C 0 km/h
3223 09-12-2009 20:55:02 7.7 C 7.05 g/m*3 7.7 C 0 km/h
3224 09-12-2009 21:07:02 7.7 C 7.05 g/m*3 7.7 C 0 km/h
3225 09-12-2009 21:19:01 7.8 C 7.1 g/m*3 7.8 C 0 km/h
Sensor: Nr:Datum:Temp:Abs-Feuchte:Windchill:Wind:
Aussen-T/F 3226 09-12-2009 21:31:01 7.8 C 7.1 g/m*3 7.8 C 0 km/h
3227 09-12-2009 21:43:01 7.6 C 7.01 g/m*3 7.6 C 0 km/h
3228 09-12-2009 21:55:01 7.6 C 7.09 g/m*3 7.6 C 0 km/h
3229 09-12-2009 22:08:02 7.6 C 7.09 g/m*3 7.6 C 0 km/h
3230 09-12-2009 22:20:02 7.6 C 7.09 g/m*3 7.6 C 0 km/h
3231 09-12-2009 22:32:02 7.7 C 7.14 g/m*3 7.7 C 0 km/h
3232 09-12-2009 22:44:03 7.6 C 7.17 g/m*3 7.6 C 0 km/h
3233 09-12-2009 22:56:03 7.6 C 7.17 g/m*3 7.6 C 0 km/h
3234 09-12-2009 23:08:03 7.6 C 7.17 g/m*3 7.6 C 0 km/h
3235 09-12-2009 23:20:03 7.5 C 7.12 g/m*3 7.5 C 0 km/h
3236 09-12-2009 23:32:03 7.5 C 7.2 g/m*3 7.5 C 0 km/h
3237 09-12-2009 23:44:03 7.5 C 7.28 g/m*3 7.5 C 0 km/h
3238 09-12-2009 23:56:03 7.5 C 7.28 g/m*3 7.5 C 0 km/h
3239 10-12-2009 00:08:03